<?xml version="1.0" encoding="UTF-8"?><gpx xmlns="http://www.topografix.com/GPX/1/1" version="1.1" creator="iOrient"><trk><name>Рогейн "По лыжням и тропкам"</name><trkseg><trkpt lat="55.8334078" lon="48.9627800"><time>2022-03-07T06:15:31.777</time></trkpt><trkpt lat="55.8334530" lon="48.9628225"><time>2022-03-07T06:15:33.517</time></trkpt><trkpt lat="55.8334414" lon="48.9627440"><time>2022-03-07T06:15:34.647</time></trkpt><trkpt lat="55.8334066" lon="48.9628020"><time>2022-03-07T06:15:46.657</time></trkpt><trkpt lat="55.8334341" lon="48.9629108"><time>2022-03-07T06:15:49.650</time></trkpt><trkpt lat="55.8334892" lon="48.9630643"><time>2022-03-07T06:15:51.637</time></trkpt><trkpt lat="55.8335174" lon="48.9631606"><time>2022-03-07T06:15:52.667</time></trkpt><trkpt lat="55.8335447" lon="48.9632641"><time>2022-03-07T06:15:53.657</time></trkpt><trkpt lat="55.8335703" lon="48.9633641"><time>2022-03-07T06:15:54.683</time></trkpt><trkpt lat="55.8333967" lon="48.9636296"><time>2022-03-07T06:15:55.497</time></trkpt><trkpt lat="55.8336145" lon="48.9636087"><time>2022-03-07T06:15:56.433</time></trkpt><trkpt lat="55.8336008" lon="48.9637224"><time>2022-03-07T06:15:57.713</time></trkpt><trkpt lat="55.8336290" lon="48.9638837"><time>2022-03-07T06:15:59.700</time></trkpt><trkpt lat="55.8336316" lon="48.9639872"><time>2022-03-07T06:16:00.713</time></trkpt><trkpt lat="55.8336201" lon="48.9640876"><time>2022-03-07T06:16:01.637</time></trkpt><trkpt lat="55.8335987" lon="48.9641965"><time>2022-03-07T06:16:02.660</time></trkpt><trkpt lat="55.8336183" lon="48.9642540"><time>2022-03-07T06:16:03.413</time></trkpt><trkpt lat="55.8335837" lon="48.9643564"><time>2022-03-07T06:16:04.407</time></trkpt><trkpt lat="55.8335705" lon="48.9645138"><time>2022-03-07T06:16:05.693</time></trkpt><trkpt lat="55.8335705" lon="48.9646044"><time>2022-03-07T06:16:07.650</time></trkpt><trkpt lat="55.8335641" lon="48.9647040"><time>2022-03-07T06:16:08.647</time></trkpt><trkpt lat="55.8335591" lon="48.9647847"><time>2022-03-07T06:16:09.650</time></trkpt><trkpt lat="55.8334867" lon="48.9647981"><time>2022-03-07T06:16:14.657</time></trkpt><trkpt lat="55.8334251" lon="48.9648434"><time>2022-03-07T06:16:16.643</time></trkpt><trkpt lat="55.8333703" lon="48.9648673"><time>2022-03-07T06:16:18.647</time></trkpt><trkpt lat="55.8333264" lon="48.9649079"><time>2022-03-07T06:16:20.663</time></trkpt><trkpt lat="55.8332751" lon="48.9649531"><time>2022-03-07T06:16:22.667</time></trkpt><trkpt lat="55.8332360" lon="48.9649994"><time>2022-03-07T06:16:24.683</time></trkpt><trkpt lat="55.8331921" lon="48.9650316"><time>2022-03-07T06:16:26.667</time></trkpt><trkpt lat="55.8331465" lon="48.9650701"><time>2022-03-07T06:16:28.730</time></trkpt><trkpt lat="55.8330957" lon="48.9650988"><time>2022-03-07T06:16:30.653</time></trkpt><trkpt lat="55.8330468" lon="48.9651284"><time>2022-03-07T06:16:33.643</time></trkpt><trkpt lat="55.8330029" lon="48.9651037"><time>2022-03-07T06:16:38.657</time></trkpt><trkpt lat="55.8329638" lon="48.9651661"><time>2022-03-07T06:16:41.647</time></trkpt><trkpt lat="55.8329058" lon="48.9652000"><time>2022-03-07T06:16:44.667</time></trkpt><trkpt lat="55.8328569" lon="48.9652227"><time>2022-03-07T06:16:46.677</time></trkpt><trkpt lat="55.8327478" lon="48.9652994"><time>2022-03-07T06:16:47.440</time></trkpt><trkpt lat="55.8327541" lon="48.9652132"><time>2022-03-07T06:16:49.657</time></trkpt><trkpt lat="55.8327545" lon="48.9653053"><time>2022-03-07T06:16:51.637</time></trkpt><trkpt lat="55.8326963" lon="48.9653531"><time>2022-03-07T06:16:54.650</time></trkpt><trkpt lat="55.8326537" lon="48.9653906"><time>2022-03-07T06:16:56.620</time></trkpt><trkpt lat="55.8325936" lon="48.9654550"><time>2022-03-07T06:16:59.653</time></trkpt><trkpt lat="55.8325383" lon="48.9654762"><time>2022-03-07T06:17:01.623</time></trkpt><trkpt lat="55.8324891" lon="48.9655026"><time>2022-03-07T06:17:03.667</time></trkpt><trkpt lat="55.8324347" lon="48.9655268"><time>2022-03-07T06:17:05.633</time></trkpt><trkpt lat="55.8323821" lon="48.9655355"><time>2022-03-07T06:17:08.660</time></trkpt><trkpt lat="55.8323752" lon="48.9656321"><time>2022-03-07T06:17:14.667</time></trkpt><trkpt lat="55.8322285" lon="48.9657760"><time>2022-03-07T06:17:16.407</time></trkpt><trkpt lat="55.8322682" lon="48.9658548"><time>2022-03-07T06:17:17.630</time></trkpt><trkpt lat="55.8322765" lon="48.9659583"><time>2022-03-07T06:17:25.630</time></trkpt><trkpt lat="55.8322590" lon="48.9660437"><time>2022-03-07T06:17:28.670</time></trkpt><trkpt lat="55.8322590" lon="48.9660437"><time>2022-03-07T06:17:28.753</time></trkpt><trkpt lat="55.8322552" lon="48.9661352"><time>2022-03-07T06:17:33.677</time></trkpt><trkpt lat="55.8322824" lon="48.9662382"><time>2022-03-07T06:17:35.433</time></trkpt><trkpt lat="55.8321967" lon="48.9661843"><time>2022-03-07T06:17:37.660</time></trkpt><trkpt lat="55.8321808" lon="48.9662622"><time>2022-03-07T06:17:38.647</time></trkpt><trkpt lat="55.8321930" lon="48.9663530"><time>2022-03-07T06:17:40.647</time></trkpt><trkpt lat="55.8321603" lon="48.9664387"><time>2022-03-07T06:17:43.647</time></trkpt><trkpt lat="55.8321097" lon="48.9664597"><time>2022-03-07T06:17:47.647</time></trkpt><trkpt lat="55.8320977" lon="48.9665473"><time>2022-03-07T06:17:51.707</time></trkpt><trkpt lat="55.8320615" lon="48.9666222"><time>2022-03-07T06:17:54.683</time></trkpt><trkpt lat="55.8320243" lon="48.9666762"><time>2022-03-07T06:17:58.673</time></trkpt><trkpt lat="55.8319831" lon="48.9667257"><time>2022-03-07T06:18:01.653</time></trkpt><trkpt lat="55.8319401" lon="48.9667827"><time>2022-03-07T06:18:05.660</time></trkpt><trkpt lat="55.8319059" lon="48.9668477"><time>2022-03-07T06:18:09.730</time></trkpt><trkpt lat="55.8318723" lon="48.9669257"><time>2022-03-07T06:18:13.737</time></trkpt><trkpt lat="55.8318256" lon="48.9669893"><time>2022-03-07T06:18:17.707</time></trkpt><trkpt lat="55.8317882" lon="48.9670602"><time>2022-03-07T06:18:20.720</time></trkpt><trkpt lat="55.8317554" lon="48.9671421"><time>2022-03-07T06:18:23.710</time></trkpt><trkpt lat="55.8317167" lon="48.9672155"><time>2022-03-07T06:18:26.717</time></trkpt><trkpt lat="55.8316842" lon="48.9672844"><time>2022-03-07T06:18:28.663</time></trkpt><trkpt lat="55.8316608" lon="48.9673892"><time>2022-03-07T06:18:31.720</time></trkpt><trkpt lat="55.8316734" lon="48.9675038"><time>2022-03-07T06:18:33.687</time></trkpt><trkpt lat="55.8316836" lon="48.9676285"><time>2022-03-07T06:18:35.700</time></trkpt><trkpt lat="55.8316920" lon="48.9677497"><time>2022-03-07T06:18:37.730</time></trkpt><trkpt lat="55.8317042" lon="48.9678699"><time>2022-03-07T06:18:39.697</time></trkpt><trkpt lat="55.8317178" lon="48.9679830"><time>2022-03-07T06:18:41.660</time></trkpt><trkpt lat="55.8317318" lon="48.9680886"><time>2022-03-07T06:18:43.663</time></trkpt><trkpt lat="55.8317434" lon="48.9682090"><time>2022-03-07T06:18:45.640</time></trkpt><trkpt lat="55.8317577" lon="48.9683317"><time>2022-03-07T06:18:47.667</time></trkpt><trkpt lat="55.8317763" lon="48.9684600"><time>2022-03-07T06:18:49.673</time></trkpt><trkpt lat="55.8318048" lon="48.9686110"><time>2022-03-07T06:18:51.753</time></trkpt><trkpt lat="55.8318219" lon="48.9686857"><time>2022-03-07T06:18:52.687</time></trkpt><trkpt lat="55.8318288" lon="48.9688297"><time>2022-03-07T06:18:54.687</time></trkpt><trkpt lat="55.8318348" lon="48.9689652"><time>2022-03-07T06:18:56.687</time></trkpt><trkpt lat="55.8318447" lon="48.9690886"><time>2022-03-07T06:18:58.703</time></trkpt><trkpt lat="55.8318497" lon="48.9692133"><time>2022-03-07T06:19:00.767</time></trkpt><trkpt lat="55.8318578" lon="48.9693212"><time>2022-03-07T06:19:02.720</time></trkpt><trkpt lat="55.8318665" lon="48.9694481"><time>2022-03-07T06:19:04.700</time></trkpt><trkpt lat="55.8318834" lon="48.9695645"><time>2022-03-07T06:19:06.717</time></trkpt><trkpt lat="55.8319008" lon="48.9696839"><time>2022-03-07T06:19:08.723</time></trkpt><trkpt lat="55.8319153" lon="48.9698090"><time>2022-03-07T06:19:10.713</time></trkpt><trkpt lat="55.8319331" lon="48.9699254"><time>2022-03-07T06:19:12.740</time></trkpt><trkpt lat="55.8319382" lon="48.9700344"><time>2022-03-07T06:19:14.727</time></trkpt><trkpt lat="55.8319488" lon="48.9701526"><time>2022-03-07T06:19:16.653</time></trkpt><trkpt lat="55.8319584" lon="48.9702791"><time>2022-03-07T06:19:18.747</time></trkpt><trkpt lat="55.8319710" lon="48.9704077"><time>2022-03-07T06:19:20.733</time></trkpt><trkpt lat="55.8319847" lon="48.9705390"><time>2022-03-07T06:19:22.733</time></trkpt><trkpt lat="55.8320042" lon="48.9706482"><time>2022-03-07T06:19:24.733</time></trkpt><trkpt lat="55.8320224" lon="48.9707560"><time>2022-03-07T06:19:26.700</time></trkpt><trkpt lat="55.8320443" lon="48.9708751"><time>2022-03-07T06:19:28.687</time></trkpt><trkpt lat="55.8320538" lon="48.9709835"><time>2022-03-07T06:19:30.670</time></trkpt><trkpt lat="55.8320657" lon="48.9710819"><time>2022-03-07T06:19:32.650</time></trkpt><trkpt lat="55.8320755" lon="48.9711948"><time>2022-03-07T06:19:34.650</time></trkpt><trkpt lat="55.8320826" lon="48.9713002"><time>2022-03-07T06:19:36.660</time></trkpt><trkpt lat="55.8320898" lon="48.9714184"><time>2022-03-07T06:19:38.640</time></trkpt><trkpt lat="55.8321030" lon="48.9715435"><time>2022-03-07T06:19:40.737</time></trkpt><trkpt lat="55.8321181" lon="48.9716630"><time>2022-03-07T06:19:42.663</time></trkpt><trkpt lat="55.8321359" lon="48.9717772"><time>2022-03-07T06:19:44.667</time></trkpt><trkpt lat="55.8321472" lon="48.9718990"><time>2022-03-07T06:19:46.663</time></trkpt><trkpt lat="55.8321585" lon="48.9720158"><time>2022-03-07T06:19:48.670</time></trkpt><trkpt lat="55.8321644" lon="48.9721356"><time>2022-03-07T06:19:50.657</time></trkpt><trkpt lat="55.8321721" lon="48.9722550"><time>2022-03-07T06:19:52.720</time></trkpt><trkpt lat="55.8321849" lon="48.9723738"><time>2022-03-07T06:19:54.723</time></trkpt><trkpt lat="55.8321968" lon="48.9724987"><time>2022-03-07T06:19:56.727</time></trkpt><trkpt lat="55.8322068" lon="48.9726194"><time>2022-03-07T06:19:58.677</time></trkpt><trkpt lat="55.8322207" lon="48.9727325"><time>2022-03-07T06:20:00.737</time></trkpt><trkpt lat="55.8322303" lon="48.9728413"><time>2022-03-07T06:20:02.717</time></trkpt><trkpt lat="55.8322425" lon="48.9729553"><time>2022-03-07T06:20:04.737</time></trkpt><trkpt lat="55.8322531" lon="48.9730748"><time>2022-03-07T06:20:06.717</time></trkpt><trkpt lat="55.8322637" lon="48.9731923"><time>2022-03-07T06:20:08.723</time></trkpt><trkpt lat="55.8322809" lon="48.9733016"><time>2022-03-07T06:20:10.700</time></trkpt><trkpt lat="55.8322993" lon="48.9734197"><time>2022-03-07T06:20:12.677</time></trkpt><trkpt lat="55.8323103" lon="48.9735427"><time>2022-03-07T06:20:14.673</time></trkpt><trkpt lat="55.8323217" lon="48.9736907"><time>2022-03-07T06:20:16.673</time></trkpt><trkpt lat="55.8323339" lon="48.9738170"><time>2022-03-07T06:20:18.710</time></trkpt><trkpt lat="55.8323465" lon="48.9739450"><time>2022-03-07T06:20:20.683</time></trkpt><trkpt lat="55.8323563" lon="48.9740761"><time>2022-03-07T06:20:22.687</time></trkpt><trkpt lat="55.8323648" lon="48.9741889"><time>2022-03-07T06:20:24.717</time></trkpt><trkpt lat="55.8323740" lon="48.9743039"><time>2022-03-07T06:20:26.707</time></trkpt><trkpt lat="55.8323787" lon="48.9744352"><time>2022-03-07T06:20:28.647</time></trkpt><trkpt lat="55.8323930" lon="48.9745629"><time>2022-03-07T06:20:30.650</time></trkpt><trkpt lat="55.8324133" lon="48.9746797"><time>2022-03-07T06:20:32.687</time></trkpt><trkpt lat="55.8324360" lon="48.9748022"><time>2022-03-07T06:20:34.650</time></trkpt><trkpt lat="55.8324552" lon="48.9749193"><time>2022-03-07T06:20:36.660</time></trkpt><trkpt lat="55.8324754" lon="48.9750260"><time>2022-03-07T06:20:38.673</time></trkpt><trkpt lat="55.8324867" lon="48.9751359"><time>2022-03-07T06:20:40.673</time></trkpt><trkpt lat="55.8324968" lon="48.9752426"><time>2022-03-07T06:20:42.700</time></trkpt><trkpt lat="55.8324982" lon="48.9755495"><time>2022-03-07T06:20:43.413</time></trkpt><trkpt lat="55.8324145" lon="48.9754685"><time>2022-03-07T06:20:44.470</time></trkpt><trkpt lat="55.8324782" lon="48.9755014"><time>2022-03-07T06:20:46.663</time></trkpt><trkpt lat="55.8325082" lon="48.9756297"><time>2022-03-07T06:20:48.650</time></trkpt><trkpt lat="55.8325007" lon="48.9757769"><time>2022-03-07T06:20:50.667</time></trkpt><trkpt lat="55.8325271" lon="48.9758870"><time>2022-03-07T06:20:52.667</time></trkpt><trkpt lat="55.8325471" lon="48.9760002"><time>2022-03-07T06:20:54.687</time></trkpt><trkpt lat="55.8325559" lon="48.9761248"><time>2022-03-07T06:20:56.673</time></trkpt><trkpt lat="55.8325591" lon="48.9762410"><time>2022-03-07T06:20:58.657</time></trkpt><trkpt lat="55.8325747" lon="48.9763388"><time>2022-03-07T06:21:00.670</time></trkpt><trkpt lat="55.8325929" lon="48.9764456"><time>2022-03-07T06:21:02.673</time></trkpt><trkpt lat="55.8325982" lon="48.9765568"><time>2022-03-07T06:21:04.680</time></trkpt><trkpt lat="55.8326082" lon="48.9766775"><time>2022-03-07T06:21:06.687</time></trkpt><trkpt lat="55.8326188" lon="48.9768009"><time>2022-03-07T06:21:08.707</time></trkpt><trkpt lat="55.8326497" lon="48.9767870"><time>2022-03-07T06:21:09.507</time></trkpt><trkpt lat="55.8325467" lon="48.9769889"><time>2022-03-07T06:21:11.283</time></trkpt><trkpt lat="55.8326018" lon="48.9770668"><time>2022-03-07T06:21:13.060</time></trkpt><trkpt lat="55.8326030" lon="48.9771490"><time>2022-03-07T06:21:13.653</time></trkpt><trkpt lat="55.8326547" lon="48.9772649"><time>2022-03-07T06:21:16.677</time></trkpt><trkpt lat="55.8326906" lon="48.9773501"><time>2022-03-07T06:21:18.643</time></trkpt><trkpt lat="55.8327171" lon="48.9774514"><time>2022-03-07T06:21:20.633</time></trkpt><trkpt lat="55.8327266" lon="48.9775537"><time>2022-03-07T06:21:22.640</time></trkpt><trkpt lat="55.8327361" lon="48.9776641"><time>2022-03-07T06:21:24.667</time></trkpt><trkpt lat="55.8327266" lon="48.9777668"><time>2022-03-07T06:21:26.453</time></trkpt><trkpt lat="55.8327271" lon="48.9778834"><time>2022-03-07T06:21:28.693</time></trkpt><trkpt lat="55.8327626" lon="48.9780018"><time>2022-03-07T06:21:30.663</time></trkpt><trkpt lat="55.8327723" lon="48.9781124"><time>2022-03-07T06:21:32.667</time></trkpt><trkpt lat="55.8327723" lon="48.9781124"><time>2022-03-07T06:21:32.757</time></trkpt><trkpt lat="55.8327854" lon="48.9782299"><time>2022-03-07T06:21:34.717</time></trkpt><trkpt lat="55.8329190" lon="48.9779481"><time>2022-03-07T06:21:35.447</time></trkpt><trkpt lat="55.8328028" lon="48.9782563"><time>2022-03-07T06:21:36.477</time></trkpt><trkpt lat="55.8327995" lon="48.9783506"><time>2022-03-07T06:21:37.657</time></trkpt><trkpt lat="55.8328124" lon="48.9784842"><time>2022-03-07T06:21:39.683</time></trkpt><trkpt lat="55.8328175" lon="48.9785679"><time>2022-03-07T06:21:41.650</time></trkpt><trkpt lat="55.8328463" lon="48.9786707"><time>2022-03-07T06:21:45.660</time></trkpt><trkpt lat="55.8328678" lon="48.9787585"><time>2022-03-07T06:21:47.673</time></trkpt><trkpt lat="55.8328841" lon="48.9788713"><time>2022-03-07T06:21:49.677</time></trkpt><trkpt lat="55.8329028" lon="48.9789894"><time>2022-03-07T06:21:51.660</time></trkpt><trkpt lat="55.8329183" lon="48.9790810"><time>2022-03-07T06:21:53.670</time></trkpt><trkpt lat="55.8329489" lon="48.9791559"><time>2022-03-07T06:21:57.673</time></trkpt><trkpt lat="55.8329711" lon="48.9792321"><time>2022-03-07T06:22:04.670</time></trkpt><trkpt lat="55.8329843" lon="48.9793385"><time>2022-03-07T06:22:07.663</time></trkpt><trkpt lat="55.8329969" lon="48.9794363"><time>2022-03-07T06:22:09.643</time></trkpt><trkpt lat="55.8330079" lon="48.9795362"><time>2022-03-07T06:22:11.650</time></trkpt><trkpt lat="55.8330308" lon="48.9796359"><time>2022-03-07T06:22:13.667</time></trkpt><trkpt lat="55.8330517" lon="48.9797298"><time>2022-03-07T06:22:15.717</time></trkpt><trkpt lat="55.8330713" lon="48.9798241"><time>2022-03-07T06:22:17.720</time></trkpt><trkpt lat="55.8330860" lon="48.9799243"><time>2022-03-07T06:22:19.723</time></trkpt><trkpt lat="55.8330950" lon="48.9800186"><time>2022-03-07T06:22:21.733</time></trkpt><trkpt lat="55.8331005" lon="48.9801211"><time>2022-03-07T06:22:23.717</time></trkpt><trkpt lat="55.8331048" lon="48.9802386"><time>2022-03-07T06:22:25.717</time></trkpt><trkpt lat="55.8331064" lon="48.9803570"><time>2022-03-07T06:22:27.737</time></trkpt><trkpt lat="55.8331117" lon="48.9804595"><time>2022-03-07T06:22:29.683</time></trkpt><trkpt lat="55.8331685" lon="48.9805035"><time>2022-03-07T06:22:33.697</time></trkpt><trkpt lat="55.8332140" lon="48.9805802"><time>2022-03-07T06:22:36.727</time></trkpt><trkpt lat="55.8332570" lon="48.9806165"><time>2022-03-07T06:22:38.743</time></trkpt><trkpt lat="55.8333050" lon="48.9806493"><time>2022-03-07T06:22:40.670</time></trkpt><trkpt lat="55.8333552" lon="48.9806542"><time>2022-03-07T06:22:42.677</time></trkpt><trkpt lat="55.8334065" lon="48.9806699"><time>2022-03-07T06:22:44.670</time></trkpt><trkpt lat="55.8334656" lon="48.9806468"><time>2022-03-07T06:22:47.657</time></trkpt><trkpt lat="55.8335112" lon="48.9806074"><time>2022-03-07T06:22:50.683</time></trkpt><trkpt lat="55.8335688" lon="48.9806177"><time>2022-03-07T06:22:53.687</time></trkpt><trkpt lat="55.8336106" lon="48.9806676"><time>2022-03-07T06:22:56.707</time></trkpt><trkpt lat="55.8336643" lon="48.9806221"><time>2022-03-07T06:23:00.720</time></trkpt><trkpt lat="55.8337129" lon="48.9805525"><time>2022-03-07T06:23:03.717</time></trkpt><trkpt lat="55.8337490" lon="48.9804859"><time>2022-03-07T06:23:07.743</time></trkpt><trkpt lat="55.8337179" lon="48.9804055"><time>2022-03-07T06:23:13.717</time></trkpt><trkpt lat="55.8336787" lon="48.9803184"><time>2022-03-07T06:23:16.707</time></trkpt><trkpt lat="55.8336503" lon="48.9802246"><time>2022-03-07T06:23:19.720</time></trkpt><trkpt lat="55.8336574" lon="48.9801398"><time>2022-03-07T06:23:21.723</time></trkpt><trkpt lat="55.8336836" lon="48.9800348"><time>2022-03-07T06:23:23.733</time></trkpt><trkpt lat="55.8337111" lon="48.9799418"><time>2022-03-07T06:23:25.730</time></trkpt><trkpt lat="55.8337406" lon="48.9798352"><time>2022-03-07T06:23:27.707</time></trkpt><trkpt lat="55.8337667" lon="48.9797339"><time>2022-03-07T06:23:29.713</time></trkpt><trkpt lat="55.8337911" lon="48.9796327"><time>2022-03-07T06:23:31.703</time></trkpt><trkpt lat="55.8338096" lon="48.9795282"><time>2022-03-07T06:23:33.703</time></trkpt><trkpt lat="55.8338235" lon="48.9794317"><time>2022-03-07T06:23:35.667</time></trkpt><trkpt lat="55.8338430" lon="48.9793237"><time>2022-03-07T06:23:37.750</time></trkpt><trkpt lat="55.8338627" lon="48.9792131"><time>2022-03-07T06:23:39.743</time></trkpt><trkpt lat="55.8338893" lon="48.9791054"><time>2022-03-07T06:23:41.743</time></trkpt><trkpt lat="55.8339148" lon="48.9790066"><time>2022-03-07T06:23:43.680</time></trkpt><trkpt lat="55.8339241" lon="48.9789122"><time>2022-03-07T06:23:45.737</time></trkpt><trkpt lat="55.8339270" lon="48.9788131"><time>2022-03-07T06:23:48.753</time></trkpt><trkpt lat="55.8339258" lon="48.9787108"><time>2022-03-07T06:23:51.710</time></trkpt><trkpt lat="55.8339187" lon="48.9786170"><time>2022-03-07T06:23:53.767</time></trkpt><trkpt lat="55.8339217" lon="48.9785157"><time>2022-03-07T06:23:55.723</time></trkpt><trkpt lat="55.8339280" lon="48.9784045"><time>2022-03-07T06:23:57.717</time></trkpt><trkpt lat="55.8339345" lon="48.9782890"><time>2022-03-07T06:23:59.697</time></trkpt><trkpt lat="55.8339355" lon="48.9781652"><time>2022-03-07T06:24:01.703</time></trkpt><trkpt lat="55.8339389" lon="48.9780421"><time>2022-03-07T06:24:03.690</time></trkpt><trkpt lat="55.8339374" lon="48.9779313"><time>2022-03-07T06:24:05.747</time></trkpt><trkpt lat="55.8339421" lon="48.9778271"><time>2022-03-07T06:24:07.723</time></trkpt><trkpt lat="55.8339477" lon="48.9777281"><time>2022-03-07T06:24:09.713</time></trkpt><trkpt lat="55.8339469" lon="48.9776410"><time>2022-03-07T06:24:11.730</time></trkpt><trkpt lat="55.8339528" lon="48.9775330"><time>2022-03-07T06:24:14.767</time></trkpt><trkpt lat="55.8339636" lon="48.9774182"><time>2022-03-07T06:24:17.720</time></trkpt><trkpt lat="55.8339702" lon="48.9773064"><time>2022-03-07T06:24:20.643</time></trkpt><trkpt lat="55.8339855" lon="48.9772040"><time>2022-03-07T06:24:23.740</time></trkpt><trkpt lat="55.8340289" lon="48.9771603"><time>2022-03-07T06:24:25.723</time></trkpt><trkpt lat="55.8340731" lon="48.9771209"><time>2022-03-07T06:24:27.683</time></trkpt><trkpt lat="55.8341249" lon="48.9770805"><time>2022-03-07T06:24:29.693</time></trkpt><trkpt lat="55.8341711" lon="48.9770533"><time>2022-03-07T06:24:32.683</time></trkpt><trkpt lat="55.8342263" lon="48.9770939"><time>2022-03-07T06:24:36.740</time></trkpt><trkpt lat="55.8342812" lon="48.9771622"><time>2022-03-07T06:24:39.740</time></trkpt><trkpt lat="55.8343268" lon="48.9772322"><time>2022-03-07T06:24:42.737</time></trkpt><trkpt lat="55.8343621" lon="48.9772852"><time>2022-03-07T06:24:46.713</time></trkpt><trkpt lat="55.8343866" lon="48.9773647"><time>2022-03-07T06:25:03.723</time></trkpt><trkpt lat="55.8344372" lon="48.9774374"><time>2022-03-07T06:25:06.657</time></trkpt><trkpt lat="55.8344993" lon="48.9774793"><time>2022-03-07T06:25:08.653</time></trkpt><trkpt lat="55.8345578" lon="48.9775249"><time>2022-03-07T06:25:10.640</time></trkpt><trkpt lat="55.8346065" lon="48.9775674"><time>2022-03-07T06:25:13.687</time></trkpt><trkpt lat="55.8346446" lon="48.9774935"><time>2022-03-07T06:25:16.733</time></trkpt><trkpt lat="55.8346643" lon="48.9773834"><time>2022-03-07T06:25:19.750</time></trkpt><trkpt lat="55.8346773" lon="48.9773059"><time>2022-03-07T06:25:21.673</time></trkpt><trkpt lat="55.8346807" lon="48.9772184"><time>2022-03-07T06:25:23.690</time></trkpt><trkpt lat="55.8346908" lon="48.9771269"><time>2022-03-07T06:25:25.657</time></trkpt><trkpt lat="55.8346998" lon="48.9770237"><time>2022-03-07T06:25:28.667</time></trkpt><trkpt lat="55.8346866" lon="48.9769163"><time>2022-03-07T06:25:31.657</time></trkpt><trkpt lat="55.8346534" lon="48.9768365"><time>2022-03-07T06:25:34.660</time></trkpt><trkpt lat="55.8346316" lon="48.9767585"><time>2022-03-07T06:25:39.730</time></trkpt><trkpt lat="55.8328674" lon="48.9768682"><time>2022-03-07T06:25:41.557</time></trkpt><trkpt lat="55.8329065" lon="48.9767464"><time>2022-03-07T06:25:42.413</time></trkpt><trkpt lat="55.8346526" lon="48.9765816"><time>2022-03-07T06:25:43.497</time></trkpt><trkpt lat="55.8329289" lon="48.9767359"><time>2022-03-07T06:25:44.433</time></trkpt><trkpt lat="55.8329537" lon="48.9767125"><time>2022-03-07T06:25:46.400</time></trkpt><trkpt lat="55.8346013" lon="48.9766104"><time>2022-03-07T06:25:47.733</time></trkpt><trkpt lat="55.8330491" lon="48.9767129"><time>2022-03-07T06:25:49.623</time></trkpt><trkpt lat="55.8333472" lon="48.9766906"><time>2022-03-07T06:25:51.557</time></trkpt><trkpt lat="55.8346347" lon="48.9766323"><time>2022-03-07T06:25:52.743</time></trkpt><trkpt lat="55.8339594" lon="48.9766718"><time>2022-03-07T06:25:54.727</time></trkpt><trkpt lat="55.8346562" lon="48.9765737"><time>2022-03-07T06:25:56.683</time></trkpt><trkpt lat="55.8347043" lon="48.9765987"><time>2022-03-07T06:25:58.567</time></trkpt><trkpt lat="55.8347064" lon="48.9764920"><time>2022-03-07T06:25:59.660</time></trkpt><trkpt lat="55.8347728" lon="48.9765675"><time>2022-03-07T06:26:00.677</time></trkpt><trkpt lat="55.8348116" lon="48.9764876"><time>2022-03-07T06:26:02.700</time></trkpt><trkpt lat="55.8348264" lon="48.9763899"><time>2022-03-07T06:26:05.730</time></trkpt><trkpt lat="55.8348590" lon="48.9763338"><time>2022-03-07T06:26:08.653</time></trkpt><trkpt lat="55.8349012" lon="48.9762620"><time>2022-03-07T06:26:12.663</time></trkpt><trkpt lat="55.8349265" lon="48.9761866"><time>2022-03-07T06:26:14.653</time></trkpt><trkpt lat="55.8349316" lon="48.9760986"><time>2022-03-07T06:26:16.647</time></trkpt><trkpt lat="55.8349160" lon="48.9760129"><time>2022-03-07T06:26:19.667</time></trkpt><trkpt lat="55.8348765" lon="48.9759519"><time>2022-03-07T06:26:23.650</time></trkpt><trkpt lat="55.8348343" lon="48.9759875"><time>2022-03-07T06:26:40.753</time></trkpt><trkpt lat="55.8348000" lon="48.9760446"><time>2022-03-07T06:26:45.720</time></trkpt><trkpt lat="55.8347560" lon="48.9760643"><time>2022-03-07T06:26:56.717</time></trkpt><trkpt lat="55.8347093" lon="48.9760533"><time>2022-03-07T06:27:02.713</time></trkpt><trkpt lat="55.8346704" lon="48.9760982"><time>2022-03-07T06:27:14.667</time></trkpt><trkpt lat="55.8346237" lon="48.9761439"><time>2022-03-07T06:27:19.680</time></trkpt><trkpt lat="55.8345637" lon="48.9761264"><time>2022-03-07T06:27:24.697</time></trkpt><trkpt lat="55.8345266" lon="48.9760548"><time>2022-03-07T06:27:51.647</time></trkpt><trkpt lat="55.8345278" lon="48.9759492"><time>2022-03-07T06:27:54.700</time></trkpt><trkpt lat="55.8345495" lon="48.9758404"><time>2022-03-07T06:27:57.683</time></trkpt><trkpt lat="55.8345578" lon="48.9757402"><time>2022-03-07T06:28:00.687</time></trkpt><trkpt lat="55.8345694" lon="48.9756414"><time>2022-03-07T06:28:03.737</time></trkpt><trkpt lat="55.8345678" lon="48.9755575"><time>2022-03-07T06:28:07.713</time></trkpt><trkpt lat="55.8345754" lon="48.9754773"><time>2022-03-07T06:28:11.673</time></trkpt><trkpt lat="55.8345659" lon="48.9753931"><time>2022-03-07T06:28:15.657</time></trkpt><trkpt lat="55.8345128" lon="48.9753982"><time>2022-03-07T06:28:20.640</time></trkpt><trkpt lat="55.8344697" lon="48.9753296"><time>2022-03-07T06:28:23.670</time></trkpt><trkpt lat="55.8344283" lon="48.9752674"><time>2022-03-07T06:28:26.663</time></trkpt><trkpt lat="55.8343752" lon="48.9752897"><time>2022-03-07T06:28:29.723</time></trkpt><trkpt lat="55.8343214" lon="48.9753094"><time>2022-03-07T06:28:32.657</time></trkpt><trkpt lat="55.8342730" lon="48.9753097"><time>2022-03-07T06:28:35.720</time></trkpt><trkpt lat="55.8342232" lon="48.9752727"><time>2022-03-07T06:28:38.717</time></trkpt><trkpt lat="55.8341719" lon="48.9752382"><time>2022-03-07T06:28:41.733</time></trkpt><trkpt lat="55.8341155" lon="48.9751892"><time>2022-03-07T06:28:44.730</time></trkpt><trkpt lat="55.8340545" lon="48.9751570"><time>2022-03-07T06:28:47.727</time></trkpt><trkpt lat="55.8340185" lon="48.9750874"><time>2022-03-07T06:28:51.703</time></trkpt><trkpt lat="55.8340737" lon="48.9750694"><time>2022-03-07T06:29:08.677</time></trkpt><trkpt lat="55.8341369" lon="48.9750503"><time>2022-03-07T06:29:11.670</time></trkpt><trkpt lat="55.8341972" lon="48.9750336"><time>2022-03-07T06:29:13.743</time></trkpt><trkpt lat="55.8342716" lon="48.9750219"><time>2022-03-07T06:29:15.750</time></trkpt><trkpt lat="55.8343332" lon="48.9749930"><time>2022-03-07T06:29:17.687</time></trkpt><trkpt lat="55.8343913" lon="48.9749914"><time>2022-03-07T06:29:19.803</time></trkpt><trkpt lat="55.8343916" lon="48.9752786"><time>2022-03-07T06:29:21.703</time></trkpt><trkpt lat="55.8344454" lon="48.9750595"><time>2022-03-07T06:29:23.677</time></trkpt><trkpt lat="55.8345469" lon="48.9750069"><time>2022-03-07T06:29:25.600</time></trkpt><trkpt lat="55.8346779" lon="48.9749460"><time>2022-03-07T06:29:27.703</time></trkpt><trkpt lat="55.8346706" lon="48.9748609"><time>2022-03-07T06:29:31.717</time></trkpt><trkpt lat="55.8346730" lon="48.9747481"><time>2022-03-07T06:29:34.707</time></trkpt><trkpt lat="55.8346838" lon="48.9746665"><time>2022-03-07T06:29:36.740</time></trkpt><trkpt lat="55.8346891" lon="48.9745656"><time>2022-03-07T06:29:39.697</time></trkpt><trkpt lat="55.8347027" lon="48.9744612"><time>2022-03-07T06:29:42.703</time></trkpt><trkpt lat="55.8347205" lon="48.9743781"><time>2022-03-07T06:29:45.720</time></trkpt><trkpt lat="55.8348426" lon="48.9742482"><time>2022-03-07T06:29:47.630</time></trkpt><trkpt lat="55.8347389" lon="48.9742147"><time>2022-03-07T06:29:48.703</time></trkpt><trkpt lat="55.8346723" lon="48.9742254"><time>2022-03-07T06:29:49.710</time></trkpt><trkpt lat="55.8347085" lon="48.9741159"><time>2022-03-07T06:29:52.637</time></trkpt><trkpt lat="55.8347449" lon="48.9740439"><time>2022-03-07T06:29:54.633</time></trkpt><trkpt lat="55.8347661" lon="48.9739667"><time>2022-03-07T06:29:56.647</time></trkpt><trkpt lat="55.8347802" lon="48.9738590"><time>2022-03-07T06:29:59.680</time></trkpt><trkpt lat="55.8347802" lon="48.9738590"><time>2022-03-07T06:29:59.740</time></trkpt><trkpt lat="55.8347991" lon="48.9737716"><time>2022-03-07T06:30:01.697</time></trkpt><trkpt lat="55.8348195" lon="48.9735909"><time>2022-03-07T06:30:03.477</time></trkpt><trkpt lat="55.8347470" lon="48.9730579"><time>2022-03-07T06:30:04.673</time></trkpt><trkpt lat="55.8347231" lon="48.9732995"><time>2022-03-07T06:30:05.743</time></trkpt><trkpt lat="55.8347962" lon="48.9733984"><time>2022-03-07T06:30:06.717</time></trkpt><trkpt lat="55.8348198" lon="48.9734789"><time>2022-03-07T06:30:07.717</time></trkpt><trkpt lat="55.8348494" lon="48.9735475"><time>2022-03-07T06:30:09.720</time></trkpt><trkpt lat="55.8348321" lon="48.9734650"><time>2022-03-07T06:30:13.717</time></trkpt><trkpt lat="55.8347842" lon="48.9734539"><time>2022-03-07T06:30:15.690</time></trkpt><trkpt lat="55.8347362" lon="48.9734451"><time>2022-03-07T06:30:18.730</time></trkpt><trkpt lat="55.8346894" lon="48.9734105"><time>2022-03-07T06:30:21.647</time></trkpt><trkpt lat="55.8346522" lon="48.9733508"><time>2022-03-07T06:30:24.667</time></trkpt><trkpt lat="55.8346083" lon="48.9732982"><time>2022-03-07T06:30:27.650</time></trkpt><trkpt lat="55.8345479" lon="48.9732616"><time>2022-03-07T06:30:30.640</time></trkpt><trkpt lat="55.8345014" lon="48.9732527"><time>2022-03-07T06:30:32.660</time></trkpt><trkpt lat="55.8344424" lon="48.9732296"><time>2022-03-07T06:30:35.643</time></trkpt><trkpt lat="55.8343841" lon="48.9732327"><time>2022-03-07T06:30:38.653</time></trkpt><trkpt lat="55.8343304" lon="48.9732431"><time>2022-03-07T06:30:41.733</time></trkpt><trkpt lat="55.8342699" lon="48.9732170"><time>2022-03-07T06:30:44.767</time></trkpt><trkpt lat="55.8342195" lon="48.9731721"><time>2022-03-07T06:30:49.717</time></trkpt><trkpt lat="55.8341872" lon="48.9731054"><time>2022-03-07T06:30:53.707</time></trkpt><trkpt lat="55.8341959" lon="48.9730229"><time>2022-03-07T06:30:56.693</time></trkpt><trkpt lat="55.8342110" lon="48.9729053"><time>2022-03-07T06:30:58.710</time></trkpt><trkpt lat="55.8342211" lon="48.9727946"><time>2022-03-07T06:31:00.687</time></trkpt><trkpt lat="55.8342285" lon="48.9726563"><time>2022-03-07T06:31:02.643</time></trkpt><trkpt lat="55.8342341" lon="48.9725337"><time>2022-03-07T06:31:04.657</time></trkpt><trkpt lat="55.8342368" lon="48.9724265"><time>2022-03-07T06:31:06.637</time></trkpt><trkpt lat="55.8342486" lon="48.9723090"><time>2022-03-07T06:31:08.670</time></trkpt><trkpt lat="55.8342638" lon="48.9721856"><time>2022-03-07T06:31:10.643</time></trkpt><trkpt lat="55.8342806" lon="48.9720517"><time>2022-03-07T06:31:12.660</time></trkpt><trkpt lat="55.8342935" lon="48.9719199"><time>2022-03-07T06:31:14.657</time></trkpt><trkpt lat="55.8343015" lon="48.9717952"><time>2022-03-07T06:31:16.690</time></trkpt><trkpt lat="55.8343105" lon="48.9716632"><time>2022-03-07T06:31:18.700</time></trkpt><trkpt lat="55.8343080" lon="48.9715439"><time>2022-03-07T06:31:20.710</time></trkpt><trkpt lat="55.8343073" lon="48.9714189"><time>2022-03-07T06:31:22.637</time></trkpt><trkpt lat="55.8343081" lon="48.9713030"><time>2022-03-07T06:31:24.653</time></trkpt><trkpt lat="55.8343108" lon="48.9711808"><time>2022-03-07T06:31:26.653</time></trkpt><trkpt lat="55.8343152" lon="48.9710617"><time>2022-03-07T06:31:28.667</time></trkpt><trkpt lat="55.8343203" lon="48.9709541"><time>2022-03-07T06:31:30.647</time></trkpt><trkpt lat="55.8343229" lon="48.9708476"><time>2022-03-07T06:31:32.653</time></trkpt><trkpt lat="55.8343301" lon="48.9707577"><time>2022-03-07T06:31:34.747</time></trkpt><trkpt lat="55.8343371" lon="48.9706496"><time>2022-03-07T06:31:36.723</time></trkpt><trkpt lat="55.8343445" lon="48.9705357"><time>2022-03-07T06:31:38.730</time></trkpt><trkpt lat="55.8343553" lon="48.9704233"><time>2022-03-07T06:31:40.697</time></trkpt><trkpt lat="55.8343717" lon="48.9703129"><time>2022-03-07T06:31:42.733</time></trkpt><trkpt lat="55.8343894" lon="48.9702018"><time>2022-03-07T06:31:44.707</time></trkpt><trkpt lat="55.8344144" lon="48.9700894"><time>2022-03-07T06:31:46.697</time></trkpt><trkpt lat="55.8344262" lon="48.9699701"><time>2022-03-07T06:31:48.737</time></trkpt><trkpt lat="55.8344454" lon="48.9698546"><time>2022-03-07T06:31:50.750</time></trkpt><trkpt lat="55.8344591" lon="48.9697358"><time>2022-03-07T06:31:52.677</time></trkpt><trkpt lat="55.8344816" lon="48.9696208"><time>2022-03-07T06:31:54.713</time></trkpt><trkpt lat="55.8345003" lon="48.9695210"><time>2022-03-07T06:31:56.803</time></trkpt><trkpt lat="55.8341809" lon="48.9692845"><time>2022-03-07T06:31:57.657</time></trkpt><trkpt lat="55.8344241" lon="48.9692772"><time>2022-03-07T06:31:58.697</time></trkpt><trkpt lat="55.8345362" lon="48.9692414"><time>2022-03-07T06:32:00.743</time></trkpt><trkpt lat="55.8345682" lon="48.9691143"><time>2022-03-07T06:32:03.713</time></trkpt><trkpt lat="55.8346068" lon="48.9690041"><time>2022-03-07T06:32:05.693</time></trkpt><trkpt lat="55.8346386" lon="48.9688844"><time>2022-03-07T06:32:07.720</time></trkpt><trkpt lat="55.8346515" lon="48.9687866"><time>2022-03-07T06:32:09.693</time></trkpt><trkpt lat="55.8346667" lon="48.9686790"><time>2022-03-07T06:32:11.630</time></trkpt><trkpt lat="55.8346826" lon="48.9685599"><time>2022-03-07T06:32:13.647</time></trkpt><trkpt lat="55.8346924" lon="48.9684489"><time>2022-03-07T06:32:15.677</time></trkpt><trkpt lat="55.8347102" lon="48.9683392"><time>2022-03-07T06:32:17.647</time></trkpt><trkpt lat="55.8347122" lon="48.9682173"><time>2022-03-07T06:32:19.657</time></trkpt><trkpt lat="55.8347182" lon="48.9680971"><time>2022-03-07T06:32:21.630</time></trkpt><trkpt lat="55.8347332" lon="48.9679787"><time>2022-03-07T06:32:23.707</time></trkpt><trkpt lat="55.8347497" lon="48.9678526"><time>2022-03-07T06:32:25.670</time></trkpt><trkpt lat="55.8347521" lon="48.9677409"><time>2022-03-07T06:32:27.723</time></trkpt><trkpt lat="55.8347803" lon="48.9675577"><time>2022-03-07T06:32:29.627</time></trkpt><trkpt lat="55.8347077" lon="48.9674988"><time>2022-03-07T06:32:31.707</time></trkpt><trkpt lat="55.8346971" lon="48.9673713"><time>2022-03-07T06:32:34.710</time></trkpt><trkpt lat="55.8346731" lon="48.9672708"><time>2022-03-07T06:32:36.710</time></trkpt><trkpt lat="55.8346579" lon="48.9671721"><time>2022-03-07T06:32:38.723</time></trkpt><trkpt lat="55.8346376" lon="48.9670704"><time>2022-03-07T06:32:40.677</time></trkpt><trkpt lat="55.8346089" lon="48.9669662"><time>2022-03-07T06:32:42.727</time></trkpt><trkpt lat="55.8346632" lon="48.9669307"><time>2022-03-07T06:32:43.547</time></trkpt><trkpt lat="55.8344889" lon="48.9665878"><time>2022-03-07T06:32:44.637</time></trkpt><trkpt lat="55.8344889" lon="48.9665878"><time>2022-03-07T06:32:44.717</time></trkpt><trkpt lat="55.8344992" lon="48.9667167"><time>2022-03-07T06:32:45.707</time></trkpt><trkpt lat="55.8344508" lon="48.9666094"><time>2022-03-07T06:32:46.537</time></trkpt><trkpt lat="55.8344618" lon="48.9667772"><time>2022-03-07T06:32:47.613</time></trkpt><trkpt lat="55.8344158" lon="48.9666946"><time>2022-03-07T06:32:48.717</time></trkpt><trkpt lat="55.8344671" lon="48.9667379"><time>2022-03-07T06:32:51.703</time></trkpt><trkpt lat="55.8344486" lon="48.9666472"><time>2022-03-07T06:32:58.693</time></trkpt><trkpt lat="55.8344107" lon="48.9665593"><time>2022-03-07T06:33:01.727</time></trkpt><trkpt lat="55.8343630" lon="48.9664753"><time>2022-03-07T06:33:04.730</time></trkpt><trkpt lat="55.8343484" lon="48.9663946"><time>2022-03-07T06:33:06.703</time></trkpt><trkpt lat="55.8343474" lon="48.9662943"><time>2022-03-07T06:33:08.667</time></trkpt><trkpt lat="55.8343268" lon="48.9662046"><time>2022-03-07T06:33:10.707</time></trkpt><trkpt lat="55.8342890" lon="48.9661419"><time>2022-03-07T06:33:12.687</time></trkpt><trkpt lat="55.8342387" lon="48.9660797"><time>2022-03-07T06:33:14.727</time></trkpt><trkpt lat="55.8342248" lon="48.9659910"><time>2022-03-07T06:33:16.703</time></trkpt><trkpt lat="55.8341977" lon="48.9659090"><time>2022-03-07T06:33:18.720</time></trkpt><trkpt lat="55.8341518" lon="48.9658313"><time>2022-03-07T06:33:21.717</time></trkpt><trkpt lat="55.8341192" lon="48.9657742"><time>2022-03-07T06:33:23.760</time></trkpt><trkpt lat="55.8340710" lon="48.9657130"><time>2022-03-07T06:33:25.717</time></trkpt><trkpt lat="55.8340234" lon="48.9656457"><time>2022-03-07T06:33:27.737</time></trkpt><trkpt lat="55.8339827" lon="48.9655722"><time>2022-03-07T06:33:29.773</time></trkpt><trkpt lat="55.8339204" lon="48.9656451"><time>2022-03-07T06:33:31.623</time></trkpt><trkpt lat="55.8338355" lon="48.9648471"><time>2022-03-07T06:33:32.670</time></trkpt><trkpt lat="55.8338616" lon="48.9653008"><time>2022-03-07T06:33:33.710</time></trkpt><trkpt lat="55.8337824" lon="48.9652201"><time>2022-03-07T06:33:34.703</time></trkpt><trkpt lat="55.8337870" lon="48.9651107"><time>2022-03-07T06:33:38.700</time></trkpt><trkpt lat="55.8337523" lon="48.9650502"><time>2022-03-07T06:33:40.687</time></trkpt><trkpt lat="55.8337031" lon="48.9649648"><time>2022-03-07T06:33:42.717</time></trkpt><trkpt lat="55.8336543" lon="48.9649083"><time>2022-03-07T06:33:44.687</time></trkpt><trkpt lat="55.8336027" lon="48.9648476"><time>2022-03-07T06:33:46.690</time></trkpt><trkpt lat="55.8335667" lon="48.9647904"><time>2022-03-07T06:33:48.647</time></trkpt><trkpt lat="55.8335365" lon="48.9647218"><time>2022-03-07T06:33:50.647</time></trkpt><trkpt lat="55.8335271" lon="48.9646324"><time>2022-03-07T06:33:52.643</time></trkpt><trkpt lat="55.8335358" lon="48.9645315"><time>2022-03-07T06:33:54.657</time></trkpt><trkpt lat="55.8335439" lon="48.9644141"><time>2022-03-07T06:33:56.647</time></trkpt><trkpt lat="55.8335151" lon="48.9643387"><time>2022-03-07T06:33:58.653</time></trkpt><trkpt lat="55.8334507" lon="48.9642846"><time>2022-03-07T06:34:01.620</time></trkpt><trkpt lat="55.8333990" lon="48.9642509"><time>2022-03-07T06:34:03.653</time></trkpt><trkpt lat="55.8333458" lon="48.9642270"><time>2022-03-07T06:34:05.650</time></trkpt><trkpt lat="55.8332880" lon="48.9642080"><time>2022-03-07T06:34:07.650</time></trkpt><trkpt lat="55.8332289" lon="48.9641766"><time>2022-03-07T06:34:09.663</time></trkpt><trkpt lat="55.8331652" lon="48.9641341"><time>2022-03-07T06:34:11.657</time></trkpt><trkpt lat="55.8331081" lon="48.9640826"><time>2022-03-07T06:34:13.657</time></trkpt><trkpt lat="55.8330452" lon="48.9640394"><time>2022-03-07T06:34:15.660</time></trkpt><trkpt lat="55.8329855" lon="48.9640062"><time>2022-03-07T06:34:17.637</time></trkpt><trkpt lat="55.8329294" lon="48.9639650"><time>2022-03-07T06:34:19.630</time></trkpt><trkpt lat="55.8328739" lon="48.9639267"><time>2022-03-07T06:34:21.647</time></trkpt><trkpt lat="55.8328221" lon="48.9639036"><time>2022-03-07T06:34:23.670</time></trkpt><trkpt lat="55.8327700" lon="48.9638775"><time>2022-03-07T06:34:25.677</time></trkpt><trkpt lat="55.8327152" lon="48.9638546"><time>2022-03-07T06:34:27.647</time></trkpt><trkpt lat="55.8326638" lon="48.9638225"><time>2022-03-07T06:34:29.657</time></trkpt><trkpt lat="55.8326061" lon="48.9637846"><time>2022-03-07T06:34:31.723</time></trkpt><trkpt lat="55.8325473" lon="48.9637339"><time>2022-03-07T06:34:33.727</time></trkpt><trkpt lat="55.8324838" lon="48.9636787"><time>2022-03-07T06:34:35.757</time></trkpt><trkpt lat="55.8324239" lon="48.9636283"><time>2022-03-07T06:34:37.703</time></trkpt><trkpt lat="55.8323633" lon="48.9635854"><time>2022-03-07T06:34:39.700</time></trkpt><trkpt lat="55.8323019" lon="48.9635424"><time>2022-03-07T06:34:41.723</time></trkpt><trkpt lat="55.8322350" lon="48.9635006"><time>2022-03-07T06:34:43.747</time></trkpt><trkpt lat="55.8321755" lon="48.9634698"><time>2022-03-07T06:34:45.733</time></trkpt><trkpt lat="55.8321250" lon="48.9634255"><time>2022-03-07T06:34:47.717</time></trkpt><trkpt lat="55.8320765" lon="48.9633878"><time>2022-03-07T06:34:49.723</time></trkpt><trkpt lat="55.8320264" lon="48.9633433"><time>2022-03-07T06:34:51.713</time></trkpt><trkpt lat="55.8319842" lon="48.9632702"><time>2022-03-07T06:34:53.687</time></trkpt><trkpt lat="55.8319388" lon="48.9631827"><time>2022-03-07T06:34:55.687</time></trkpt><trkpt lat="55.8319084" lon="48.9630816"><time>2022-03-07T06:34:57.657</time></trkpt><trkpt lat="55.8318800" lon="48.9629751"><time>2022-03-07T06:34:59.677</time></trkpt><trkpt lat="55.8318595" lon="48.9628699"><time>2022-03-07T06:35:01.683</time></trkpt><trkpt lat="55.8318322" lon="48.9627694"><time>2022-03-07T06:35:03.660</time></trkpt><trkpt lat="55.8318032" lon="48.9626573"><time>2022-03-07T06:35:05.660</time></trkpt><trkpt lat="55.8317783" lon="48.9625460"><time>2022-03-07T06:35:07.657</time></trkpt><trkpt lat="55.8317579" lon="48.9624332"><time>2022-03-07T06:35:09.683</time></trkpt><trkpt lat="55.8317437" lon="48.9623291"><time>2022-03-07T06:35:11.700</time></trkpt><trkpt lat="55.8317266" lon="48.9621955"><time>2022-03-07T06:35:13.747</time></trkpt><trkpt lat="55.8315179" lon="48.9613760"><time>2022-03-07T06:35:15.687</time></trkpt><trkpt lat="55.8315507" lon="48.9618324"><time>2022-03-07T06:35:16.690</time></trkpt><trkpt lat="55.8314548" lon="48.9619092"><time>2022-03-07T06:35:17.707</time></trkpt><trkpt lat="55.8315023" lon="48.9618922"><time>2022-03-07T06:35:18.727</time></trkpt><trkpt lat="55.8315407" lon="48.9617717"><time>2022-03-07T06:35:20.697</time></trkpt><trkpt lat="55.8315598" lon="48.9616487"><time>2022-03-07T06:35:22.707</time></trkpt><trkpt lat="55.8315489" lon="48.9615581"><time>2022-03-07T06:35:24.730</time></trkpt><trkpt lat="55.8315292" lon="48.9614493"><time>2022-03-07T06:35:26.693</time></trkpt><trkpt lat="55.8315118" lon="48.9613505"><time>2022-03-07T06:35:28.723</time></trkpt><trkpt lat="55.8314786" lon="48.9612640"><time>2022-03-07T06:35:30.737</time></trkpt><trkpt lat="55.8314622" lon="48.9611620"><time>2022-03-07T06:35:32.667</time></trkpt><trkpt lat="55.8314530" lon="48.9610614"><time>2022-03-07T06:35:34.653</time></trkpt><trkpt lat="55.8314409" lon="48.9609434"><time>2022-03-07T06:35:36.653</time></trkpt><trkpt lat="55.8314298" lon="48.9608222"><time>2022-03-07T06:35:38.630</time></trkpt><trkpt lat="55.8314280" lon="48.9607130"><time>2022-03-07T06:35:40.670</time></trkpt><trkpt lat="55.8314858" lon="48.9606684"><time>2022-03-07T06:35:43.687</time></trkpt><trkpt lat="55.8315438" lon="48.9607025"><time>2022-03-07T06:35:45.743</time></trkpt><trkpt lat="55.8315986" lon="48.9607087"><time>2022-03-07T06:35:47.717</time></trkpt><trkpt lat="55.8316373" lon="48.9606337"><time>2022-03-07T06:35:49.707</time></trkpt><trkpt lat="55.8316626" lon="48.9605322"><time>2022-03-07T06:35:51.733</time></trkpt><trkpt lat="55.8316854" lon="48.9604262"><time>2022-03-07T06:35:53.737</time></trkpt><trkpt lat="55.8317096" lon="48.9603312"><time>2022-03-07T06:35:55.700</time></trkpt><trkpt lat="55.8317238" lon="48.9602363"><time>2022-03-07T06:35:57.757</time></trkpt><trkpt lat="55.8317288" lon="48.9601404"><time>2022-03-07T06:35:59.687</time></trkpt><trkpt lat="55.8317384" lon="48.9600208"><time>2022-03-07T06:36:01.670</time></trkpt><trkpt lat="55.8317469" lon="48.9598889"><time>2022-03-07T06:36:03.730</time></trkpt><trkpt lat="55.8317632" lon="48.9597675"><time>2022-03-07T06:36:05.733</time></trkpt><trkpt lat="55.8317775" lon="48.9596505"><time>2022-03-07T06:36:07.747</time></trkpt><trkpt lat="55.8317882" lon="48.9595463"><time>2022-03-07T06:36:09.707</time></trkpt><trkpt lat="55.8317981" lon="48.9594459"><time>2022-03-07T06:36:11.667</time></trkpt><trkpt lat="55.8318072" lon="48.9593294"><time>2022-03-07T06:36:13.713</time></trkpt><trkpt lat="55.8318026" lon="48.9592095"><time>2022-03-07T06:36:15.723</time></trkpt><trkpt lat="55.8318043" lon="48.9590940"><time>2022-03-07T06:36:17.733</time></trkpt><trkpt lat="55.8318141" lon="48.9589820"><time>2022-03-07T06:36:19.710</time></trkpt><trkpt lat="55.8318301" lon="48.9588661"><time>2022-03-07T06:36:21.653</time></trkpt><trkpt lat="55.8318462" lon="48.9587643"><time>2022-03-07T06:36:23.670</time></trkpt><trkpt lat="55.8318644" lon="48.9586566"><time>2022-03-07T06:36:25.680</time></trkpt><trkpt lat="55.8318845" lon="48.9585567"><time>2022-03-07T06:36:27.660</time></trkpt><trkpt lat="55.8318967" lon="48.9584722"><time>2022-03-07T06:36:29.660</time></trkpt><trkpt lat="55.8319089" lon="48.9583755"><time>2022-03-07T06:36:31.707</time></trkpt><trkpt lat="55.8319227" lon="48.9582672"><time>2022-03-07T06:36:33.717</time></trkpt><trkpt lat="55.8319277" lon="48.9581471"><time>2022-03-07T06:36:35.737</time></trkpt><trkpt lat="55.8318947" lon="48.9548963"><time>2022-03-07T06:38:36.690</time></trkpt><trkpt lat="55.8318947" lon="48.9548963"><time>2022-03-07T06:38:36.763</time></trkpt><trkpt lat="55.8319517" lon="48.9548842"><time>2022-03-07T06:38:39.723</time></trkpt><trkpt lat="55.8317033" lon="48.9547179"><time>2022-03-07T06:38:42.700</time></trkpt><trkpt lat="55.8316247" lon="48.9542309"><time>2022-03-07T06:38:47.660</time></trkpt><trkpt lat="55.8316782" lon="48.9541110"><time>2022-03-07T06:38:48.967</time></trkpt><trkpt lat="55.8317049" lon="48.9543509"><time>2022-03-07T06:38:50.630</time></trkpt><trkpt lat="55.8316725" lon="48.9542897"><time>2022-03-07T06:38:53.647</time></trkpt><trkpt lat="55.8316217" lon="48.9542026"><time>2022-03-07T06:38:56.653</time></trkpt><trkpt lat="55.8315761" lon="48.9541420"><time>2022-03-07T06:38:58.660</time></trkpt><trkpt lat="55.8315325" lon="48.9540849"><time>2022-03-07T06:39:00.683</time></trkpt><trkpt lat="55.8314844" lon="48.9540382"><time>2022-03-07T06:39:02.653</time></trkpt><trkpt lat="55.8314332" lon="48.9539641"><time>2022-03-07T06:39:04.730</time></trkpt><trkpt lat="55.8313885" lon="48.9539017"><time>2022-03-07T06:39:06.657</time></trkpt><trkpt lat="55.8313450" lon="48.9538251"><time>2022-03-07T06:39:08.637</time></trkpt><trkpt lat="55.8313056" lon="48.9537627"><time>2022-03-07T06:39:10.687</time></trkpt><trkpt lat="55.8312641" lon="48.9537134"><time>2022-03-07T06:39:12.667</time></trkpt><trkpt lat="55.8312093" lon="48.9536490"><time>2022-03-07T06:39:14.663</time></trkpt><trkpt lat="55.8311559" lon="48.9535834"><time>2022-03-07T06:39:16.730</time></trkpt><trkpt lat="55.8311014" lon="48.9535209"><time>2022-03-07T06:39:18.733</time></trkpt><trkpt lat="55.8310456" lon="48.9534508"><time>2022-03-07T06:39:20.707</time></trkpt><trkpt lat="55.8309995" lon="48.9533797"><time>2022-03-07T06:39:22.727</time></trkpt><trkpt lat="55.8309534" lon="48.9533007"><time>2022-03-07T06:39:24.733</time></trkpt><trkpt lat="55.8309113" lon="48.9532146"><time>2022-03-07T06:39:26.723</time></trkpt><trkpt lat="55.8308710" lon="48.9531457"><time>2022-03-07T06:39:28.767</time></trkpt><trkpt lat="55.8308308" lon="48.9530635"><time>2022-03-07T06:39:30.717</time></trkpt><trkpt lat="55.8307764" lon="48.9530140"><time>2022-03-07T06:39:32.707</time></trkpt><trkpt lat="55.8307304" lon="48.9530639"><time>2022-03-07T06:39:34.733</time></trkpt><trkpt lat="55.8306919" lon="48.9531448"><time>2022-03-07T06:39:36.707</time></trkpt><trkpt lat="55.8306612" lon="48.9532214"><time>2022-03-07T06:39:38.737</time></trkpt><trkpt lat="55.8308171" lon="48.9531925"><time>2022-03-07T06:39:39.613</time></trkpt><trkpt lat="55.8306683" lon="48.9533103"><time>2022-03-07T06:39:41.537</time></trkpt><trkpt lat="55.8305963" lon="48.9532732"><time>2022-03-07T06:39:43.463</time></trkpt><trkpt lat="55.8305540" lon="48.9533067"><time>2022-03-07T06:39:44.727</time></trkpt><trkpt lat="55.8305978" lon="48.9534847"><time>2022-03-07T06:39:45.830</time></trkpt><trkpt lat="55.8305436" lon="48.9533817"><time>2022-03-07T06:39:46.727</time></trkpt><trkpt lat="55.8305181" lon="48.9534520"><time>2022-03-07T06:39:47.717</time></trkpt><trkpt lat="55.8305047" lon="48.9535328"><time>2022-03-07T06:39:49.700</time></trkpt><trkpt lat="55.8304698" lon="48.9536344"><time>2022-03-07T06:39:51.713</time></trkpt><trkpt lat="55.8304460" lon="48.9537421"><time>2022-03-07T06:39:53.747</time></trkpt><trkpt lat="55.8304213" lon="48.9538166"><time>2022-03-07T06:39:55.717</time></trkpt><trkpt lat="55.8304094" lon="48.9538984"><time>2022-03-07T06:39:57.757</time></trkpt><trkpt lat="55.8303664" lon="48.9539083"><time>2022-03-07T06:39:59.570</time></trkpt><trkpt lat="55.8303050" lon="48.9538897"><time>2022-03-07T06:40:01.727</time></trkpt><trkpt lat="55.8302480" lon="48.9539059"><time>2022-03-07T06:40:04.727</time></trkpt><trkpt lat="55.8301958" lon="48.9538213"><time>2022-03-07T06:40:06.663</time></trkpt><trkpt lat="55.8301453" lon="48.9537611"><time>2022-03-07T06:40:08.667</time></trkpt><trkpt lat="55.8301055" lon="48.9537237"><time>2022-03-07T06:40:10.643</time></trkpt><trkpt lat="55.8300640" lon="48.9536750"><time>2022-03-07T06:40:12.657</time></trkpt><trkpt lat="55.8300185" lon="48.9536383"><time>2022-03-07T06:40:14.673</time></trkpt><trkpt lat="55.8299791" lon="48.9536912"><time>2022-03-07T06:40:17.733</time></trkpt><trkpt lat="55.8299940" lon="48.9537998"><time>2022-03-07T06:40:20.670</time></trkpt><trkpt lat="55.8300235" lon="48.9538923"><time>2022-03-07T06:40:23.657</time></trkpt><trkpt lat="55.8300420" lon="48.9539667"><time>2022-03-07T06:40:26.703</time></trkpt><trkpt lat="55.8300420" lon="48.9539667"><time>2022-03-07T06:40:26.790</time></trkpt><trkpt lat="55.8300368" lon="48.9538866"><time>2022-03-07T06:40:31.753</time></trkpt><trkpt lat="55.8300047" lon="48.9539136"><time>2022-03-07T06:40:33.513</time></trkpt><trkpt lat="55.8299827" lon="48.9537025"><time>2022-03-07T06:40:34.640</time></trkpt><trkpt lat="55.8299720" lon="48.9536089"><time>2022-03-07T06:40:36.647</time></trkpt><trkpt lat="55.8299685" lon="48.9535263"><time>2022-03-07T06:40:40.663</time></trkpt><trkpt lat="55.8299542" lon="48.9534338"><time>2022-03-07T06:40:43.643</time></trkpt><trkpt lat="55.8299348" lon="48.9533599"><time>2022-03-07T06:40:45.657</time></trkpt><trkpt lat="55.8299110" lon="48.9532576"><time>2022-03-07T06:40:48.680</time></trkpt><trkpt lat="55.8298974" lon="48.9531686"><time>2022-03-07T06:40:50.650</time></trkpt><trkpt lat="55.8298783" lon="48.9530923"><time>2022-03-07T06:40:52.733</time></trkpt><trkpt lat="55.8298519" lon="48.9530247"><time>2022-03-07T06:40:59.703</time></trkpt><trkpt lat="55.8298137" lon="48.9529640"><time>2022-03-07T06:41:02.660</time></trkpt><trkpt lat="55.8297855" lon="48.9528977"><time>2022-03-07T06:41:04.667</time></trkpt><trkpt lat="55.8297514" lon="48.9528201"><time>2022-03-07T06:41:06.647</time></trkpt><trkpt lat="55.8297153" lon="48.9527411"><time>2022-03-07T06:41:08.667</time></trkpt><trkpt lat="55.8296774" lon="48.9526589"><time>2022-03-07T06:41:10.670</time></trkpt><trkpt lat="55.8296435" lon="48.9525745"><time>2022-03-07T06:41:12.673</time></trkpt><trkpt lat="55.8296136" lon="48.9525040"><time>2022-03-07T06:41:14.667</time></trkpt><trkpt lat="55.8295879" lon="48.9524337"><time>2022-03-07T06:41:16.667</time></trkpt><trkpt lat="55.8295478" lon="48.9523578"><time>2022-03-07T06:41:18.697</time></trkpt><trkpt lat="55.8295108" lon="48.9522707"><time>2022-03-07T06:41:20.657</time></trkpt><trkpt lat="55.8294788" lon="48.9521772"><time>2022-03-07T06:41:22.710</time></trkpt><trkpt lat="55.8294448" lon="48.9520834"><time>2022-03-07T06:41:24.733</time></trkpt><trkpt lat="55.8294083" lon="48.9519849"><time>2022-03-07T06:41:26.697</time></trkpt><trkpt lat="55.8293763" lon="48.9518891"><time>2022-03-07T06:41:28.717</time></trkpt><trkpt lat="55.8293322" lon="48.9517925"><time>2022-03-07T06:41:30.680</time></trkpt><trkpt lat="55.8292934" lon="48.9517177"><time>2022-03-07T06:41:32.697</time></trkpt><trkpt lat="55.8292570" lon="48.9516327"><time>2022-03-07T06:41:34.733</time></trkpt><trkpt lat="55.8292202" lon="48.9515226"><time>2022-03-07T06:41:36.733</time></trkpt><trkpt lat="55.8291785" lon="48.9514322"><time>2022-03-07T06:41:38.750</time></trkpt><trkpt lat="55.8291450" lon="48.9513348"><time>2022-03-07T06:41:40.743</time></trkpt><trkpt lat="55.8291140" lon="48.9512334"><time>2022-03-07T06:41:42.737</time></trkpt><trkpt lat="55.8290850" lon="48.9511210"><time>2022-03-07T06:41:44.757</time></trkpt><trkpt lat="55.8290576" lon="48.9510346"><time>2022-03-07T06:41:46.747</time></trkpt><trkpt lat="55.8290211" lon="48.9509544"><time>2022-03-07T06:41:48.723</time></trkpt><trkpt lat="55.8289823" lon="48.9508792"><time>2022-03-07T06:41:50.713</time></trkpt><trkpt lat="55.8289589" lon="48.9507982"><time>2022-03-07T06:41:55.693</time></trkpt><trkpt lat="55.8289858" lon="48.9507270"><time>2022-03-07T06:41:57.743</time></trkpt><trkpt lat="55.8290254" lon="48.9506516"><time>2022-03-07T06:41:59.707</time></trkpt><trkpt lat="55.8290868" lon="48.9506589"><time>2022-03-07T06:42:03.697</time></trkpt><trkpt lat="55.8291426" lon="48.9506089"><time>2022-03-07T06:42:05.737</time></trkpt><trkpt lat="55.8291827" lon="48.9505229"><time>2022-03-07T06:42:07.717</time></trkpt><trkpt lat="55.8292164" lon="48.9504457"><time>2022-03-07T06:42:17.717</time></trkpt><trkpt lat="55.8292576" lon="48.9504128"><time>2022-03-07T06:42:30.700</time></trkpt><trkpt lat="55.8292481" lon="48.9503122"><time>2022-03-07T06:42:42.687</time></trkpt><trkpt lat="55.8292276" lon="48.9502321"><time>2022-03-07T06:42:44.717</time></trkpt><trkpt lat="55.8292023" lon="48.9501331"><time>2022-03-07T06:42:46.703</time></trkpt><trkpt lat="55.8291786" lon="48.9500144"><time>2022-03-07T06:42:48.723</time></trkpt><trkpt lat="55.8291576" lon="48.9499253"><time>2022-03-07T06:42:50.743</time></trkpt><trkpt lat="55.8291392" lon="48.9498336"><time>2022-03-07T06:42:52.747</time></trkpt><trkpt lat="55.8291220" lon="48.9497328"><time>2022-03-07T06:42:55.727</time></trkpt><trkpt lat="55.8291069" lon="48.9496512"><time>2022-03-07T06:43:00.720</time></trkpt><trkpt lat="55.8291218" lon="48.9495405"><time>2022-03-07T06:43:17.667</time></trkpt><trkpt lat="55.8291454" lon="48.9494517"><time>2022-03-07T06:43:19.673</time></trkpt><trkpt lat="55.8291697" lon="48.9493520"><time>2022-03-07T06:43:21.700</time></trkpt><trkpt lat="55.8291790" lon="48.9492525"><time>2022-03-07T06:43:23.707</time></trkpt><trkpt lat="55.8291600" lon="48.9491674"><time>2022-03-07T06:43:25.727</time></trkpt><trkpt lat="55.8291380" lon="48.9490863"><time>2022-03-07T06:43:27.670</time></trkpt><trkpt lat="55.8290969" lon="48.9490023"><time>2022-03-07T06:43:29.700</time></trkpt><trkpt lat="55.8290609" lon="48.9488995"><time>2022-03-07T06:43:31.693</time></trkpt><trkpt lat="55.8290122" lon="48.9487726"><time>2022-03-07T06:43:33.647</time></trkpt><trkpt lat="55.8289889" lon="48.9487022"><time>2022-03-07T06:43:34.673</time></trkpt><trkpt lat="55.8289635" lon="48.9486289"><time>2022-03-07T06:43:35.700</time></trkpt><trkpt lat="55.8289401" lon="48.9485591"><time>2022-03-07T06:43:36.690</time></trkpt><trkpt lat="55.8288931" lon="48.9484051"><time>2022-03-07T06:43:38.677</time></trkpt><trkpt lat="55.8288708" lon="48.9483294"><time>2022-03-07T06:43:39.667</time></trkpt><trkpt lat="55.8288276" lon="48.9482021"><time>2022-03-07T06:43:41.657</time></trkpt><trkpt lat="55.8287855" lon="48.9480905"><time>2022-03-07T06:43:43.680</time></trkpt><trkpt lat="55.8287485" lon="48.9480018"><time>2022-03-07T06:43:45.683</time></trkpt><trkpt lat="55.8287218" lon="48.9479376"><time>2022-03-07T06:43:47.650</time></trkpt><trkpt lat="55.8286855" lon="48.9478656"><time>2022-03-07T06:43:49.677</time></trkpt><trkpt lat="55.8286383" lon="48.9477865"><time>2022-03-07T06:43:51.683</time></trkpt><trkpt lat="55.8285749" lon="48.9477110"><time>2022-03-07T06:43:53.667</time></trkpt><trkpt lat="55.8285014" lon="48.9476670"><time>2022-03-07T06:43:55.687</time></trkpt><trkpt lat="55.8284341" lon="48.9476325"><time>2022-03-07T06:43:57.660</time></trkpt><trkpt lat="55.8283697" lon="48.9476019"><time>2022-03-07T06:43:59.777</time></trkpt><trkpt lat="55.8283063" lon="48.9475711"><time>2022-03-07T06:44:01.740</time></trkpt><trkpt lat="55.8282334" lon="48.9475408"><time>2022-03-07T06:44:03.700</time></trkpt><trkpt lat="55.8281524" lon="48.9475105"><time>2022-03-07T06:44:05.777</time></trkpt><trkpt lat="55.8280761" lon="48.9475005"><time>2022-03-07T06:44:07.727</time></trkpt><trkpt lat="55.8280011" lon="48.9475081"><time>2022-03-07T06:44:09.750</time></trkpt><trkpt lat="55.8279225" lon="48.9475161"><time>2022-03-07T06:44:11.753</time></trkpt><trkpt lat="55.8278454" lon="48.9475159"><time>2022-03-07T06:44:13.780</time></trkpt><trkpt lat="55.8277696" lon="48.9475130"><time>2022-03-07T06:44:15.760</time></trkpt><trkpt lat="55.8277007" lon="48.9475083"><time>2022-03-07T06:44:17.750</time></trkpt><trkpt lat="55.8276302" lon="48.9475091"><time>2022-03-07T06:44:19.730</time></trkpt><trkpt lat="55.8275536" lon="48.9475118"><time>2022-03-07T06:44:21.753</time></trkpt><trkpt lat="55.8274794" lon="48.9475067"><time>2022-03-07T06:44:23.727</time></trkpt><trkpt lat="55.8274023" lon="48.9475042"><time>2022-03-07T06:44:25.753</time></trkpt><trkpt lat="55.8273255" lon="48.9475039"><time>2022-03-07T06:44:27.743</time></trkpt><trkpt lat="55.8272538" lon="48.9474965"><time>2022-03-07T06:44:29.753</time></trkpt><trkpt lat="55.8271816" lon="48.9474664"><time>2022-03-07T06:44:31.737</time></trkpt><trkpt lat="55.8271143" lon="48.9474285"><time>2022-03-07T06:44:33.730</time></trkpt><trkpt lat="55.8270488" lon="48.9473507"><time>2022-03-07T06:44:35.707</time></trkpt><trkpt lat="55.8269971" lon="48.9472819"><time>2022-03-07T06:44:37.720</time></trkpt><trkpt lat="55.8269487" lon="48.9472162"><time>2022-03-07T06:44:39.707</time></trkpt><trkpt lat="55.8269051" lon="48.9471607"><time>2022-03-07T06:44:41.723</time></trkpt><trkpt lat="55.8268566" lon="48.9470946"><time>2022-03-07T06:44:43.707</time></trkpt><trkpt lat="55.8268185" lon="48.9470328"><time>2022-03-07T06:44:45.723</time></trkpt><trkpt lat="55.8268173" lon="48.9469530"><time>2022-03-07T06:45:04.700</time></trkpt><trkpt lat="55.8268011" lon="48.9468563"><time>2022-03-07T06:45:06.757</time></trkpt><trkpt lat="55.8267803" lon="48.9467590"><time>2022-03-07T06:45:08.663</time></trkpt><trkpt lat="55.8267817" lon="48.9466643"><time>2022-03-07T06:45:10.680</time></trkpt><trkpt lat="55.8267833" lon="48.9465464"><time>2022-03-07T06:45:12.727</time></trkpt><trkpt lat="55.8267829" lon="48.9464340"><time>2022-03-07T06:45:14.720</time></trkpt><trkpt lat="55.8267774" lon="48.9463112"><time>2022-03-07T06:45:16.737</time></trkpt><trkpt lat="55.8267701" lon="48.9461749"><time>2022-03-07T06:45:18.730</time></trkpt><trkpt lat="55.8267451" lon="48.9460560"><time>2022-03-07T06:45:20.677</time></trkpt><trkpt lat="55.8267195" lon="48.9459393"><time>2022-03-07T06:45:22.670</time></trkpt><trkpt lat="55.8266983" lon="48.9458346"><time>2022-03-07T06:45:24.737</time></trkpt><trkpt lat="55.8266688" lon="48.9457355"><time>2022-03-07T06:45:26.763</time></trkpt><trkpt lat="55.8266499" lon="48.9456215"><time>2022-03-07T06:45:28.740</time></trkpt><trkpt lat="55.8266241" lon="48.9455119"><time>2022-03-07T06:45:30.690</time></trkpt><trkpt lat="55.8266035" lon="48.9454062"><time>2022-03-07T06:45:32.687</time></trkpt><trkpt lat="55.8265963" lon="48.9453208"><time>2022-03-07T06:45:34.673</time></trkpt><trkpt lat="55.8265953" lon="48.9452216"><time>2022-03-07T06:45:36.690</time></trkpt><trkpt lat="55.8265888" lon="48.9451206"><time>2022-03-07T06:45:38.647</time></trkpt><trkpt lat="55.8265807" lon="48.9450209"><time>2022-03-07T06:45:40.670</time></trkpt><trkpt lat="55.8265754" lon="48.9449113"><time>2022-03-07T06:45:42.710</time></trkpt><trkpt lat="55.8265766" lon="48.9448141"><time>2022-03-07T06:45:44.763</time></trkpt><trkpt lat="55.8266232" lon="48.9446342"><time>2022-03-07T06:45:46.580</time></trkpt><trkpt lat="55.8266344" lon="48.9445506"><time>2022-03-07T06:45:48.730</time></trkpt><trkpt lat="55.8266595" lon="48.9444838"><time>2022-03-07T06:45:49.657</time></trkpt><trkpt lat="55.8266666" lon="48.9443858"><time>2022-03-07T06:45:51.680</time></trkpt><trkpt lat="55.8266926" lon="48.9443023"><time>2022-03-07T06:45:53.640</time></trkpt><trkpt lat="55.8267096" lon="48.9442167"><time>2022-03-07T06:45:55.667</time></trkpt><trkpt lat="55.8267167" lon="48.9441252"><time>2022-03-07T06:45:57.677</time></trkpt><trkpt lat="55.8267327" lon="48.9440180"><time>2022-03-07T06:45:59.710</time></trkpt><trkpt lat="55.8267537" lon="48.9439043"><time>2022-03-07T06:46:01.710</time></trkpt><trkpt lat="55.8267765" lon="48.9437881"><time>2022-03-07T06:46:03.723</time></trkpt><trkpt lat="55.8268050" lon="48.9436797"><time>2022-03-07T06:46:05.717</time></trkpt><trkpt lat="55.8268272" lon="48.9435749"><time>2022-03-07T06:46:07.663</time></trkpt><trkpt lat="55.8268461" lon="48.9434593"><time>2022-03-07T06:46:09.663</time></trkpt><trkpt lat="55.8268575" lon="48.9433547"><time>2022-03-07T06:46:11.717</time></trkpt><trkpt lat="55.8268813" lon="48.9432341"><time>2022-03-07T06:46:13.700</time></trkpt><trkpt lat="55.8267926" lon="48.9429639"><time>2022-03-07T06:46:15.637</time></trkpt><trkpt lat="55.8270845" lon="48.9429366"><time>2022-03-07T06:46:16.717</time></trkpt><trkpt lat="55.8269030" lon="48.9428546"><time>2022-03-07T06:46:17.700</time></trkpt><trkpt lat="55.8269518" lon="48.9428139"><time>2022-03-07T06:46:19.723</time></trkpt><trkpt lat="55.8269982" lon="48.9427189"><time>2022-03-07T06:46:21.700</time></trkpt><trkpt lat="55.8270189" lon="48.9426218"><time>2022-03-07T06:46:23.727</time></trkpt><trkpt lat="55.8270483" lon="48.9425245"><time>2022-03-07T06:46:25.657</time></trkpt><trkpt lat="55.8270706" lon="48.9424215"><time>2022-03-07T06:46:27.653</time></trkpt><trkpt lat="55.8270917" lon="48.9423199"><time>2022-03-07T06:46:29.663</time></trkpt><trkpt lat="55.8270998" lon="48.9422272"><time>2022-03-07T06:46:32.640</time></trkpt><trkpt lat="55.8270732" lon="48.9421596"><time>2022-03-07T06:46:35.673</time></trkpt><trkpt lat="55.8270213" lon="48.9421063"><time>2022-03-07T06:46:39.713</time></trkpt><trkpt lat="55.8268034" lon="48.9415091"><time>2022-03-07T06:46:41.640</time></trkpt><trkpt lat="55.8268034" lon="48.9415091"><time>2022-03-07T06:46:41.717</time></trkpt><trkpt lat="55.8268370" lon="48.9417113"><time>2022-03-07T06:46:42.733</time></trkpt><trkpt lat="55.8267845" lon="48.9414439"><time>2022-03-07T06:46:44.667</time></trkpt><trkpt lat="55.8268504" lon="48.9413195"><time>2022-03-07T06:46:46.713</time></trkpt><trkpt lat="55.8268115" lon="48.9414811"><time>2022-03-07T06:46:47.723</time></trkpt><trkpt lat="55.8268199" lon="48.9415637"><time>2022-03-07T06:46:53.680</time></trkpt><trkpt lat="55.8268185" lon="48.9417719"><time>2022-03-07T06:46:55.677</time></trkpt><trkpt lat="55.8268514" lon="48.9418977"><time>2022-03-07T06:46:57.670</time></trkpt><trkpt lat="55.8268860" lon="48.9419533"><time>2022-03-07T06:46:58.687</time></trkpt><trkpt lat="55.8269560" lon="48.9420180"><time>2022-03-07T06:47:00.680</time></trkpt><trkpt lat="55.8270185" lon="48.9420805"><time>2022-03-07T06:47:02.697</time></trkpt><trkpt lat="55.8270652" lon="48.9421230"><time>2022-03-07T06:47:04.703</time></trkpt><trkpt lat="55.8271153" lon="48.9421112"><time>2022-03-07T06:47:06.687</time></trkpt><trkpt lat="55.8271469" lon="48.9420289"><time>2022-03-07T06:47:08.667</time></trkpt><trkpt lat="55.8271668" lon="48.9419470"><time>2022-03-07T06:47:10.697</time></trkpt><trkpt lat="55.8271713" lon="48.9418393"><time>2022-03-07T06:47:12.667</time></trkpt><trkpt lat="55.8271889" lon="48.9417285"><time>2022-03-07T06:47:14.680</time></trkpt><trkpt lat="55.8272127" lon="48.9416232"><time>2022-03-07T06:47:16.670</time></trkpt><trkpt lat="55.8272515" lon="48.9414846"><time>2022-03-07T06:47:18.727</time></trkpt><trkpt lat="55.8272701" lon="48.9414084"><time>2022-03-07T06:47:19.703</time></trkpt><trkpt lat="55.8274345" lon="48.9413298"><time>2022-03-07T06:47:21.457</time></trkpt><trkpt lat="55.8273593" lon="48.9411099"><time>2022-03-07T06:47:22.683</time></trkpt><trkpt lat="55.8273322" lon="48.9410415"><time>2022-03-07T06:47:23.687</time></trkpt><trkpt lat="55.8273867" lon="48.9409989"><time>2022-03-07T06:47:24.677</time></trkpt><trkpt lat="55.8273966" lon="48.9409036"><time>2022-03-07T06:47:27.660</time></trkpt><trkpt lat="55.8274521" lon="48.9409038"><time>2022-03-07T06:47:38.687</time></trkpt><trkpt lat="55.8275126" lon="48.9409005"><time>2022-03-07T06:47:41.673</time></trkpt><trkpt lat="55.8275583" lon="48.9408881"><time>2022-03-07T06:47:43.673</time></trkpt><trkpt lat="55.8276088" lon="48.9408727"><time>2022-03-07T06:47:45.667</time></trkpt><trkpt lat="55.8276569" lon="48.9408432"><time>2022-03-07T06:47:47.683</time></trkpt><trkpt lat="55.8277129" lon="48.9408122"><time>2022-03-07T06:47:49.690</time></trkpt><trkpt lat="55.8277733" lon="48.9407829"><time>2022-03-07T06:47:51.707</time></trkpt><trkpt lat="55.8278402" lon="48.9407462"><time>2022-03-07T06:47:53.697</time></trkpt><trkpt lat="55.8279061" lon="48.9407139"><time>2022-03-07T06:47:55.697</time></trkpt><trkpt lat="55.8279632" lon="48.9406987"><time>2022-03-07T06:47:57.700</time></trkpt><trkpt lat="55.8280301" lon="48.9406844"><time>2022-03-07T06:48:00.710</time></trkpt><trkpt lat="55.8280769" lon="48.9406853"><time>2022-03-07T06:48:02.707</time></trkpt><trkpt lat="55.8281339" lon="48.9406680"><time>2022-03-07T06:48:04.700</time></trkpt><trkpt lat="55.8281896" lon="48.9406475"><time>2022-03-07T06:48:06.677</time></trkpt><trkpt lat="55.8282331" lon="48.9406137"><time>2022-03-07T06:48:08.677</time></trkpt><trkpt lat="55.8282873" lon="48.9405901"><time>2022-03-07T06:48:10.673</time></trkpt><trkpt lat="55.8283414" lon="48.9405691"><time>2022-03-07T06:48:12.660</time></trkpt><trkpt lat="55.8283980" lon="48.9405561"><time>2022-03-07T06:48:14.660</time></trkpt><trkpt lat="55.8284643" lon="48.9405209"><time>2022-03-07T06:48:16.680</time></trkpt><trkpt lat="55.8285175" lon="48.9404673"><time>2022-03-07T06:48:18.697</time></trkpt><trkpt lat="55.8285501" lon="48.9402930"><time>2022-03-07T06:48:20.480</time></trkpt><trkpt lat="55.8286188" lon="48.9402577"><time>2022-03-07T06:48:21.677</time></trkpt><trkpt lat="55.8285134" lon="48.9401282"><time>2022-03-07T06:48:22.650</time></trkpt><trkpt lat="55.8286400" lon="48.9401567"><time>2022-03-07T06:48:23.670</time></trkpt><trkpt lat="55.8286954" lon="48.9401590"><time>2022-03-07T06:48:25.647</time></trkpt><trkpt lat="55.8287491" lon="48.9401404"><time>2022-03-07T06:48:27.670</time></trkpt><trkpt lat="55.8287205" lon="48.9400631"><time>2022-03-07T06:48:34.667</time></trkpt><trkpt lat="55.8286825" lon="48.9399738"><time>2022-03-07T06:48:37.650</time></trkpt><trkpt lat="55.8286498" lon="48.9398854"><time>2022-03-07T06:48:39.667</time></trkpt><trkpt lat="55.8286297" lon="48.9397941"><time>2022-03-07T06:48:41.640</time></trkpt><trkpt lat="55.8286038" lon="48.9397231"><time>2022-03-07T06:48:43.660</time></trkpt><trkpt lat="55.8285736" lon="48.9396488"><time>2022-03-07T06:48:45.657</time></trkpt><trkpt lat="55.8285509" lon="48.9395743"><time>2022-03-07T06:48:47.670</time></trkpt><trkpt lat="55.8285130" lon="48.9393771"><time>2022-03-07T06:48:49.413</time></trkpt><trkpt lat="55.8285968" lon="48.9393115"><time>2022-03-07T06:48:50.710</time></trkpt><trkpt lat="55.8285771" lon="48.9392368"><time>2022-03-07T06:48:51.717</time></trkpt><trkpt lat="55.8285621" lon="48.9391469"><time>2022-03-07T06:48:54.723</time></trkpt><trkpt lat="55.8285598" lon="48.9390589"><time>2022-03-07T06:48:57.717</time></trkpt><trkpt lat="55.8285346" lon="48.9389702"><time>2022-03-07T06:48:59.737</time></trkpt><trkpt lat="55.8285346" lon="48.9389702"><time>2022-03-07T06:48:59.957</time></trkpt><trkpt lat="55.8285192" lon="48.9388859"><time>2022-03-07T06:49:01.690</time></trkpt><trkpt lat="55.8284613" lon="48.9390399"><time>2022-03-07T06:49:03.447</time></trkpt><trkpt lat="55.8285179" lon="48.9388296"><time>2022-03-07T06:49:04.673</time></trkpt><trkpt lat="55.8284671" lon="48.9387959"><time>2022-03-07T06:49:15.713</time></trkpt><trkpt lat="55.8284455" lon="48.9387207"><time>2022-03-07T06:49:18.720</time></trkpt><trkpt lat="55.8284109" lon="48.9386320"><time>2022-03-07T06:49:20.697</time></trkpt><trkpt lat="55.8283836" lon="48.9385297"><time>2022-03-07T06:49:22.713</time></trkpt><trkpt lat="55.8242919" lon="48.9384067"><time>2022-03-07T06:53:41.717</time></trkpt><trkpt lat="55.8243006" lon="48.9383530"><time>2022-03-07T06:53:45.667</time></trkpt><trkpt lat="55.8242460" lon="48.9383258"><time>2022-03-07T06:53:46.673</time></trkpt><trkpt lat="55.8243247" lon="48.9383742"><time>2022-03-07T06:53:48.673</time></trkpt><trkpt lat="55.8243035" lon="48.9382794"><time>2022-03-07T06:53:51.667</time></trkpt><trkpt lat="55.8242575" lon="48.9382664"><time>2022-03-07T06:53:57.667</time></trkpt><trkpt lat="55.8241998" lon="48.9382423"><time>2022-03-07T06:54:00.727</time></trkpt><trkpt lat="55.8241901" lon="48.9381378"><time>2022-03-07T06:54:04.647</time></trkpt><trkpt lat="55.8242043" lon="48.9380436"><time>2022-03-07T06:54:06.653</time></trkpt><trkpt lat="55.8242278" lon="48.9379567"><time>2022-03-07T06:54:08.633</time></trkpt><trkpt lat="55.8242359" lon="48.9378734"><time>2022-03-07T06:54:10.647</time></trkpt><trkpt lat="55.8242486" lon="48.9377961"><time>2022-03-07T06:54:12.660</time></trkpt><trkpt lat="55.8242632" lon="48.9376115"><time>2022-03-07T06:54:14.483</time></trkpt><trkpt lat="55.8243093" lon="48.9377652"><time>2022-03-07T06:54:15.703</time></trkpt><trkpt lat="55.8242471" lon="48.9375767"><time>2022-03-07T06:54:16.710</time></trkpt><trkpt lat="55.8243012" lon="48.9374724"><time>2022-03-07T06:54:19.710</time></trkpt><trkpt lat="55.8243368" lon="48.9373665"><time>2022-03-07T06:54:21.780</time></trkpt><trkpt lat="55.8243368" lon="48.9373665"><time>2022-03-07T06:54:21.940</time></trkpt><trkpt lat="55.8243761" lon="48.9372852"><time>2022-03-07T06:54:23.730</time></trkpt><trkpt lat="55.8244841" lon="48.9377366"><time>2022-03-07T06:54:24.590</time></trkpt><trkpt lat="55.8244136" lon="48.9371524"><time>2022-03-07T06:54:25.613</time></trkpt><trkpt lat="55.8243564" lon="48.9372095"><time>2022-03-07T06:54:26.693</time></trkpt><trkpt lat="55.8243063" lon="48.9371466"><time>2022-03-07T06:54:27.700</time></trkpt><trkpt lat="55.8244410" lon="48.9372280"><time>2022-03-07T06:54:28.720</time></trkpt><trkpt lat="55.8244091" lon="48.9372919"><time>2022-03-07T06:54:41.693</time></trkpt><trkpt lat="55.8243694" lon="48.9374084"><time>2022-03-07T06:54:44.660</time></trkpt><trkpt lat="55.8243458" lon="48.9375076"><time>2022-03-07T06:54:46.677</time></trkpt><trkpt lat="55.8243173" lon="48.9376133"><time>2022-03-07T06:54:48.680</time></trkpt><trkpt lat="55.8242915" lon="48.9377205"><time>2022-03-07T06:54:50.700</time></trkpt><trkpt lat="55.8242768" lon="48.9378319"><time>2022-03-07T06:54:52.683</time></trkpt><trkpt lat="55.8242570" lon="48.9379240"><time>2022-03-07T06:54:54.703</time></trkpt><trkpt lat="55.8242342" lon="48.9380241"><time>2022-03-07T06:54:56.657</time></trkpt><trkpt lat="55.8242021" lon="48.9381256"><time>2022-03-07T06:54:58.693</time></trkpt><trkpt lat="55.8241791" lon="48.9382445"><time>2022-03-07T06:55:00.703</time></trkpt><trkpt lat="55.8241699" lon="48.9383333"><time>2022-03-07T06:55:02.677</time></trkpt><trkpt lat="55.8241240" lon="48.9383111"><time>2022-03-07T06:55:12.670</time></trkpt><trkpt lat="55.8240782" lon="48.9383098"><time>2022-03-07T06:55:15.683</time></trkpt><trkpt lat="55.8240230" lon="48.9383026"><time>2022-03-07T06:55:19.687</time></trkpt><trkpt lat="55.8239663" lon="48.9382777"><time>2022-03-07T06:55:22.653</time></trkpt><trkpt lat="55.8239241" lon="48.9382392"><time>2022-03-07T06:55:25.687</time></trkpt><trkpt lat="55.8238784" lon="48.9381974"><time>2022-03-07T06:55:27.667</time></trkpt><trkpt lat="55.8238151" lon="48.9381520"><time>2022-03-07T06:55:29.680</time></trkpt><trkpt lat="55.8237499" lon="48.9381458"><time>2022-03-07T06:55:31.687</time></trkpt><trkpt lat="55.8236906" lon="48.9381572"><time>2022-03-07T06:55:33.687</time></trkpt><trkpt lat="55.8236749" lon="48.9383119"><time>2022-03-07T06:55:34.477</time></trkpt><trkpt lat="55.8235620" lon="48.9382317"><time>2022-03-07T06:55:36.287</time></trkpt><trkpt lat="55.8234179" lon="48.9381894"><time>2022-03-07T06:55:38.073</time></trkpt><trkpt lat="55.8233766" lon="48.9382497"><time>2022-03-07T06:55:40.660</time></trkpt><trkpt lat="55.8233117" lon="48.9382898"><time>2022-03-07T06:55:41.667</time></trkpt><trkpt lat="55.8232072" lon="48.9383203"><time>2022-03-07T06:55:43.673</time></trkpt><trkpt lat="55.8231556" lon="48.9383336"><time>2022-03-07T06:55:44.670</time></trkpt><trkpt lat="55.8230911" lon="48.9383469"><time>2022-03-07T06:55:46.663</time></trkpt><trkpt lat="55.8230398" lon="48.9383598"><time>2022-03-07T06:55:48.677</time></trkpt><trkpt lat="55.8229834" lon="48.9383442"><time>2022-03-07T06:55:50.640</time></trkpt><trkpt lat="55.8229304" lon="48.9383208"><time>2022-03-07T06:55:52.673</time></trkpt><trkpt lat="55.8228737" lon="48.9382514"><time>2022-03-07T06:55:54.677</time></trkpt><trkpt lat="55.8228145" lon="48.9381741"><time>2022-03-07T06:55:56.683</time></trkpt><trkpt lat="55.8227645" lon="48.9380858"><time>2022-03-07T06:55:58.660</time></trkpt><trkpt lat="55.8227170" lon="48.9380009"><time>2022-03-07T06:56:00.683</time></trkpt><trkpt lat="55.8226715" lon="48.9379109"><time>2022-03-07T06:56:02.683</time></trkpt><trkpt lat="55.8226298" lon="48.9378288"><time>2022-03-07T06:56:04.707</time></trkpt><trkpt lat="55.8238553" lon="48.9381042"><time>2022-03-07T06:56:06.503</time></trkpt><trkpt lat="55.8225455" lon="48.9376931"><time>2022-03-07T06:56:08.277</time></trkpt><trkpt lat="55.8225483" lon="48.9374811"><time>2022-03-07T06:56:10.037</time></trkpt><trkpt lat="55.8225119" lon="48.9373988"><time>2022-03-07T06:56:10.633</time></trkpt><trkpt lat="55.8224671" lon="48.9373393"><time>2022-03-07T06:56:14.677</time></trkpt><trkpt lat="55.8224120" lon="48.9372364"><time>2022-03-07T06:56:16.693</time></trkpt><trkpt lat="55.8224110" lon="48.9371015"><time>2022-03-07T06:56:18.467</time></trkpt><trkpt lat="55.8223877" lon="48.9370227"><time>2022-03-07T06:56:19.660</time></trkpt><trkpt lat="55.8223385" lon="48.9369162"><time>2022-03-07T06:56:20.670</time></trkpt><trkpt lat="55.8222884" lon="48.9369306"><time>2022-03-07T06:56:23.677</time></trkpt><trkpt lat="55.8222603" lon="48.9368653"><time>2022-03-07T06:56:27.690</time></trkpt><trkpt lat="55.8222394" lon="48.9367860"><time>2022-03-07T06:56:29.697</time></trkpt><trkpt lat="55.8222394" lon="48.9367860"><time>2022-03-07T06:56:29.760</time></trkpt><trkpt lat="55.8222501" lon="48.9368699"><time>2022-03-07T06:56:39.690</time></trkpt><trkpt lat="55.8223234" lon="48.9369777"><time>2022-03-07T06:56:41.487</time></trkpt><trkpt lat="55.8224021" lon="48.9368892"><time>2022-03-07T06:56:42.683</time></trkpt><trkpt lat="55.8223024" lon="48.9370744"><time>2022-03-07T06:56:43.663</time></trkpt><trkpt lat="55.8222224" lon="48.9370351"><time>2022-03-07T06:56:45.667</time></trkpt><trkpt lat="55.8221590" lon="48.9369972"><time>2022-03-07T06:56:47.683</time></trkpt><trkpt lat="55.8221000" lon="48.9370389"><time>2022-03-07T06:56:49.663</time></trkpt><trkpt lat="55.8220460" lon="48.9370946"><time>2022-03-07T06:56:51.660</time></trkpt><trkpt lat="55.8219919" lon="48.9371609"><time>2022-03-07T06:56:53.660</time></trkpt><trkpt lat="55.8219481" lon="48.9372532"><time>2022-03-07T06:56:55.697</time></trkpt><trkpt lat="55.8219080" lon="48.9373415"><time>2022-03-07T06:56:57.670</time></trkpt><trkpt lat="55.8218650" lon="48.9374186"><time>2022-03-07T06:56:59.647</time></trkpt><trkpt lat="55.8218208" lon="48.9374864"><time>2022-03-07T06:57:01.680</time></trkpt><trkpt lat="55.8217849" lon="48.9375581"><time>2022-03-07T06:57:03.677</time></trkpt><trkpt lat="55.8217407" lon="48.9376534"><time>2022-03-07T06:57:05.687</time></trkpt><trkpt lat="55.8217130" lon="48.9377506"><time>2022-03-07T06:57:07.680</time></trkpt><trkpt lat="55.8217239" lon="48.9378562"><time>2022-03-07T06:57:09.660</time></trkpt><trkpt lat="55.8217472" lon="48.9379644"><time>2022-03-07T06:57:11.667</time></trkpt><trkpt lat="55.8217594" lon="48.9380459"><time>2022-03-07T06:57:13.673</time></trkpt><trkpt lat="55.8217777" lon="48.9381464"><time>2022-03-07T06:57:15.687</time></trkpt><trkpt lat="55.8217836" lon="48.9382429"><time>2022-03-07T06:57:17.680</time></trkpt><trkpt lat="55.8217944" lon="48.9383342"><time>2022-03-07T06:57:19.677</time></trkpt><trkpt lat="55.8218068" lon="48.9384130"><time>2022-03-07T06:57:21.697</time></trkpt><trkpt lat="55.8218329" lon="48.9385201"><time>2022-03-07T06:57:24.707</time></trkpt><trkpt lat="55.8218454" lon="48.9386129"><time>2022-03-07T06:57:26.687</time></trkpt><trkpt lat="55.8218658" lon="48.9387160"><time>2022-03-07T06:57:28.687</time></trkpt><trkpt lat="55.8218924" lon="48.9388127"><time>2022-03-07T06:57:30.700</time></trkpt><trkpt lat="55.8219123" lon="48.9388902"><time>2022-03-07T06:57:32.673</time></trkpt><trkpt lat="55.8218561" lon="48.9388688"><time>2022-03-07T06:57:39.680</time></trkpt><trkpt lat="55.8218127" lon="48.9388425"><time>2022-03-07T06:57:41.697</time></trkpt><trkpt lat="55.8217588" lon="48.9388089"><time>2022-03-07T06:57:43.710</time></trkpt><trkpt lat="55.8216981" lon="48.9387788"><time>2022-03-07T06:57:45.680</time></trkpt><trkpt lat="55.8216427" lon="48.9387436"><time>2022-03-07T06:57:47.687</time></trkpt><trkpt lat="55.8215842" lon="48.9387138"><time>2022-03-07T06:57:49.697</time></trkpt><trkpt lat="55.8215244" lon="48.9386737"><time>2022-03-07T06:57:51.680</time></trkpt><trkpt lat="55.8214551" lon="48.9386264"><time>2022-03-07T06:57:53.707</time></trkpt><trkpt lat="55.8213793" lon="48.9385571"><time>2022-03-07T06:57:55.700</time></trkpt><trkpt lat="55.8213384" lon="48.9385198"><time>2022-03-07T06:57:56.697</time></trkpt><trkpt lat="55.8212735" lon="48.9384758"><time>2022-03-07T06:57:58.683</time></trkpt><trkpt lat="55.8212056" lon="48.9384416"><time>2022-03-07T06:58:00.683</time></trkpt><trkpt lat="55.8211431" lon="48.9384155"><time>2022-03-07T06:58:02.677</time></trkpt><trkpt lat="55.8210849" lon="48.9383903"><time>2022-03-07T06:58:04.673</time></trkpt><trkpt lat="55.8210272" lon="48.9383523"><time>2022-03-07T06:58:06.703</time></trkpt><trkpt lat="55.8209116" lon="48.9381984"><time>2022-03-07T06:58:08.467</time></trkpt><trkpt lat="55.8208671" lon="48.9381396"><time>2022-03-07T06:58:11.677</time></trkpt><trkpt lat="55.8207890" lon="48.9381218"><time>2022-03-07T06:58:14.673</time></trkpt><trkpt lat="55.8207273" lon="48.9380949"><time>2022-03-07T06:58:16.663</time></trkpt><trkpt lat="55.8206704" lon="48.9380707"><time>2022-03-07T06:58:18.683</time></trkpt><trkpt lat="55.8206169" lon="48.9380377"><time>2022-03-07T06:58:20.643</time></trkpt><trkpt lat="55.8205535" lon="48.9380184"><time>2022-03-07T06:58:23.643</time></trkpt><trkpt lat="55.8205092" lon="48.9379989"><time>2022-03-07T06:58:25.687</time></trkpt><trkpt lat="55.8204592" lon="48.9379629"><time>2022-03-07T06:58:27.697</time></trkpt><trkpt lat="55.8204058" lon="48.9379459"><time>2022-03-07T06:58:29.710</time></trkpt><trkpt lat="55.8203605" lon="48.9379175"><time>2022-03-07T06:58:31.697</time></trkpt><trkpt lat="55.8203035" lon="48.9378850"><time>2022-03-07T06:58:33.710</time></trkpt><trkpt lat="55.8202443" lon="48.9378498"><time>2022-03-07T06:58:35.717</time></trkpt><trkpt lat="55.8201812" lon="48.9378067"><time>2022-03-07T06:58:37.713</time></trkpt><trkpt lat="55.8201295" lon="48.9377545"><time>2022-03-07T06:58:39.657</time></trkpt><trkpt lat="55.8200702" lon="48.9377496"><time>2022-03-07T06:58:41.730</time></trkpt><trkpt lat="55.8200324" lon="48.9378047"><time>2022-03-07T06:58:43.723</time></trkpt><trkpt lat="55.8200167" lon="48.9379098"><time>2022-03-07T06:58:45.727</time></trkpt><trkpt lat="55.8199889" lon="48.9380177"><time>2022-03-07T06:58:47.763</time></trkpt><trkpt lat="55.8199648" lon="48.9381192"><time>2022-03-07T06:58:49.710</time></trkpt><trkpt lat="55.8199462" lon="48.9382244"><time>2022-03-07T06:58:51.743</time></trkpt><trkpt lat="55.8199355" lon="48.9383432"><time>2022-03-07T06:58:53.710</time></trkpt><trkpt lat="55.8199198" lon="48.9384556"><time>2022-03-07T06:58:55.717</time></trkpt><trkpt lat="55.8198965" lon="48.9385722"><time>2022-03-07T06:58:57.707</time></trkpt><trkpt lat="55.8198724" lon="48.9386846"><time>2022-03-07T06:58:59.713</time></trkpt><trkpt lat="55.8198540" lon="48.9387906"><time>2022-03-07T06:59:01.727</time></trkpt><trkpt lat="55.8198234" lon="48.9388888"><time>2022-03-07T06:59:03.700</time></trkpt><trkpt lat="55.8197870" lon="48.9389662"><time>2022-03-07T06:59:04.723</time></trkpt><trkpt lat="55.8198070" lon="48.9390938"><time>2022-03-07T06:59:06.720</time></trkpt><trkpt lat="55.8198134" lon="48.9391977"><time>2022-03-07T06:59:08.733</time></trkpt><trkpt lat="55.8197883" lon="48.9393042"><time>2022-03-07T06:59:10.670</time></trkpt><trkpt lat="55.8197558" lon="48.9393797"><time>2022-03-07T06:59:12.667</time></trkpt><trkpt lat="55.8197135" lon="48.9394364"><time>2022-03-07T06:59:14.700</time></trkpt><trkpt lat="55.8196788" lon="48.9395018"><time>2022-03-07T06:59:16.720</time></trkpt><trkpt lat="55.8196387" lon="48.9395496"><time>2022-03-07T06:59:18.750</time></trkpt><trkpt lat="55.8196352" lon="48.9395731"><time>2022-03-07T06:59:20.670</time></trkpt><trkpt lat="55.8196275" lon="48.9397096"><time>2022-03-07T06:59:21.700</time></trkpt><trkpt lat="55.8196447" lon="48.9397910"><time>2022-03-07T06:59:24.733</time></trkpt><trkpt lat="55.8196426" lon="48.9398930"><time>2022-03-07T06:59:26.693</time></trkpt><trkpt lat="55.8196399" lon="48.9399937"><time>2022-03-07T06:59:28.753</time></trkpt><trkpt lat="55.8196399" lon="48.9399937"><time>2022-03-07T06:59:28.827</time></trkpt><trkpt lat="55.8196326" lon="48.9400878"><time>2022-03-07T06:59:30.723</time></trkpt><trkpt lat="55.8195884" lon="48.9400520"><time>2022-03-07T06:59:32.570</time></trkpt><trkpt lat="55.8196767" lon="48.9400312"><time>2022-03-07T06:59:33.663</time></trkpt><trkpt lat="55.8196205" lon="48.9399841"><time>2022-03-07T06:59:36.663</time></trkpt><trkpt lat="55.8196181" lon="48.9398977"><time>2022-03-07T06:59:39.690</time></trkpt><trkpt lat="55.8196163" lon="48.9398002"><time>2022-03-07T06:59:43.677</time></trkpt><trkpt lat="55.8195975" lon="48.9397205"><time>2022-03-07T06:59:52.707</time></trkpt><trkpt lat="55.8195977" lon="48.9395975"><time>2022-03-07T06:59:55.680</time></trkpt><trkpt lat="55.8195915" lon="48.9394963"><time>2022-03-07T06:59:57.690</time></trkpt><trkpt lat="55.8195710" lon="48.9393879"><time>2022-03-07T06:59:59.710</time></trkpt><trkpt lat="55.8195469" lon="48.9392730"><time>2022-03-07T07:00:01.673</time></trkpt><trkpt lat="55.8195176" lon="48.9391574"><time>2022-03-07T07:00:03.740</time></trkpt><trkpt lat="55.8194745" lon="48.9390521"><time>2022-03-07T07:00:05.783</time></trkpt><trkpt lat="55.8194317" lon="48.9389517"><time>2022-03-07T07:00:07.740</time></trkpt><trkpt lat="55.8193912" lon="48.9388533"><time>2022-03-07T07:00:09.723</time></trkpt><trkpt lat="55.8193584" lon="48.9387650"><time>2022-03-07T07:00:11.750</time></trkpt><trkpt lat="55.8193228" lon="48.9386825"><time>2022-03-07T07:00:13.780</time></trkpt><trkpt lat="55.8192955" lon="48.9385922"><time>2022-03-07T07:00:15.757</time></trkpt><trkpt lat="55.8192690" lon="48.9384952"><time>2022-03-07T07:00:17.747</time></trkpt><trkpt lat="55.8192385" lon="48.9383767"><time>2022-03-07T07:00:19.727</time></trkpt><trkpt lat="55.8191986" lon="48.9382741"><time>2022-03-07T07:00:21.740</time></trkpt><trkpt lat="55.8191559" lon="48.9381853"><time>2022-03-07T07:00:23.697</time></trkpt><trkpt lat="55.8191185" lon="48.9380921"><time>2022-03-07T07:00:25.680</time></trkpt><trkpt lat="55.8190786" lon="48.9380028"><time>2022-03-07T07:00:27.733</time></trkpt><trkpt lat="55.8190423" lon="48.9379130"><time>2022-03-07T07:00:29.717</time></trkpt><trkpt lat="55.8190049" lon="48.9378245"><time>2022-03-07T07:00:31.727</time></trkpt><trkpt lat="55.8189675" lon="48.9377336"><time>2022-03-07T07:00:33.713</time></trkpt><trkpt lat="55.8189278" lon="48.9376423"><time>2022-03-07T07:00:35.737</time></trkpt><trkpt lat="55.8188857" lon="48.9375452"><time>2022-03-07T07:00:37.747</time></trkpt><trkpt lat="55.8188416" lon="48.9374420"><time>2022-03-07T07:00:39.723</time></trkpt><trkpt lat="55.8188027" lon="48.9373468"><time>2022-03-07T07:00:41.777</time></trkpt><trkpt lat="55.8187741" lon="48.9372351"><time>2022-03-07T07:00:43.717</time></trkpt><trkpt lat="55.8187544" lon="48.9371186"><time>2022-03-07T07:00:45.743</time></trkpt><trkpt lat="55.8187308" lon="48.9369983"><time>2022-03-07T07:00:47.737</time></trkpt><trkpt lat="55.8186986" lon="48.9368745"><time>2022-03-07T07:00:49.780</time></trkpt><trkpt lat="55.8186751" lon="48.9367546"><time>2022-03-07T07:00:51.747</time></trkpt><trkpt lat="55.8186481" lon="48.9366340"><time>2022-03-07T07:00:53.757</time></trkpt><trkpt lat="55.8186326" lon="48.9365170"><time>2022-03-07T07:00:55.777</time></trkpt><trkpt lat="55.8186259" lon="48.9364083"><time>2022-03-07T07:00:57.767</time></trkpt><trkpt lat="55.8186289" lon="48.9363082"><time>2022-03-07T07:00:59.723</time></trkpt><trkpt lat="55.8186429" lon="48.9362104"><time>2022-03-07T07:01:01.657</time></trkpt><trkpt lat="55.8186662" lon="48.9361180"><time>2022-03-07T07:01:03.727</time></trkpt><trkpt lat="55.8186910" lon="48.9360257"><time>2022-03-07T07:01:05.690</time></trkpt><trkpt lat="55.8187168" lon="48.9359418"><time>2022-03-07T07:01:07.690</time></trkpt><trkpt lat="55.8187461" lon="48.9358751"><time>2022-03-07T07:01:09.747</time></trkpt><trkpt lat="55.8187910" lon="48.9358041"><time>2022-03-07T07:01:11.720</time></trkpt><trkpt lat="55.8188401" lon="48.9357336"><time>2022-03-07T07:01:13.747</time></trkpt><trkpt lat="55.8188967" lon="48.9356600"><time>2022-03-07T07:01:15.710</time></trkpt><trkpt lat="55.8189613" lon="48.9355807"><time>2022-03-07T07:01:17.690</time></trkpt><trkpt lat="55.8190177" lon="48.9355073"><time>2022-03-07T07:01:19.687</time></trkpt><trkpt lat="55.8190735" lon="48.9354352"><time>2022-03-07T07:01:21.693</time></trkpt><trkpt lat="55.8191264" lon="48.9353584"><time>2022-03-07T07:01:23.703</time></trkpt><trkpt lat="55.8191899" lon="48.9352713"><time>2022-03-07T07:01:25.680</time></trkpt><trkpt lat="55.8192489" lon="48.9351908"><time>2022-03-07T07:01:27.710</time></trkpt><trkpt lat="55.8193025" lon="48.9350959"><time>2022-03-07T07:01:29.707</time></trkpt><trkpt lat="55.8193442" lon="48.9349999"><time>2022-03-07T07:01:31.733</time></trkpt><trkpt lat="55.8193643" lon="48.9348907"><time>2022-03-07T07:01:33.660</time></trkpt><trkpt lat="55.8193659" lon="48.9347714"><time>2022-03-07T07:01:35.753</time></trkpt><trkpt lat="55.8193696" lon="48.9346346"><time>2022-03-07T07:01:37.730</time></trkpt><trkpt lat="55.8193764" lon="48.9344804"><time>2022-03-07T07:01:39.747</time></trkpt><trkpt lat="55.8193910" lon="48.9343979"><time>2022-03-07T07:01:40.707</time></trkpt><trkpt lat="55.8194039" lon="48.9342567"><time>2022-03-07T07:01:42.733</time></trkpt><trkpt lat="55.8194149" lon="48.9341391"><time>2022-03-07T07:01:44.737</time></trkpt><trkpt lat="55.8194176" lon="48.9340156"><time>2022-03-07T07:01:46.683</time></trkpt><trkpt lat="55.8194167" lon="48.9338990"><time>2022-03-07T07:01:48.690</time></trkpt><trkpt lat="55.8194137" lon="48.9337825"><time>2022-03-07T07:01:50.683</time></trkpt><trkpt lat="55.8194047" lon="48.9336588"><time>2022-03-07T07:01:52.693</time></trkpt><trkpt lat="55.8193795" lon="48.9335376"><time>2022-03-07T07:01:54.650</time></trkpt><trkpt lat="55.8193540" lon="48.9334152"><time>2022-03-07T07:01:56.667</time></trkpt><trkpt lat="55.8193229" lon="48.9333130"><time>2022-03-07T07:01:58.673</time></trkpt><trkpt lat="55.8193034" lon="48.9332189"><time>2022-03-07T07:02:00.687</time></trkpt><trkpt lat="55.8192846" lon="48.9331394"><time>2022-03-07T07:02:02.687</time></trkpt><trkpt lat="55.8192496" lon="48.9330685"><time>2022-03-07T07:02:04.680</time></trkpt><trkpt lat="55.8192226" lon="48.9329884"><time>2022-03-07T07:02:06.680</time></trkpt><trkpt lat="55.8191876" lon="48.9328976"><time>2022-03-07T07:02:08.683</time></trkpt><trkpt lat="55.8191463" lon="48.9327976"><time>2022-03-07T07:02:10.697</time></trkpt><trkpt lat="55.8191043" lon="48.9327064"><time>2022-03-07T07:02:12.697</time></trkpt><trkpt lat="55.8190618" lon="48.9326368"><time>2022-03-07T07:02:14.700</time></trkpt><trkpt lat="55.8190198" lon="48.9325616"><time>2022-03-07T07:02:16.680</time></trkpt><trkpt lat="55.8189846" lon="48.9324815"><time>2022-03-07T07:02:18.697</time></trkpt><trkpt lat="55.8189444" lon="48.9323972"><time>2022-03-07T07:02:20.687</time></trkpt><trkpt lat="55.8188970" lon="48.9322993"><time>2022-03-07T07:02:22.683</time></trkpt><trkpt lat="55.8188630" lon="48.9322059"><time>2022-03-07T07:02:24.690</time></trkpt><trkpt lat="55.8188251" lon="48.9321200"><time>2022-03-07T07:02:26.687</time></trkpt><trkpt lat="55.8187928" lon="48.9320390"><time>2022-03-07T07:02:28.697</time></trkpt><trkpt lat="55.8187543" lon="48.9319715"><time>2022-03-07T07:02:30.697</time></trkpt><trkpt lat="55.8187070" lon="48.9319088"><time>2022-03-07T07:02:32.713</time></trkpt><trkpt lat="55.8186577" lon="48.9318706"><time>2022-03-07T07:02:34.733</time></trkpt><trkpt lat="55.8186095" lon="48.9318449"><time>2022-03-07T07:02:36.777</time></trkpt><trkpt lat="55.8185409" lon="48.9318035"><time>2022-03-07T07:02:39.733</time></trkpt><trkpt lat="55.8184928" lon="48.9317871"><time>2022-03-07T07:02:41.720</time></trkpt><trkpt lat="55.8184427" lon="48.9317766"><time>2022-03-07T07:02:43.717</time></trkpt><trkpt lat="55.8183922" lon="48.9317638"><time>2022-03-07T07:02:45.743</time></trkpt><trkpt lat="55.8183405" lon="48.9317313"><time>2022-03-07T07:02:47.737</time></trkpt><trkpt lat="55.8182952" lon="48.9316839"><time>2022-03-07T07:02:49.747</time></trkpt><trkpt lat="55.8182534" lon="48.9316208"><time>2022-03-07T07:02:51.743</time></trkpt><trkpt lat="55.8182208" lon="48.9315457"><time>2022-03-07T07:02:53.747</time></trkpt><trkpt lat="55.8182071" lon="48.9314417"><time>2022-03-07T07:02:55.687</time></trkpt><trkpt lat="55.8181880" lon="48.9313468"><time>2022-03-07T07:02:57.710</time></trkpt><trkpt lat="55.8181765" lon="48.9312366"><time>2022-03-07T07:02:59.733</time></trkpt><trkpt lat="55.8181745" lon="48.9311206"><time>2022-03-07T07:03:01.707</time></trkpt><trkpt lat="55.8181747" lon="48.9310068"><time>2022-03-07T07:03:03.757</time></trkpt><trkpt lat="55.8181866" lon="48.9309080"><time>2022-03-07T07:03:05.777</time></trkpt><trkpt lat="55.8182015" lon="48.9307962"><time>2022-03-07T07:03:07.743</time></trkpt><trkpt lat="55.8182146" lon="48.9306896"><time>2022-03-07T07:03:09.737</time></trkpt><trkpt lat="55.8182270" lon="48.9305896"><time>2022-03-07T07:03:11.753</time></trkpt><trkpt lat="55.8182424" lon="48.9304827"><time>2022-03-07T07:03:13.757</time></trkpt><trkpt lat="55.8182544" lon="48.9303833"><time>2022-03-07T07:03:15.757</time></trkpt><trkpt lat="55.8181403" lon="48.9303558"><time>2022-03-07T07:03:16.737</time></trkpt><trkpt lat="55.8183206" lon="48.9302805"><time>2022-03-07T07:03:17.657</time></trkpt><trkpt lat="55.8183717" lon="48.9301583"><time>2022-03-07T07:03:19.630</time></trkpt><trkpt lat="55.8183943" lon="48.9300314"><time>2022-03-07T07:03:23.697</time></trkpt><trkpt lat="55.8184057" lon="48.9299338"><time>2022-03-07T07:03:25.683</time></trkpt><trkpt lat="55.8184360" lon="48.9300408"><time>2022-03-07T07:03:36.667</time></trkpt><trkpt lat="55.8184898" lon="48.9300462"><time>2022-03-07T07:03:38.653</time></trkpt><trkpt lat="55.8185324" lon="48.9299833"><time>2022-03-07T07:03:40.643</time></trkpt><trkpt lat="55.8185652" lon="48.9299084"><time>2022-03-07T07:03:42.643</time></trkpt><trkpt lat="55.8186126" lon="48.9298511"><time>2022-03-07T07:03:44.643</time></trkpt><trkpt lat="55.8186650" lon="48.9297928"><time>2022-03-07T07:03:46.657</time></trkpt><trkpt lat="55.8187111" lon="48.9297486"><time>2022-03-07T07:03:48.667</time></trkpt><trkpt lat="55.8187663" lon="48.9297164"><time>2022-03-07T07:03:50.667</time></trkpt><trkpt lat="55.8188140" lon="48.9297310"><time>2022-03-07T07:03:52.653</time></trkpt><trkpt lat="55.8188693" lon="48.9297187"><time>2022-03-07T07:03:54.700</time></trkpt><trkpt lat="55.8189048" lon="48.9296627"><time>2022-03-07T07:03:56.680</time></trkpt><trkpt lat="55.8189450" lon="48.9296072"><time>2022-03-07T07:03:58.660</time></trkpt><trkpt lat="55.8190141" lon="48.9295765"><time>2022-03-07T07:04:00.770</time></trkpt><trkpt lat="55.8191043" lon="48.9295389"><time>2022-03-07T07:04:02.663</time></trkpt><trkpt lat="55.8191769" lon="48.9294451"><time>2022-03-07T07:04:04.670</time></trkpt><trkpt lat="55.8192322" lon="48.9294237"><time>2022-03-07T07:04:05.647</time></trkpt><trkpt lat="55.8192761" lon="48.9293994"><time>2022-03-07T07:04:07.640</time></trkpt><trkpt lat="55.8193307" lon="48.9293713"><time>2022-03-07T07:04:09.690</time></trkpt><trkpt lat="55.8190790" lon="48.9302379"><time>2022-03-07T07:04:56.940</time></trkpt><trkpt lat="55.8192584" lon="48.9298747"><time>2022-03-07T07:04:57.693</time></trkpt><trkpt lat="55.8194671" lon="48.9295225"><time>2022-03-07T07:04:59.463</time></trkpt><trkpt lat="55.8197023" lon="48.9288445"><time>2022-03-07T07:05:00.693</time></trkpt><trkpt lat="55.8195050" lon="48.9297665"><time>2022-03-07T07:05:01.410</time></trkpt><trkpt lat="55.8195798" lon="48.9293118"><time>2022-03-07T07:05:03.300</time></trkpt><trkpt lat="55.8197474" lon="48.9286629"><time>2022-03-07T07:05:04.757</time></trkpt><trkpt lat="55.8197474" lon="48.9286629"><time>2022-03-07T07:05:04.870</time></trkpt><trkpt lat="55.8197627" lon="48.9285478"><time>2022-03-07T07:05:06.547</time></trkpt><trkpt lat="55.8195715" lon="48.9284814"><time>2022-03-07T07:05:07.463</time></trkpt><trkpt lat="55.8196768" lon="48.9285058"><time>2022-03-07T07:05:08.457</time></trkpt><trkpt lat="55.8196393" lon="48.9284352"><time>2022-03-07T07:05:11.680</time></trkpt><trkpt lat="55.8196046" lon="48.9283782"><time>2022-03-07T07:05:28.737</time></trkpt><trkpt lat="55.8195561" lon="48.9283487"><time>2022-03-07T07:05:33.740</time></trkpt><trkpt lat="55.8195015" lon="48.9283158"><time>2022-03-07T07:05:39.763</time></trkpt><trkpt lat="55.8194582" lon="48.9282755"><time>2022-03-07T07:05:43.787</time></trkpt><trkpt lat="55.8194072" lon="48.9282627"><time>2022-03-07T07:05:48.753</time></trkpt><trkpt lat="55.8193566" lon="48.9282591"><time>2022-03-07T07:05:57.737</time></trkpt><trkpt lat="55.8193045" lon="48.9282698"><time>2022-03-07T07:06:07.740</time></trkpt><trkpt lat="55.8192563" lon="48.9282753"><time>2022-03-07T07:06:12.737</time></trkpt><trkpt lat="55.8192411" lon="48.9281970"><time>2022-03-07T07:06:15.737</time></trkpt><trkpt lat="55.8192319" lon="48.9280843"><time>2022-03-07T07:06:18.710</time></trkpt><trkpt lat="55.8192219" lon="48.9279974"><time>2022-03-07T07:06:20.733</time></trkpt><trkpt lat="55.8192093" lon="48.9279037"><time>2022-03-07T07:06:22.730</time></trkpt><trkpt lat="55.8191868" lon="48.9278077"><time>2022-03-07T07:06:24.657</time></trkpt><trkpt lat="55.8191700" lon="48.9277076"><time>2022-03-07T07:06:26.680</time></trkpt><trkpt lat="55.8191664" lon="48.9276004"><time>2022-03-07T07:06:28.697</time></trkpt><trkpt lat="55.8191906" lon="48.9275031"><time>2022-03-07T07:06:30.697</time></trkpt><trkpt lat="55.8192277" lon="48.9274173"><time>2022-03-07T07:06:32.720</time></trkpt><trkpt lat="55.8192815" lon="48.9272791"><time>2022-03-07T07:06:34.470</time></trkpt><trkpt lat="55.8192946" lon="48.9272028"><time>2022-03-07T07:06:36.653</time></trkpt><trkpt lat="55.8193103" lon="48.9271136"><time>2022-03-07T07:06:38.653</time></trkpt><trkpt lat="55.8193211" lon="48.9270050"><time>2022-03-07T07:06:40.667</time></trkpt><trkpt lat="55.8193193" lon="48.9269005"><time>2022-03-07T07:06:42.720</time></trkpt><trkpt lat="55.8193072" lon="48.9268036"><time>2022-03-07T07:06:44.717</time></trkpt><trkpt lat="55.8193245" lon="48.9267085"><time>2022-03-07T07:06:46.717</time></trkpt><trkpt lat="55.8193304" lon="48.9266223"><time>2022-03-07T07:06:48.740</time></trkpt><trkpt lat="55.8193314" lon="48.9264870"><time>2022-03-07T07:06:50.550</time></trkpt><trkpt lat="55.8192895" lon="48.9264115"><time>2022-03-07T07:06:55.723</time></trkpt><trkpt lat="55.8192561" lon="48.9263231"><time>2022-03-07T07:06:57.640</time></trkpt><trkpt lat="55.8192383" lon="48.9262274"><time>2022-03-07T07:06:59.697</time></trkpt><trkpt lat="55.8192350" lon="48.9261430"><time>2022-03-07T07:07:01.697</time></trkpt><trkpt lat="55.8192519" lon="48.9260611"><time>2022-03-07T07:07:03.657</time></trkpt><trkpt lat="55.8192832" lon="48.9259806"><time>2022-03-07T07:07:05.667</time></trkpt><trkpt lat="55.8193291" lon="48.9259201"><time>2022-03-07T07:07:07.683</time></trkpt><trkpt lat="55.8193291" lon="48.9259201"><time>2022-03-07T07:07:07.753</time></trkpt><trkpt lat="55.8193546" lon="48.9258160"><time>2022-03-07T07:07:11.730</time></trkpt><trkpt lat="55.8193499" lon="48.9258535"><time>2022-03-07T07:07:12.657</time></trkpt><trkpt lat="55.8193838" lon="48.9257711"><time>2022-03-07T07:07:13.607</time></trkpt><trkpt lat="55.8193668" lon="48.9256972"><time>2022-03-07T07:07:17.673</time></trkpt><trkpt lat="55.8193985" lon="48.9256276"><time>2022-03-07T07:07:23.740</time></trkpt><trkpt lat="55.8194367" lon="48.9255776"><time>2022-03-07T07:07:27.687</time></trkpt><trkpt lat="55.8194691" lon="48.9254992"><time>2022-03-07T07:07:31.743</time></trkpt><trkpt lat="55.8194803" lon="48.9253945"><time>2022-03-07T07:07:35.753</time></trkpt><trkpt lat="55.8194881" lon="48.9252956"><time>2022-03-07T07:07:39.733</time></trkpt><trkpt lat="55.8194981" lon="48.9251996"><time>2022-03-07T07:07:42.670</time></trkpt><trkpt lat="55.8195064" lon="48.9250880"><time>2022-03-07T07:07:44.750</time></trkpt><trkpt lat="55.8195262" lon="48.9249775"><time>2022-03-07T07:07:46.723</time></trkpt><trkpt lat="55.8195492" lon="48.9248614"><time>2022-03-07T07:07:48.710</time></trkpt><trkpt lat="55.8195679" lon="48.9247491"><time>2022-03-07T07:07:50.677</time></trkpt><trkpt lat="55.8195782" lon="48.9246370"><time>2022-03-07T07:07:52.660</time></trkpt><trkpt lat="55.8195890" lon="48.9245372"><time>2022-03-07T07:07:54.677</time></trkpt><trkpt lat="55.8195969" lon="48.9244324"><time>2022-03-07T07:07:56.687</time></trkpt><trkpt lat="55.8196013" lon="48.9243298"><time>2022-03-07T07:07:58.723</time></trkpt><trkpt lat="55.8195999" lon="48.9242274"><time>2022-03-07T07:08:00.727</time></trkpt><trkpt lat="55.8195982" lon="48.9241255"><time>2022-03-07T07:08:02.703</time></trkpt><trkpt lat="55.8195989" lon="48.9240189"><time>2022-03-07T07:08:04.747</time></trkpt><trkpt lat="55.8196037" lon="48.9239111"><time>2022-03-07T07:08:06.740</time></trkpt><trkpt lat="55.8196096" lon="48.9238017"><time>2022-03-07T07:08:08.697</time></trkpt><trkpt lat="55.8196159" lon="48.9236832"><time>2022-03-07T07:08:10.727</time></trkpt><trkpt lat="55.8196188" lon="48.9235564"><time>2022-03-07T07:08:12.747</time></trkpt><trkpt lat="55.8196167" lon="48.9234416"><time>2022-03-07T07:08:14.747</time></trkpt><trkpt lat="55.8196189" lon="48.9233339"><time>2022-03-07T07:08:16.713</time></trkpt><trkpt lat="55.8196265" lon="48.9232166"><time>2022-03-07T07:08:18.753</time></trkpt><trkpt lat="55.8196290" lon="48.9231072"><time>2022-03-07T07:08:20.713</time></trkpt><trkpt lat="55.8196300" lon="48.9229956"><time>2022-03-07T07:08:22.723</time></trkpt><trkpt lat="55.8196253" lon="48.9228851"><time>2022-03-07T07:08:24.730</time></trkpt><trkpt lat="55.8196249" lon="48.9227769"><time>2022-03-07T07:08:26.727</time></trkpt><trkpt lat="55.8196213" lon="48.9226661"><time>2022-03-07T07:08:28.737</time></trkpt><trkpt lat="55.8196196" lon="48.9225681"><time>2022-03-07T07:08:30.720</time></trkpt><trkpt lat="55.8196143" lon="48.9224601"><time>2022-03-07T07:08:32.713</time></trkpt><trkpt lat="55.8196065" lon="48.9223469"><time>2022-03-07T07:08:34.727</time></trkpt><trkpt lat="55.8195965" lon="48.9222362"><time>2022-03-07T07:08:36.680</time></trkpt><trkpt lat="55.8195828" lon="48.9221314"><time>2022-03-07T07:08:38.683</time></trkpt><trkpt lat="55.8195566" lon="48.9220285"><time>2022-03-07T07:08:40.750</time></trkpt><trkpt lat="55.8195247" lon="48.9219319"><time>2022-03-07T07:08:42.783</time></trkpt><trkpt lat="55.8194885" lon="48.9218464"><time>2022-03-07T07:08:44.727</time></trkpt><trkpt lat="55.8194369" lon="48.9217628"><time>2022-03-07T07:08:46.747</time></trkpt><trkpt lat="55.8193790" lon="48.9216882"><time>2022-03-07T07:08:48.737</time></trkpt><trkpt lat="55.8193218" lon="48.9215958"><time>2022-03-07T07:08:50.717</time></trkpt><trkpt lat="55.8192628" lon="48.9215159"><time>2022-03-07T07:08:52.757</time></trkpt><trkpt lat="55.8192030" lon="48.9214321"><time>2022-03-07T07:08:54.727</time></trkpt><trkpt lat="55.8191465" lon="48.9213479"><time>2022-03-07T07:08:56.757</time></trkpt><trkpt lat="55.8190911" lon="48.9212586"><time>2022-03-07T07:08:58.710</time></trkpt><trkpt lat="55.8190390" lon="48.9211737"><time>2022-03-07T07:09:00.677</time></trkpt><trkpt lat="55.8189878" lon="48.9210961"><time>2022-03-07T07:09:02.680</time></trkpt><trkpt lat="55.8189331" lon="48.9210268"><time>2022-03-07T07:09:04.663</time></trkpt><trkpt lat="55.8188872" lon="48.9209556"><time>2022-03-07T07:09:06.663</time></trkpt><trkpt lat="55.8188422" lon="48.9208910"><time>2022-03-07T07:09:08.700</time></trkpt><trkpt lat="55.8187934" lon="48.9208176"><time>2022-03-07T07:09:10.713</time></trkpt><trkpt lat="55.8187437" lon="48.9207484"><time>2022-03-07T07:09:12.687</time></trkpt><trkpt lat="55.8186966" lon="48.9206681"><time>2022-03-07T07:09:14.743</time></trkpt><trkpt lat="55.8186501" lon="48.9205846"><time>2022-03-07T07:09:16.767</time></trkpt><trkpt lat="55.8185765" lon="48.9204400"><time>2022-03-07T07:09:18.563</time></trkpt><trkpt lat="55.8185657" lon="48.9202798"><time>2022-03-07T07:09:19.727</time></trkpt><trkpt lat="55.8185175" lon="48.9202439"><time>2022-03-07T07:09:20.707</time></trkpt><trkpt lat="55.8184700" lon="48.9202160"><time>2022-03-07T07:09:24.717</time></trkpt><trkpt lat="55.8184215" lon="48.9201289"><time>2022-03-07T07:09:26.703</time></trkpt><trkpt lat="55.8183812" lon="48.9200646"><time>2022-03-07T07:09:28.710</time></trkpt><trkpt lat="55.8183379" lon="48.9199944"><time>2022-03-07T07:09:30.717</time></trkpt><trkpt lat="55.8183003" lon="48.9199294"><time>2022-03-07T07:09:32.740</time></trkpt><trkpt lat="55.8182622" lon="48.9198544"><time>2022-03-07T07:09:34.673</time></trkpt><trkpt lat="55.8182173" lon="48.9197758"><time>2022-03-07T07:09:36.727</time></trkpt><trkpt lat="55.8181729" lon="48.9197078"><time>2022-03-07T07:09:38.720</time></trkpt><trkpt lat="55.8181339" lon="48.9196322"><time>2022-03-07T07:09:40.747</time></trkpt><trkpt lat="55.8180954" lon="48.9195670"><time>2022-03-07T07:09:42.727</time></trkpt><trkpt lat="55.8180575" lon="48.9195036"><time>2022-03-07T07:09:44.703</time></trkpt><trkpt lat="55.8180182" lon="48.9194405"><time>2022-03-07T07:09:46.720</time></trkpt><trkpt lat="55.8179815" lon="48.9192032"><time>2022-03-07T07:09:48.643</time></trkpt><trkpt lat="55.8179395" lon="48.9193248"><time>2022-03-07T07:09:49.693</time></trkpt><trkpt lat="55.8179381" lon="48.9192396"><time>2022-03-07T07:09:50.727</time></trkpt><trkpt lat="55.8178929" lon="48.9192452"><time>2022-03-07T07:09:52.727</time></trkpt><trkpt lat="55.8178585" lon="48.9191822"><time>2022-03-07T07:09:54.667</time></trkpt><trkpt lat="55.8178136" lon="48.9191098"><time>2022-03-07T07:09:56.720</time></trkpt><trkpt lat="55.8177668" lon="48.9190323"><time>2022-03-07T07:09:58.747</time></trkpt><trkpt lat="55.8177403" lon="48.9189424"><time>2022-03-07T07:10:00.717</time></trkpt><trkpt lat="55.8177215" lon="48.9188625"><time>2022-03-07T07:10:02.720</time></trkpt><trkpt lat="55.8177064" lon="48.9187874"><time>2022-03-07T07:10:04.720</time></trkpt><trkpt lat="55.8176767" lon="48.9187256"><time>2022-03-07T07:10:07.707</time></trkpt><trkpt lat="55.8176578" lon="48.9186522"><time>2022-03-07T07:10:10.733</time></trkpt><trkpt lat="55.8176612" lon="48.9185578"><time>2022-03-07T07:10:12.570</time></trkpt><trkpt lat="55.8175923" lon="48.9184796"><time>2022-03-07T07:10:14.717</time></trkpt><trkpt lat="55.8176204" lon="48.9183643"><time>2022-03-07T07:10:17.730</time></trkpt><trkpt lat="55.8176228" lon="48.9182562"><time>2022-03-07T07:10:19.673</time></trkpt><trkpt lat="55.8176340" lon="48.9181579"><time>2022-03-07T07:10:21.717</time></trkpt><trkpt lat="55.8176466" lon="48.9180505"><time>2022-03-07T07:10:24.700</time></trkpt><trkpt lat="55.8176466" lon="48.9180505"><time>2022-03-07T07:10:24.783</time></trkpt><trkpt lat="55.8176611" lon="48.9179533"><time>2022-03-07T07:10:27.747</time></trkpt><trkpt lat="55.8181359" lon="48.9193413"><time>2022-03-07T07:10:29.643</time></trkpt><trkpt lat="55.8176580" lon="48.9179267"><time>2022-03-07T07:10:30.763</time></trkpt><trkpt lat="55.8177520" lon="48.9179799"><time>2022-03-07T07:10:31.750</time></trkpt><trkpt lat="55.8177059" lon="48.9179695"><time>2022-03-07T07:10:33.750</time></trkpt><trkpt lat="55.8177688" lon="48.9179452"><time>2022-03-07T07:10:40.687</time></trkpt><trkpt lat="55.8178099" lon="48.9178994"><time>2022-03-07T07:10:42.763</time></trkpt><trkpt lat="55.8178476" lon="48.9178504"><time>2022-03-07T07:10:44.700</time></trkpt><trkpt lat="55.8178785" lon="48.9177814"><time>2022-03-07T07:10:50.743</time></trkpt><trkpt lat="55.8179087" lon="48.9177023"><time>2022-03-07T07:10:54.757</time></trkpt><trkpt lat="55.8179477" lon="48.9176217"><time>2022-03-07T07:10:57.703</time></trkpt><trkpt lat="55.8180007" lon="48.9176671"><time>2022-03-07T07:11:02.753</time></trkpt><trkpt lat="55.8180367" lon="48.9177182"><time>2022-03-07T07:11:04.773</time></trkpt><trkpt lat="55.8180842" lon="48.9177838"><time>2022-03-07T07:11:06.730</time></trkpt><trkpt lat="55.8181335" lon="48.9178215"><time>2022-03-07T07:11:08.737</time></trkpt><trkpt lat="55.8181816" lon="48.9178220"><time>2022-03-07T07:11:10.750</time></trkpt><trkpt lat="55.8182532" lon="48.9177926"><time>2022-03-07T07:11:12.720</time></trkpt><trkpt lat="55.8183149" lon="48.9177564"><time>2022-03-07T07:11:14.707</time></trkpt><trkpt lat="55.8183863" lon="48.9177116"><time>2022-03-07T07:11:16.730</time></trkpt><trkpt lat="55.8184574" lon="48.9176719"><time>2022-03-07T07:11:18.710</time></trkpt><trkpt lat="55.8185117" lon="48.9176117"><time>2022-03-07T07:11:20.717</time></trkpt><trkpt lat="55.8185649" lon="48.9175606"><time>2022-03-07T07:11:22.717</time></trkpt><trkpt lat="55.8186212" lon="48.9175295"><time>2022-03-07T07:11:25.727</time></trkpt><trkpt lat="55.8186825" lon="48.9175071"><time>2022-03-07T07:11:28.690</time></trkpt><trkpt lat="55.8187383" lon="48.9174809"><time>2022-03-07T07:11:31.743</time></trkpt><trkpt lat="55.8187831" lon="48.9175689"><time>2022-03-07T07:11:32.593</time></trkpt><trkpt lat="55.8188354" lon="48.9175654"><time>2022-03-07T07:11:33.630</time></trkpt><trkpt lat="55.8188563" lon="48.9174345"><time>2022-03-07T07:11:34.697</time></trkpt><trkpt lat="55.8189294" lon="48.9174495"><time>2022-03-07T07:11:35.760</time></trkpt><trkpt lat="55.8189930" lon="48.9174209"><time>2022-03-07T07:11:38.713</time></trkpt><trkpt lat="55.8190603" lon="48.9174078"><time>2022-03-07T07:11:41.733</time></trkpt><trkpt lat="55.8191135" lon="48.9173846"><time>2022-03-07T07:11:44.733</time></trkpt><trkpt lat="55.8191656" lon="48.9173752"><time>2022-03-07T07:11:46.677</time></trkpt><trkpt lat="55.8192315" lon="48.9173581"><time>2022-03-07T07:11:49.730</time></trkpt><trkpt lat="55.8192905" lon="48.9173406"><time>2022-03-07T07:11:52.707</time></trkpt><trkpt lat="55.8193501" lon="48.9173114"><time>2022-03-07T07:11:55.753</time></trkpt><trkpt lat="55.8194055" lon="48.9172886"><time>2022-03-07T07:11:58.730</time></trkpt><trkpt lat="55.8194728" lon="48.9172673"><time>2022-03-07T07:12:01.663</time></trkpt><trkpt lat="55.8195198" lon="48.9172518"><time>2022-03-07T07:12:03.737</time></trkpt><trkpt lat="55.8195697" lon="48.9172464"><time>2022-03-07T07:12:05.757</time></trkpt><trkpt lat="55.8196210" lon="48.9154246"><time>2022-03-07T07:12:38.783</time></trkpt><trkpt lat="55.8194679" lon="48.9159267"><time>2022-03-07T07:12:41.657</time></trkpt><trkpt lat="55.8195770" lon="48.9159403"><time>2022-03-07T07:12:43.407</time></trkpt><trkpt lat="55.8194409" lon="48.9158545"><time>2022-03-07T07:12:44.670</time></trkpt><trkpt lat="55.8194865" lon="48.9158481"><time>2022-03-07T07:12:45.670</time></trkpt><trkpt lat="55.8194930" lon="48.9157325"><time>2022-03-07T07:12:47.683</time></trkpt><trkpt lat="55.8194841" lon="48.9156302"><time>2022-03-07T07:12:49.673</time></trkpt><trkpt lat="55.8194832" lon="48.9155361"><time>2022-03-07T07:12:51.730</time></trkpt><trkpt lat="55.8195878" lon="48.9153794"><time>2022-03-07T07:12:53.490</time></trkpt><trkpt lat="55.8195308" lon="48.9153202"><time>2022-03-07T07:12:54.680</time></trkpt><trkpt lat="55.8196119" lon="48.9152830"><time>2022-03-07T07:12:55.730</time></trkpt><trkpt lat="55.8195994" lon="48.9151859"><time>2022-03-07T07:12:57.710</time></trkpt><trkpt lat="55.8196315" lon="48.9150972"><time>2022-03-07T07:12:59.783</time></trkpt><trkpt lat="55.8196315" lon="48.9150972"><time>2022-03-07T07:12:59.857</time></trkpt><trkpt lat="55.8196713" lon="48.9150222"><time>2022-03-07T07:13:02.703</time></trkpt><trkpt lat="55.8196505" lon="48.9149514"><time>2022-03-07T07:13:03.530</time></trkpt><trkpt lat="55.8197115" lon="48.9149615"><time>2022-03-07T07:13:04.597</time></trkpt><trkpt lat="55.8197617" lon="48.9149378"><time>2022-03-07T07:13:06.730</time></trkpt><trkpt lat="55.8197050" lon="48.9150032"><time>2022-03-07T07:13:07.740</time></trkpt><trkpt lat="55.8197313" lon="48.9149380"><time>2022-03-07T07:13:15.737</time></trkpt><trkpt lat="55.8197824" lon="48.9149916"><time>2022-03-07T07:13:20.737</time></trkpt><trkpt lat="55.8198253" lon="48.9150280"><time>2022-03-07T07:13:22.713</time></trkpt><trkpt lat="55.8198674" lon="48.9150762"><time>2022-03-07T07:13:24.697</time></trkpt><trkpt lat="55.8199123" lon="48.9151339"><time>2022-03-07T07:13:26.700</time></trkpt><trkpt lat="55.8199540" lon="48.9151928"><time>2022-03-07T07:13:28.697</time></trkpt><trkpt lat="55.8199938" lon="48.9152549"><time>2022-03-07T07:13:30.717</time></trkpt><trkpt lat="55.8200226" lon="48.9153389"><time>2022-03-07T07:13:32.727</time></trkpt><trkpt lat="55.8200513" lon="48.9154270"><time>2022-03-07T07:13:34.717</time></trkpt><trkpt lat="55.8200775" lon="48.9155186"><time>2022-03-07T07:13:36.713</time></trkpt><trkpt lat="55.8200965" lon="48.9155989"><time>2022-03-07T07:13:38.737</time></trkpt><trkpt lat="55.8201181" lon="48.9156837"><time>2022-03-07T07:13:40.740</time></trkpt><trkpt lat="55.8201356" lon="48.9157879"><time>2022-03-07T07:13:42.743</time></trkpt><trkpt lat="55.8201589" lon="48.9158874"><time>2022-03-07T07:13:44.703</time></trkpt><trkpt lat="55.8201896" lon="48.9159548"><time>2022-03-07T07:13:46.763</time></trkpt><trkpt lat="55.8202145" lon="48.9160283"><time>2022-03-07T07:13:51.717</time></trkpt><trkpt lat="55.8202244" lon="48.9161098"><time>2022-03-07T07:13:53.717</time></trkpt><trkpt lat="55.8202351" lon="48.9162159"><time>2022-03-07T07:13:55.747</time></trkpt><trkpt lat="55.8202448" lon="48.9163225"><time>2022-03-07T07:13:57.687</time></trkpt><trkpt lat="55.8202511" lon="48.9164218"><time>2022-03-07T07:13:59.740</time></trkpt><trkpt lat="55.8202589" lon="48.9165181"><time>2022-03-07T07:14:01.690</time></trkpt><trkpt lat="55.8202764" lon="48.9166203"><time>2022-03-07T07:14:03.743</time></trkpt><trkpt lat="55.8202941" lon="48.9167004"><time>2022-03-07T07:14:05.723</time></trkpt><trkpt lat="55.8203199" lon="48.9167875"><time>2022-03-07T07:14:07.747</time></trkpt><trkpt lat="55.8203340" lon="48.9168781"><time>2022-03-07T07:14:09.730</time></trkpt><trkpt lat="55.8203469" lon="48.9169743"><time>2022-03-07T07:14:11.703</time></trkpt><trkpt lat="55.8203571" lon="48.9170691"><time>2022-03-07T07:14:13.740</time></trkpt><trkpt lat="55.8203662" lon="48.9171670"><time>2022-03-07T07:14:15.703</time></trkpt><trkpt lat="55.8203772" lon="48.9172762"><time>2022-03-07T07:14:17.743</time></trkpt><trkpt lat="55.8203893" lon="48.9173798"><time>2022-03-07T07:14:19.683</time></trkpt><trkpt lat="55.8204027" lon="48.9174756"><time>2022-03-07T07:14:21.707</time></trkpt><trkpt lat="55.8204131" lon="48.9175556"><time>2022-03-07T07:14:23.737</time></trkpt><trkpt lat="55.8204512" lon="48.9176131"><time>2022-03-07T07:14:26.733</time></trkpt><trkpt lat="55.8204936" lon="48.9176443"><time>2022-03-07T07:14:28.710</time></trkpt><trkpt lat="55.8205412" lon="48.9176632"><time>2022-03-07T07:14:30.767</time></trkpt><trkpt lat="55.8205960" lon="48.9176779"><time>2022-03-07T07:14:33.713</time></trkpt><trkpt lat="55.8206512" lon="48.9177273"><time>2022-03-07T07:14:37.730</time></trkpt><trkpt lat="55.8206863" lon="48.9177828"><time>2022-03-07T07:14:41.757</time></trkpt><trkpt lat="55.8207163" lon="48.9178446"><time>2022-03-07T07:14:45.740</time></trkpt><trkpt lat="55.8245031" lon="48.9207360"><time>2022-03-07T07:19:13.700</time></trkpt><trkpt lat="55.8245906" lon="48.9207899"><time>2022-03-07T07:19:16.673</time></trkpt><trkpt lat="55.8246482" lon="48.9208708"><time>2022-03-07T07:19:20.650</time></trkpt><trkpt lat="55.8246818" lon="48.9209276"><time>2022-03-07T07:19:22.687</time></trkpt><trkpt lat="55.8247138" lon="48.9210805"><time>2022-03-07T07:19:23.380</time></trkpt><trkpt lat="55.8246902" lon="48.9210028"><time>2022-03-07T07:19:24.407</time></trkpt><trkpt lat="55.8247526" lon="48.9210411"><time>2022-03-07T07:19:25.667</time></trkpt><trkpt lat="55.8248082" lon="48.9211188"><time>2022-03-07T07:19:28.707</time></trkpt><trkpt lat="55.8248447" lon="48.9212196"><time>2022-03-07T07:19:30.697</time></trkpt><trkpt lat="55.8248802" lon="48.9212898"><time>2022-03-07T07:19:32.690</time></trkpt><trkpt lat="55.8248802" lon="48.9212898"><time>2022-03-07T07:19:32.760</time></trkpt><trkpt lat="55.8249194" lon="48.9213532"><time>2022-03-07T07:19:34.700</time></trkpt><trkpt lat="55.8249129" lon="48.9212461"><time>2022-03-07T07:19:35.427</time></trkpt><trkpt lat="55.8249428" lon="48.9213911"><time>2022-03-07T07:19:36.417</time></trkpt><trkpt lat="55.8250003" lon="48.9214495"><time>2022-03-07T07:19:40.663</time></trkpt><trkpt lat="55.8250494" lon="48.9215141"><time>2022-03-07T07:19:44.687</time></trkpt><trkpt lat="55.8250966" lon="48.9215535"><time>2022-03-07T07:19:47.683</time></trkpt><trkpt lat="55.8251494" lon="48.9216410"><time>2022-03-07T07:21:47.693</time></trkpt><trkpt lat="55.8251974" lon="48.9217166"><time>2022-03-07T07:21:49.690</time></trkpt><trkpt lat="55.8252406" lon="48.9217697"><time>2022-03-07T07:21:51.697</time></trkpt><trkpt lat="55.8252910" lon="48.9217278"><time>2022-03-07T07:21:55.693</time></trkpt><trkpt lat="55.8253401" lon="48.9216855"><time>2022-03-07T07:21:58.693</time></trkpt><trkpt lat="55.8253868" lon="48.9216586"><time>2022-03-07T07:22:01.663</time></trkpt><trkpt lat="55.8254331" lon="48.9216422"><time>2022-03-07T07:22:04.677</time></trkpt><trkpt lat="55.8254476" lon="48.9215665"><time>2022-03-07T07:22:10.710</time></trkpt><trkpt lat="55.8254461" lon="48.9214784"><time>2022-03-07T07:22:14.723</time></trkpt><trkpt lat="55.8255735" lon="48.9215451"><time>2022-03-07T07:22:15.463</time></trkpt><trkpt lat="55.8254579" lon="48.9214636"><time>2022-03-07T07:22:16.470</time></trkpt><trkpt lat="55.8254099" lon="48.9213878"><time>2022-03-07T07:22:18.683</time></trkpt><trkpt lat="55.8254305" lon="48.9212987"><time>2022-03-07T07:22:22.700</time></trkpt><trkpt lat="55.8254264" lon="48.9212100"><time>2022-03-07T07:22:26.663</time></trkpt><trkpt lat="55.8254281" lon="48.9211247"><time>2022-03-07T07:22:29.667</time></trkpt><trkpt lat="55.8254270" lon="48.9210177"><time>2022-03-07T07:22:33.673</time></trkpt><trkpt lat="55.8254500" lon="48.9209386"><time>2022-03-07T07:22:36.687</time></trkpt><trkpt lat="55.8254610" lon="48.9208458"><time>2022-03-07T07:22:39.683</time></trkpt><trkpt lat="55.8254791" lon="48.9207614"><time>2022-03-07T07:22:42.690</time></trkpt><trkpt lat="55.8254819" lon="48.9206684"><time>2022-03-07T07:22:45.693</time></trkpt><trkpt lat="55.8254720" lon="48.9205824"><time>2022-03-07T07:22:48.733</time></trkpt><trkpt lat="55.8254762" lon="48.9205018"><time>2022-03-07T07:22:52.673</time></trkpt><trkpt lat="55.8254893" lon="48.9204189"><time>2022-03-07T07:22:56.680</time></trkpt><trkpt lat="55.8255113" lon="48.9203359"><time>2022-03-07T07:23:00.697</time></trkpt><trkpt lat="55.8255582" lon="48.9202952"><time>2022-03-07T07:23:04.677</time></trkpt><trkpt lat="55.8256008" lon="48.9202201"><time>2022-03-07T07:23:07.667</time></trkpt><trkpt lat="55.8256436" lon="48.9201309"><time>2022-03-07T07:23:10.673</time></trkpt><trkpt lat="55.8256800" lon="48.9200362"><time>2022-03-07T07:23:13.680</time></trkpt><trkpt lat="55.8257134" lon="48.9199688"><time>2022-03-07T07:23:16.683</time></trkpt><trkpt lat="55.8257267" lon="48.9198901"><time>2022-03-07T07:23:19.710</time></trkpt><trkpt lat="55.8250642" lon="48.9206668"><time>2022-03-07T07:23:21.477</time></trkpt><trkpt lat="55.8251026" lon="48.9205221"><time>2022-03-07T07:23:23.263</time></trkpt><trkpt lat="55.8257749" lon="48.9197743"><time>2022-03-07T07:23:23.690</time></trkpt><trkpt lat="55.8258494" lon="48.9197031"><time>2022-03-07T07:23:24.447</time></trkpt><trkpt lat="55.8257631" lon="48.9196671"><time>2022-03-07T07:23:25.457</time></trkpt><trkpt lat="55.8258121" lon="48.9196556"><time>2022-03-07T07:23:27.673</time></trkpt><trkpt lat="55.8258047" lon="48.9195647"><time>2022-03-07T07:23:29.663</time></trkpt><trkpt lat="55.8258145" lon="48.9194826"><time>2022-03-07T07:23:31.697</time></trkpt><trkpt lat="55.8258118" lon="48.9193959"><time>2022-03-07T07:23:33.680</time></trkpt><trkpt lat="55.8258181" lon="48.9192943"><time>2022-03-07T07:23:36.687</time></trkpt><trkpt lat="55.8258259" lon="48.9191954"><time>2022-03-07T07:23:39.710</time></trkpt><trkpt lat="55.8258200" lon="48.9190914"><time>2022-03-07T07:23:42.690</time></trkpt><trkpt lat="55.8257990" lon="48.9189909"><time>2022-03-07T07:23:45.693</time></trkpt><trkpt lat="55.8256132" lon="48.9202926"><time>2022-03-07T07:23:47.487</time></trkpt><trkpt lat="55.8257024" lon="48.9195825"><time>2022-03-07T07:23:49.263</time></trkpt><trkpt lat="55.8257440" lon="48.9193402"><time>2022-03-07T07:23:51.003</time></trkpt><trkpt lat="55.8257768" lon="48.9188513"><time>2022-03-07T07:23:51.693</time></trkpt><trkpt lat="55.8256950" lon="48.9193177"><time>2022-03-07T07:23:52.473</time></trkpt><trkpt lat="55.8257230" lon="48.9192928"><time>2022-03-07T07:23:54.263</time></trkpt><trkpt lat="55.8257646" lon="48.9187467"><time>2022-03-07T07:23:54.717</time></trkpt><trkpt lat="55.8257695" lon="48.9192581"><time>2022-03-07T07:23:55.563</time></trkpt><trkpt lat="55.8257716" lon="48.9186881"><time>2022-03-07T07:23:57.387</time></trkpt><trkpt lat="55.8258885" lon="48.9187469"><time>2022-03-07T07:23:59.190</time></trkpt><trkpt lat="55.8258317" lon="48.9186803"><time>2022-03-07T07:23:59.677</time></trkpt><trkpt lat="55.8258346" lon="48.9185899"><time>2022-03-07T07:24:02.677</time></trkpt><trkpt lat="55.8258845" lon="48.9185304"><time>2022-03-07T07:24:05.677</time></trkpt><trkpt lat="55.8259103" lon="48.9184466"><time>2022-03-07T07:24:09.677</time></trkpt><trkpt lat="55.8259418" lon="48.9183847"><time>2022-03-07T07:24:13.663</time></trkpt><trkpt lat="55.8259591" lon="48.9183039"><time>2022-03-07T07:24:18.667</time></trkpt><trkpt lat="55.8259432" lon="48.9182223"><time>2022-03-07T07:24:23.697</time></trkpt><trkpt lat="55.8259039" lon="48.9181672"><time>2022-03-07T07:24:28.707</time></trkpt><trkpt lat="55.8258648" lon="48.9181273"><time>2022-03-07T07:24:32.690</time></trkpt><trkpt lat="55.8258209" lon="48.9180982"><time>2022-03-07T07:24:35.713</time></trkpt><trkpt lat="55.8257515" lon="48.9185482"><time>2022-03-07T07:24:37.507</time></trkpt><trkpt lat="55.8258062" lon="48.9184188"><time>2022-03-07T07:24:38.277</time></trkpt><trkpt lat="55.8257482" lon="48.9179391"><time>2022-03-07T07:24:39.310</time></trkpt><trkpt lat="55.8257972" lon="48.9184760"><time>2022-03-07T07:24:40.047</time></trkpt><trkpt lat="55.8257495" lon="48.9184675"><time>2022-03-07T07:24:41.787</time></trkpt><trkpt lat="55.8257863" lon="48.9180149"><time>2022-03-07T07:24:42.720</time></trkpt><trkpt lat="55.8257586" lon="48.9185272"><time>2022-03-07T07:24:43.577</time></trkpt><trkpt lat="55.8257528" lon="48.9184740"><time>2022-03-07T07:24:45.353</time></trkpt><trkpt lat="55.8258357" lon="48.9180986"><time>2022-03-07T07:24:46.740</time></trkpt><trkpt lat="55.8257630" lon="48.9179744"><time>2022-03-07T07:24:47.757</time></trkpt><trkpt lat="55.8258339" lon="48.9183314"><time>2022-03-07T07:24:48.563</time></trkpt><trkpt lat="55.8257809" lon="48.9183669"><time>2022-03-07T07:24:50.343</time></trkpt><trkpt lat="55.8258307" lon="48.9179385"><time>2022-03-07T07:24:51.700</time></trkpt><trkpt lat="55.8257840" lon="48.9183987"><time>2022-03-07T07:24:53.530</time></trkpt><trkpt lat="55.8256860" lon="48.9185198"><time>2022-03-07T07:24:54.327</time></trkpt><trkpt lat="55.8258100" lon="48.9183540"><time>2022-03-07T07:24:56.127</time></trkpt><trkpt lat="55.8258468" lon="48.9183646"><time>2022-03-07T07:24:56.883</time></trkpt><trkpt lat="55.8258798" lon="48.9178824"><time>2022-03-07T07:24:57.897</time></trkpt><trkpt lat="55.8258167" lon="48.9183433"><time>2022-03-07T07:24:59.693</time></trkpt><trkpt lat="55.8259264" lon="48.9181005"><time>2022-03-07T07:25:00.420</time></trkpt><trkpt lat="55.8259328" lon="48.9179222"><time>2022-03-07T07:25:03.670</time></trkpt><trkpt lat="55.8259751" lon="48.9179533"><time>2022-03-07T07:25:05.683</time></trkpt><trkpt lat="55.8260279" lon="48.9179906"><time>2022-03-07T07:25:09.760</time></trkpt><trkpt lat="55.8260728" lon="48.9180164"><time>2022-03-07T07:25:12.730</time></trkpt><trkpt lat="55.8261114" lon="48.9181068"><time>2022-03-07T07:25:16.707</time></trkpt><trkpt lat="55.8261291" lon="48.9182205"><time>2022-03-07T07:25:19.733</time></trkpt><trkpt lat="55.8261246" lon="48.9183403"><time>2022-03-07T07:25:22.723</time></trkpt><trkpt lat="55.8261246" lon="48.9183403"><time>2022-03-07T07:25:22.797</time></trkpt><trkpt lat="55.8261470" lon="48.9184222"><time>2022-03-07T07:25:24.737</time></trkpt><trkpt lat="55.8262072" lon="48.9184853"><time>2022-03-07T07:25:26.650</time></trkpt><trkpt lat="55.8262706" lon="48.9184666"><time>2022-03-07T07:25:27.730</time></trkpt><trkpt lat="55.8262537" lon="48.9185469"><time>2022-03-07T07:25:32.717</time></trkpt><trkpt lat="55.8262992" lon="48.9185579"><time>2022-03-07T07:25:36.707</time></trkpt><trkpt lat="55.8263539" lon="48.9185801"><time>2022-03-07T07:25:40.710</time></trkpt><trkpt lat="55.8264033" lon="48.9186006"><time>2022-03-07T07:25:43.680</time></trkpt><trkpt lat="55.8264543" lon="48.9186367"><time>2022-03-07T07:25:46.657</time></trkpt><trkpt lat="55.8265126" lon="48.9186593"><time>2022-03-07T07:25:49.653</time></trkpt><trkpt lat="55.8265543" lon="48.9186144"><time>2022-03-07T07:25:52.653</time></trkpt><trkpt lat="55.8265861" lon="48.9185542"><time>2022-03-07T07:25:55.707</time></trkpt><trkpt lat="55.8266400" lon="48.9185832"><time>2022-03-07T07:26:03.790</time></trkpt><trkpt lat="55.8266955" lon="48.9186103"><time>2022-03-07T07:26:06.703</time></trkpt><trkpt lat="55.8267501" lon="48.9186421"><time>2022-03-07T07:26:11.717</time></trkpt><trkpt lat="55.8268021" lon="48.9186772"><time>2022-03-07T07:26:15.640</time></trkpt><trkpt lat="55.8268322" lon="48.9187393"><time>2022-03-07T07:26:21.690</time></trkpt><trkpt lat="55.8268625" lon="48.9188051"><time>2022-03-07T07:26:28.727</time></trkpt><trkpt lat="55.8268889" lon="48.9188728"><time>2022-03-07T07:26:32.717</time></trkpt><trkpt lat="55.8269201" lon="48.9189511"><time>2022-03-07T07:26:35.743</time></trkpt><trkpt lat="55.8269456" lon="48.9190293"><time>2022-03-07T07:26:38.743</time></trkpt><trkpt lat="55.8269608" lon="48.9191190"><time>2022-03-07T07:26:41.757</time></trkpt><trkpt lat="55.8269760" lon="48.9191956"><time>2022-03-07T07:26:43.717</time></trkpt><trkpt lat="55.8269998" lon="48.9192747"><time>2022-03-07T07:26:46.697</time></trkpt><trkpt lat="55.8270286" lon="48.9193586"><time>2022-03-07T07:26:49.673</time></trkpt><trkpt lat="55.8270517" lon="48.9194523"><time>2022-03-07T07:26:52.673</time></trkpt><trkpt lat="55.8270630" lon="48.9195425"><time>2022-03-07T07:26:55.690</time></trkpt><trkpt lat="55.8270893" lon="48.9196372"><time>2022-03-07T07:26:58.720</time></trkpt><trkpt lat="55.8271109" lon="48.9197419"><time>2022-03-07T07:27:01.683</time></trkpt><trkpt lat="55.8271311" lon="48.9198492"><time>2022-03-07T07:27:04.697</time></trkpt><trkpt lat="55.8271517" lon="48.9199556"><time>2022-03-07T07:27:07.690</time></trkpt><trkpt lat="55.8271681" lon="48.9200336"><time>2022-03-07T07:27:10.690</time></trkpt><trkpt lat="55.8272035" lon="48.9200833"><time>2022-03-07T07:27:18.767</time></trkpt><trkpt lat="55.8272600" lon="48.9200573"><time>2022-03-07T07:27:22.700</time></trkpt><trkpt lat="55.8273159" lon="48.9200245"><time>2022-03-07T07:27:26.747</time></trkpt><trkpt lat="55.8273466" lon="48.9199403"><time>2022-03-07T07:27:29.720</time></trkpt><trkpt lat="55.8273636" lon="48.9198519"><time>2022-03-07T07:27:31.767</time></trkpt><trkpt lat="55.8273754" lon="48.9197454"><time>2022-03-07T07:27:33.753</time></trkpt><trkpt lat="55.8273917" lon="48.9196223"><time>2022-03-07T07:27:35.720</time></trkpt><trkpt lat="55.8274103" lon="48.9195066"><time>2022-03-07T07:27:37.723</time></trkpt><trkpt lat="55.8274287" lon="48.9194101"><time>2022-03-07T07:27:39.733</time></trkpt><trkpt lat="55.8274502" lon="48.9193056"><time>2022-03-07T07:27:41.747</time></trkpt><trkpt lat="55.8274649" lon="48.9192143"><time>2022-03-07T07:27:43.747</time></trkpt><trkpt lat="55.8274699" lon="48.9191117"><time>2022-03-07T07:27:46.747</time></trkpt><trkpt lat="55.8274841" lon="48.9190142"><time>2022-03-07T07:27:51.757</time></trkpt><trkpt lat="55.8275013" lon="48.9189390"><time>2022-03-07T07:27:55.733</time></trkpt><trkpt lat="55.8275034" lon="48.9188577"><time>2022-03-07T07:27:59.733</time></trkpt><trkpt lat="55.8275178" lon="48.9187677"><time>2022-03-07T07:28:03.703</time></trkpt><trkpt lat="55.8275408" lon="48.9186944"><time>2022-03-07T07:28:09.750</time></trkpt><trkpt lat="55.8275637" lon="48.9186217"><time>2022-03-07T07:28:15.757</time></trkpt><trkpt lat="55.8275525" lon="48.9185194"><time>2022-03-07T07:28:48.717</time></trkpt><trkpt lat="55.8275194" lon="48.9184209"><time>2022-03-07T07:28:51.740</time></trkpt><trkpt lat="55.8274876" lon="48.9183524"><time>2022-03-07T07:28:53.697</time></trkpt><trkpt lat="55.8274555" lon="48.9182843"><time>2022-03-07T07:28:55.727</time></trkpt><trkpt lat="55.8274212" lon="48.9181998"><time>2022-03-07T07:28:57.717</time></trkpt><trkpt lat="55.8273796" lon="48.9180893"><time>2022-03-07T07:28:59.773</time></trkpt><trkpt lat="55.8273438" lon="48.9181117"><time>2022-03-07T07:29:01.697</time></trkpt><trkpt lat="55.8271637" lon="48.9176761"><time>2022-03-07T07:29:03.730</time></trkpt><trkpt lat="55.8271611" lon="48.9177609"><time>2022-03-07T07:29:04.723</time></trkpt><trkpt lat="55.8271253" lon="48.9176760"><time>2022-03-07T07:29:08.693</time></trkpt><trkpt lat="55.8270864" lon="48.9176185"><time>2022-03-07T07:29:10.707</time></trkpt><trkpt lat="55.8270414" lon="48.9175589"><time>2022-03-07T07:29:13.630</time></trkpt><trkpt lat="55.8278629" lon="48.9167439"><time>2022-03-07T07:32:52.647</time></trkpt><trkpt lat="55.8278210" lon="48.9168373"><time>2022-03-07T07:32:53.663</time></trkpt><trkpt lat="55.8278076" lon="48.9167489"><time>2022-03-07T07:32:54.633</time></trkpt><trkpt lat="55.8277952" lon="48.9166577"><time>2022-03-07T07:32:56.657</time></trkpt><trkpt lat="55.8278346" lon="48.9166033"><time>2022-03-07T07:32:59.690</time></trkpt><trkpt lat="55.8278804" lon="48.9166016"><time>2022-03-07T07:33:01.697</time></trkpt><trkpt lat="55.8279417" lon="48.9165916"><time>2022-03-07T07:33:03.687</time></trkpt><trkpt lat="55.8279787" lon="48.9165054"><time>2022-03-07T07:33:09.697</time></trkpt><trkpt lat="55.8279989" lon="48.9164149"><time>2022-03-07T07:33:12.673</time></trkpt><trkpt lat="55.8280286" lon="48.9163165"><time>2022-03-07T07:33:17.700</time></trkpt><trkpt lat="55.8280559" lon="48.9162203"><time>2022-03-07T07:33:19.687</time></trkpt><trkpt lat="55.8280878" lon="48.9160744"><time>2022-03-07T07:33:21.707</time></trkpt><trkpt lat="55.8281145" lon="48.9159752"><time>2022-03-07T07:33:23.423</time></trkpt><trkpt lat="55.8281825" lon="48.9158314"><time>2022-03-07T07:33:24.687</time></trkpt><trkpt lat="55.8282022" lon="48.9157269"><time>2022-03-07T07:33:28.667</time></trkpt><trkpt lat="55.8281746" lon="48.9156488"><time>2022-03-07T07:33:31.703</time></trkpt><trkpt lat="55.8281021" lon="48.9156182"><time>2022-03-07T07:33:33.680</time></trkpt><trkpt lat="55.8280382" lon="48.9155843"><time>2022-03-07T07:33:35.667</time></trkpt><trkpt lat="55.8279862" lon="48.9155704"><time>2022-03-07T07:33:37.707</time></trkpt><trkpt lat="55.8279420" lon="48.9155412"><time>2022-03-07T07:33:39.710</time></trkpt><trkpt lat="55.8279078" lon="48.9154779"><time>2022-03-07T07:33:41.693</time></trkpt><trkpt lat="55.8278735" lon="48.9154010"><time>2022-03-07T07:33:43.743</time></trkpt><trkpt lat="55.8278283" lon="48.9152564"><time>2022-03-07T07:33:45.590</time></trkpt><trkpt lat="55.8278384" lon="48.9151054"><time>2022-03-07T07:33:46.680</time></trkpt><trkpt lat="55.8277728" lon="48.9150561"><time>2022-03-07T07:33:47.697</time></trkpt><trkpt lat="55.8277762" lon="48.9152186"><time>2022-03-07T07:33:48.707</time></trkpt><trkpt lat="55.8277344" lon="48.9151819"><time>2022-03-07T07:33:50.670</time></trkpt><trkpt lat="55.8276997" lon="48.9151047"><time>2022-03-07T07:33:52.670</time></trkpt><trkpt lat="55.8276586" lon="48.9150126"><time>2022-03-07T07:33:56.703</time></trkpt><trkpt lat="55.8276586" lon="48.9150126"><time>2022-03-07T07:33:56.763</time></trkpt><trkpt lat="55.8277026" lon="48.9150985"><time>2022-03-07T07:34:05.700</time></trkpt><trkpt lat="55.8277930" lon="48.9152041"><time>2022-03-07T07:34:07.427</time></trkpt><trkpt lat="55.8278361" lon="48.9151803"><time>2022-03-07T07:34:08.673</time></trkpt><trkpt lat="55.8277977" lon="48.9152402"><time>2022-03-07T07:34:10.693</time></trkpt><trkpt lat="55.8278425" lon="48.9153310"><time>2022-03-07T07:34:12.703</time></trkpt><trkpt lat="55.8278887" lon="48.9154471"><time>2022-03-07T07:34:14.727</time></trkpt><trkpt lat="55.8279214" lon="48.9155521"><time>2022-03-07T07:34:16.727</time></trkpt><trkpt lat="55.8279810" lon="48.9156133"><time>2022-03-07T07:34:19.730</time></trkpt><trkpt lat="55.8280273" lon="48.9156481"><time>2022-03-07T07:34:21.753</time></trkpt><trkpt lat="55.8280672" lon="48.9156846"><time>2022-03-07T07:34:23.710</time></trkpt><trkpt lat="55.8281154" lon="48.9156960"><time>2022-03-07T07:34:25.713</time></trkpt><trkpt lat="55.8281547" lon="48.9156450"><time>2022-03-07T07:34:32.753</time></trkpt><trkpt lat="55.8281681" lon="48.9155333"><time>2022-03-07T07:34:35.717</time></trkpt><trkpt lat="55.8281780" lon="48.9154064"><time>2022-03-07T07:34:38.707</time></trkpt><trkpt lat="55.8281831" lon="48.9153063"><time>2022-03-07T07:34:40.783</time></trkpt><trkpt lat="55.8281612" lon="48.9152415"><time>2022-03-07T07:34:41.633</time></trkpt><trkpt lat="55.8283590" lon="48.9151235"><time>2022-03-07T07:34:43.490</time></trkpt><trkpt lat="55.8280342" lon="48.9149672"><time>2022-03-07T07:34:45.413</time></trkpt><trkpt lat="55.8282581" lon="48.9148491"><time>2022-03-07T07:34:47.290</time></trkpt><trkpt lat="55.8282360" lon="48.9149442"><time>2022-03-07T07:34:48.110</time></trkpt><trkpt lat="55.8284146" lon="48.9147323"><time>2022-03-07T07:34:49.177</time></trkpt><trkpt lat="55.8283729" lon="48.9146524"><time>2022-03-07T07:34:50.663</time></trkpt><trkpt lat="55.8283917" lon="48.9145660"><time>2022-03-07T07:34:52.667</time></trkpt><trkpt lat="55.8283977" lon="48.9144653"><time>2022-03-07T07:34:54.650</time></trkpt><trkpt lat="55.8284083" lon="48.9143810"><time>2022-03-07T07:34:56.673</time></trkpt><trkpt lat="55.8284194" lon="48.9142847"><time>2022-03-07T07:35:01.740</time></trkpt><trkpt lat="55.8284304" lon="48.9141966"><time>2022-03-07T07:35:05.687</time></trkpt><trkpt lat="55.8284431" lon="48.9140695"><time>2022-03-07T07:35:08.707</time></trkpt><trkpt lat="55.8284627" lon="48.9139736"><time>2022-03-07T07:35:10.697</time></trkpt><trkpt lat="55.8284746" lon="48.9138872"><time>2022-03-07T07:35:12.700</time></trkpt><trkpt lat="55.8284909" lon="48.9137755"><time>2022-03-07T07:35:15.720</time></trkpt><trkpt lat="55.8285090" lon="48.9136422"><time>2022-03-07T07:35:18.713</time></trkpt><trkpt lat="55.8285354" lon="48.9135186"><time>2022-03-07T07:35:20.687</time></trkpt><trkpt lat="55.8285595" lon="48.9134186"><time>2022-03-07T07:35:22.697</time></trkpt><trkpt lat="55.8285706" lon="48.9133257"><time>2022-03-07T07:35:24.677</time></trkpt><trkpt lat="55.8285769" lon="48.9132404"><time>2022-03-07T07:35:29.703</time></trkpt><trkpt lat="55.8285955" lon="48.9131430"><time>2022-03-07T07:35:40.700</time></trkpt><trkpt lat="55.8286036" lon="48.9130519"><time>2022-03-07T07:35:47.693</time></trkpt><trkpt lat="55.8286201" lon="48.9129511"><time>2022-03-07T07:35:50.697</time></trkpt><trkpt lat="55.8286382" lon="48.9128395"><time>2022-03-07T07:35:53.713</time></trkpt><trkpt lat="55.8286579" lon="48.9127281"><time>2022-03-07T07:35:55.700</time></trkpt><trkpt lat="55.8286786" lon="48.9126077"><time>2022-03-07T07:35:57.720</time></trkpt><trkpt lat="55.8286991" lon="48.9124934"><time>2022-03-07T07:35:59.737</time></trkpt><trkpt lat="55.8287163" lon="48.9123842"><time>2022-03-07T07:36:01.707</time></trkpt><trkpt lat="55.8287244" lon="48.9122703"><time>2022-03-07T07:36:03.717</time></trkpt><trkpt lat="55.8287415" lon="48.9121573"><time>2022-03-07T07:36:05.703</time></trkpt><trkpt lat="55.8287563" lon="48.9120564"><time>2022-03-07T07:36:07.707</time></trkpt><trkpt lat="55.8287688" lon="48.9119617"><time>2022-03-07T07:36:09.663</time></trkpt><trkpt lat="55.8287807" lon="48.9118682"><time>2022-03-07T07:36:11.697</time></trkpt><trkpt lat="55.8287934" lon="48.9117845"><time>2022-03-07T07:36:13.703</time></trkpt><trkpt lat="55.8288121" lon="48.9116831"><time>2022-03-07T07:36:15.733</time></trkpt><trkpt lat="55.8290147" lon="48.9114560"><time>2022-03-07T07:36:17.463</time></trkpt><trkpt lat="55.8289717" lon="48.9113301"><time>2022-03-07T07:36:18.693</time></trkpt><trkpt lat="55.8290160" lon="48.9113875"><time>2022-03-07T07:36:19.677</time></trkpt><trkpt lat="55.8289900" lon="48.9113020"><time>2022-03-07T07:36:21.697</time></trkpt><trkpt lat="55.8289683" lon="48.9112078"><time>2022-03-07T07:36:23.667</time></trkpt><trkpt lat="55.8289719" lon="48.9111112"><time>2022-03-07T07:36:25.713</time></trkpt><trkpt lat="55.8290169" lon="48.9111099"><time>2022-03-07T07:36:30.703</time></trkpt><trkpt lat="55.8290594" lon="48.9111876"><time>2022-03-07T07:36:33.690</time></trkpt><trkpt lat="55.8290983" lon="48.9112732"><time>2022-03-07T07:36:35.687</time></trkpt><trkpt lat="55.8291391" lon="48.9113756"><time>2022-03-07T07:36:37.733</time></trkpt><trkpt lat="55.8291978" lon="48.9115660"><time>2022-03-07T07:36:39.483</time></trkpt><trkpt lat="55.8292730" lon="48.9117015"><time>2022-03-07T07:36:42.693</time></trkpt><trkpt lat="55.8292927" lon="48.9118063"><time>2022-03-07T07:36:44.677</time></trkpt><trkpt lat="55.8293355" lon="48.9119052"><time>2022-03-07T07:36:46.680</time></trkpt><trkpt lat="55.8293674" lon="48.9119807"><time>2022-03-07T07:36:48.703</time></trkpt><trkpt lat="55.8294221" lon="48.9120551"><time>2022-03-07T07:36:50.700</time></trkpt><trkpt lat="55.8294679" lon="48.9121038"><time>2022-03-07T07:36:53.703</time></trkpt><trkpt lat="55.8295155" lon="48.9121152"><time>2022-03-07T07:36:57.690</time></trkpt><trkpt lat="55.8295681" lon="48.9121277"><time>2022-03-07T07:37:00.680</time></trkpt><trkpt lat="55.8296223" lon="48.9121528"><time>2022-03-07T07:37:02.697</time></trkpt><trkpt lat="55.8296794" lon="48.9122015"><time>2022-03-07T07:37:04.680</time></trkpt><trkpt lat="55.8297291" lon="48.9122665"><time>2022-03-07T07:37:06.700</time></trkpt><trkpt lat="55.8297831" lon="48.9123809"><time>2022-03-07T07:37:08.687</time></trkpt><trkpt lat="55.8298129" lon="48.9124470"><time>2022-03-07T07:37:09.710</time></trkpt><trkpt lat="55.8298435" lon="48.9125077"><time>2022-03-07T07:37:10.700</time></trkpt><trkpt lat="55.8299084" lon="48.9126222"><time>2022-03-07T07:37:12.710</time></trkpt><trkpt lat="55.8299688" lon="48.9127446"><time>2022-03-07T07:37:14.753</time></trkpt><trkpt lat="55.8300485" lon="48.9129280"><time>2022-03-07T07:37:16.607</time></trkpt><trkpt lat="55.8301011" lon="48.9129046"><time>2022-03-07T07:37:17.717</time></trkpt><trkpt lat="55.8301612" lon="48.9128837"><time>2022-03-07T07:37:18.697</time></trkpt><trkpt lat="55.8301731" lon="48.9130057"><time>2022-03-07T07:37:20.673</time></trkpt><trkpt lat="55.8301923" lon="48.9131375"><time>2022-03-07T07:37:22.673</time></trkpt><trkpt lat="55.8302285" lon="48.9132494"><time>2022-03-07T07:37:24.703</time></trkpt><trkpt lat="55.8302638" lon="48.9133634"><time>2022-03-07T07:37:26.690</time></trkpt><trkpt lat="55.8302816" lon="48.9134601"><time>2022-03-07T07:37:28.693</time></trkpt><trkpt lat="55.8302280" lon="48.9134828"><time>2022-03-07T07:37:32.680</time></trkpt><trkpt lat="55.8301625" lon="48.9134913"><time>2022-03-07T07:37:34.693</time></trkpt><trkpt lat="55.8301152" lon="48.9135221"><time>2022-03-07T07:37:36.680</time></trkpt><trkpt lat="55.8300869" lon="48.9135968"><time>2022-03-07T07:37:41.713</time></trkpt><trkpt lat="55.8299770" lon="48.9137491"><time>2022-03-07T07:37:42.470</time></trkpt><trkpt lat="55.8300274" lon="48.9136068"><time>2022-03-07T07:37:44.677</time></trkpt><trkpt lat="55.8300320" lon="48.9137155"><time>2022-03-07T07:37:45.683</time></trkpt><trkpt lat="55.8299763" lon="48.9137730"><time>2022-03-07T07:37:46.703</time></trkpt><trkpt lat="55.8299465" lon="48.9138542"><time>2022-03-07T07:37:54.687</time></trkpt><trkpt lat="55.8299146" lon="48.9139260"><time>2022-03-07T07:37:57.713</time></trkpt><trkpt lat="55.8298791" lon="48.9139972"><time>2022-03-07T07:38:01.740</time></trkpt><trkpt lat="55.8298791" lon="48.9139972"><time>2022-03-07T07:38:01.867</time></trkpt><trkpt lat="55.8299308" lon="48.9139259"><time>2022-03-07T07:38:07.697</time></trkpt><trkpt lat="55.8300060" lon="48.9139495"><time>2022-03-07T07:38:08.517</time></trkpt><trkpt lat="55.8300136" lon="48.9138184"><time>2022-03-07T07:38:09.587</time></trkpt><trkpt lat="55.8300597" lon="48.9137815"><time>2022-03-07T07:38:10.690</time></trkpt><trkpt lat="55.8300922" lon="48.9136522"><time>2022-03-07T07:38:12.670</time></trkpt><trkpt lat="55.8301145" lon="48.9135763"><time>2022-03-07T07:38:17.690</time></trkpt><trkpt lat="55.8301388" lon="48.9135087"><time>2022-03-07T07:38:19.703</time></trkpt><trkpt lat="55.8302045" lon="48.9135061"><time>2022-03-07T07:38:23.693</time></trkpt><trkpt lat="55.8302293" lon="48.9135820"><time>2022-03-07T07:38:27.693</time></trkpt><trkpt lat="55.8302567" lon="48.9136876"><time>2022-03-07T07:38:30.713</time></trkpt><trkpt lat="55.8302817" lon="48.9137837"><time>2022-03-07T07:38:32.697</time></trkpt><trkpt lat="55.8303024" lon="48.9138854"><time>2022-03-07T07:38:34.703</time></trkpt><trkpt lat="55.8303246" lon="48.9140134"><time>2022-03-07T07:38:36.697</time></trkpt><trkpt lat="55.8303559" lon="48.9141506"><time>2022-03-07T07:38:38.677</time></trkpt><trkpt lat="55.8303708" lon="48.9142656"><time>2022-03-07T07:38:40.717</time></trkpt><trkpt lat="55.8303992" lon="48.9143844"><time>2022-03-07T07:38:42.707</time></trkpt><trkpt lat="55.8304391" lon="48.9145055"><time>2022-03-07T07:38:44.693</time></trkpt><trkpt lat="55.8304695" lon="48.9145656"><time>2022-03-07T07:38:45.693</time></trkpt><trkpt lat="55.8305046" lon="48.9146166"><time>2022-03-07T07:38:46.700</time></trkpt><trkpt lat="55.8305553" lon="48.9147320"><time>2022-03-07T07:38:48.723</time></trkpt><trkpt lat="55.8306010" lon="48.9148399"><time>2022-03-07T07:38:50.710</time></trkpt><trkpt lat="55.8306429" lon="48.9149579"><time>2022-03-07T07:38:52.717</time></trkpt><trkpt lat="55.8306738" lon="48.9150221"><time>2022-03-07T07:38:53.750</time></trkpt><trkpt lat="55.8307161" lon="48.9151260"><time>2022-03-07T07:38:55.710</time></trkpt><trkpt lat="55.8307614" lon="48.9152394"><time>2022-03-07T07:38:57.710</time></trkpt><trkpt lat="55.8308079" lon="48.9153438"><time>2022-03-07T07:38:59.727</time></trkpt><trkpt lat="55.8308594" lon="48.9154501"><time>2022-03-07T07:39:01.700</time></trkpt><trkpt lat="55.8309036" lon="48.9155373"><time>2022-03-07T07:39:03.693</time></trkpt><trkpt lat="55.8309477" lon="48.9156313"><time>2022-03-07T07:39:05.667</time></trkpt><trkpt lat="55.8310035" lon="48.9157382"><time>2022-03-07T07:39:07.670</time></trkpt><trkpt lat="55.8310422" lon="48.9158013"><time>2022-03-07T07:39:08.693</time></trkpt><trkpt lat="55.8310959" lon="48.9159278"><time>2022-03-07T07:39:10.677</time></trkpt><trkpt lat="55.8311446" lon="48.9160438"><time>2022-03-07T07:39:12.683</time></trkpt><trkpt lat="55.8311756" lon="48.9161058"><time>2022-03-07T07:39:13.700</time></trkpt><trkpt lat="55.8312230" lon="48.9162031"><time>2022-03-07T07:39:15.733</time></trkpt><trkpt lat="55.8312669" lon="48.9163037"><time>2022-03-07T07:39:17.720</time></trkpt><trkpt lat="55.8313133" lon="48.9164132"><time>2022-03-07T07:39:19.693</time></trkpt><trkpt lat="55.8313640" lon="48.9165361"><time>2022-03-07T07:39:21.737</time></trkpt><trkpt lat="55.8313966" lon="48.9166092"><time>2022-03-07T07:39:22.713</time></trkpt><trkpt lat="55.8314257" lon="48.9166829"><time>2022-03-07T07:39:23.737</time></trkpt><trkpt lat="55.8314660" lon="48.9168010"><time>2022-03-07T07:39:25.727</time></trkpt><trkpt lat="55.8315010" lon="48.9169190"><time>2022-03-07T07:39:27.687</time></trkpt><trkpt lat="55.8315389" lon="48.9170339"><time>2022-03-07T07:39:29.720</time></trkpt><trkpt lat="55.8315808" lon="48.9171441"><time>2022-03-07T07:39:31.690</time></trkpt><trkpt lat="55.8316225" lon="48.9172474"><time>2022-03-07T07:39:33.707</time></trkpt><trkpt lat="55.8316630" lon="48.9173591"><time>2022-03-07T07:39:35.690</time></trkpt><trkpt lat="55.8317082" lon="48.9174682"><time>2022-03-07T07:39:37.710</time></trkpt><trkpt lat="55.8317533" lon="48.9175762"><time>2022-03-07T07:39:39.703</time></trkpt><trkpt lat="55.8317983" lon="48.9176832"><time>2022-03-07T07:39:41.707</time></trkpt><trkpt lat="55.8318375" lon="48.9177902"><time>2022-03-07T07:39:43.727</time></trkpt><trkpt lat="55.8318650" lon="48.9178947"><time>2022-03-07T07:39:45.730</time></trkpt><trkpt lat="55.8318885" lon="48.9180203"><time>2022-03-07T07:39:47.707</time></trkpt><trkpt lat="55.8319252" lon="48.9181096"><time>2022-03-07T07:39:49.690</time></trkpt><trkpt lat="55.8319580" lon="48.9181675"><time>2022-03-07T07:39:52.697</time></trkpt><trkpt lat="55.8319955" lon="48.9182284"><time>2022-03-07T07:39:58.700</time></trkpt><trkpt lat="55.8320184" lon="48.9183190"><time>2022-03-07T07:40:06.707</time></trkpt><trkpt lat="55.8320287" lon="48.9184102"><time>2022-03-07T07:40:09.687</time></trkpt><trkpt lat="55.8320416" lon="48.9184868"><time>2022-03-07T07:40:11.687</time></trkpt><trkpt lat="55.8320527" lon="48.9185919"><time>2022-03-07T07:40:14.713</time></trkpt><trkpt lat="55.8320561" lon="48.9186860"><time>2022-03-07T07:40:18.717</time></trkpt><trkpt lat="55.8320650" lon="48.9187724"><time>2022-03-07T07:40:23.723</time></trkpt><trkpt lat="55.8320637" lon="48.9188653"><time>2022-03-07T07:40:28.670</time></trkpt><trkpt lat="55.8320537" lon="48.9189570"><time>2022-03-07T07:40:32.687</time></trkpt><trkpt lat="55.8320382" lon="48.9190494"><time>2022-03-07T07:40:36.693</time></trkpt><trkpt lat="55.8320356" lon="48.9191386"><time>2022-03-07T07:40:40.683</time></trkpt><trkpt lat="55.8320194" lon="48.9192219"><time>2022-03-07T07:40:44.683</time></trkpt><trkpt lat="55.8320088" lon="48.9193023"><time>2022-03-07T07:40:47.713</time></trkpt><trkpt lat="55.8320084" lon="48.9193872"><time>2022-03-07T07:40:50.687</time></trkpt><trkpt lat="55.8320529" lon="48.9194307"><time>2022-03-07T07:41:02.693</time></trkpt><trkpt lat="55.8320836" lon="48.9193648"><time>2022-03-07T07:41:05.683</time></trkpt><trkpt lat="55.8321133" lon="48.9192922"><time>2022-03-07T07:41:08.683</time></trkpt><trkpt lat="55.8320691" lon="48.9193929"><time>2022-03-07T07:43:25.700</time></trkpt><trkpt lat="55.8320474" lon="48.9195107"><time>2022-03-07T07:43:27.697</time></trkpt><trkpt lat="55.8320208" lon="48.9196301"><time>2022-03-07T07:43:29.687</time></trkpt><trkpt lat="55.8319903" lon="48.9197363"><time>2022-03-07T07:43:31.703</time></trkpt><trkpt lat="55.8319504" lon="48.9198584"><time>2022-03-07T07:43:33.700</time></trkpt><trkpt lat="55.8319237" lon="48.9199792"><time>2022-03-07T07:43:35.723</time></trkpt><trkpt lat="55.8318904" lon="48.9201020"><time>2022-03-07T07:43:37.707</time></trkpt><trkpt lat="55.8318648" lon="48.9201770"><time>2022-03-07T07:43:38.683</time></trkpt><trkpt lat="55.8318447" lon="48.9202605"><time>2022-03-07T07:43:39.720</time></trkpt><trkpt lat="55.8318166" lon="48.9203279"><time>2022-03-07T07:43:40.700</time></trkpt><trkpt lat="55.8317945" lon="48.9204037"><time>2022-03-07T07:43:41.713</time></trkpt><trkpt lat="55.8317643" lon="48.9205453"><time>2022-03-07T07:43:43.720</time></trkpt><trkpt lat="55.8317455" lon="48.9206925"><time>2022-03-07T07:43:45.707</time></trkpt><trkpt lat="55.8317375" lon="48.9208411"><time>2022-03-07T07:43:47.730</time></trkpt><trkpt lat="55.8317400" lon="48.9209931"><time>2022-03-07T07:43:49.717</time></trkpt><trkpt lat="55.8317522" lon="48.9211514"><time>2022-03-07T07:43:51.727</time></trkpt><trkpt lat="55.8317578" lon="48.9212309"><time>2022-03-07T07:43:52.720</time></trkpt><trkpt lat="55.8317829" lon="48.9213537"><time>2022-03-07T07:43:54.697</time></trkpt><trkpt lat="55.8318191" lon="48.9215110"><time>2022-03-07T07:43:56.697</time></trkpt><trkpt lat="55.8318377" lon="48.9215881"><time>2022-03-07T07:43:57.707</time></trkpt><trkpt lat="55.8318619" lon="48.9217295"><time>2022-03-07T07:43:59.707</time></trkpt><trkpt lat="55.8318741" lon="48.9218810"><time>2022-03-07T07:44:01.713</time></trkpt><trkpt lat="55.8318833" lon="48.9220062"><time>2022-03-07T07:44:03.710</time></trkpt><trkpt lat="55.8318972" lon="48.9221334"><time>2022-03-07T07:44:05.737</time></trkpt><trkpt lat="55.8319295" lon="48.9222725"><time>2022-03-07T07:44:07.727</time></trkpt><trkpt lat="55.8319709" lon="48.9223952"><time>2022-03-07T07:44:09.693</time></trkpt><trkpt lat="55.8320057" lon="48.9225109"><time>2022-03-07T07:44:11.747</time></trkpt><trkpt lat="55.8320832" lon="48.9227375"><time>2022-03-07T07:44:13.573</time></trkpt><trkpt lat="55.8320149" lon="48.9226965"><time>2022-03-07T07:44:14.693</time></trkpt><trkpt lat="55.8320786" lon="48.9227231"><time>2022-03-07T07:44:15.717</time></trkpt><trkpt lat="55.8320752" lon="48.9228309"><time>2022-03-07T07:44:17.690</time></trkpt><trkpt lat="55.8320942" lon="48.9229680"><time>2022-03-07T07:44:19.687</time></trkpt><trkpt lat="55.8321041" lon="48.9230862"><time>2022-03-07T07:44:21.687</time></trkpt><trkpt lat="55.8321078" lon="48.9232205"><time>2022-03-07T07:44:23.690</time></trkpt><trkpt lat="55.8321097" lon="48.9233422"><time>2022-03-07T07:44:25.697</time></trkpt><trkpt lat="55.8321064" lon="48.9234661"><time>2022-03-07T07:44:27.700</time></trkpt><trkpt lat="55.8321012" lon="48.9235718"><time>2022-03-07T07:44:29.697</time></trkpt><trkpt lat="55.8320980" lon="48.9236760"><time>2022-03-07T07:44:31.690</time></trkpt><trkpt lat="55.8320943" lon="48.9237888"><time>2022-03-07T07:44:33.707</time></trkpt><trkpt lat="55.8320897" lon="48.9238977"><time>2022-03-07T07:44:35.707</time></trkpt><trkpt lat="55.8320753" lon="48.9239936"><time>2022-03-07T07:44:37.687</time></trkpt><trkpt lat="55.8320627" lon="48.9240990"><time>2022-03-07T07:44:39.687</time></trkpt><trkpt lat="55.8320468" lon="48.9242110"><time>2022-03-07T07:44:41.720</time></trkpt><trkpt lat="55.8319561" lon="48.9242835"><time>2022-03-07T07:44:43.477</time></trkpt><trkpt lat="55.8320014" lon="48.9244289"><time>2022-03-07T07:44:44.680</time></trkpt><trkpt lat="55.8319558" lon="48.9244517"><time>2022-03-07T07:44:45.710</time></trkpt><trkpt lat="55.8319486" lon="48.9245382"><time>2022-03-07T07:44:47.690</time></trkpt><trkpt lat="55.8319134" lon="48.9246135"><time>2022-03-07T07:44:49.697</time></trkpt><trkpt lat="55.8318894" lon="48.9247227"><time>2022-03-07T07:44:51.660</time></trkpt><trkpt lat="55.8318753" lon="48.9248238"><time>2022-03-07T07:44:53.680</time></trkpt><trkpt lat="55.8318664" lon="48.9249039"><time>2022-03-07T07:44:55.693</time></trkpt><trkpt lat="55.8318681" lon="48.9249945"><time>2022-03-07T07:44:57.703</time></trkpt><trkpt lat="55.8318629" lon="48.9251049"><time>2022-03-07T07:44:59.697</time></trkpt><trkpt lat="55.8318581" lon="48.9252102"><time>2022-03-07T07:45:01.690</time></trkpt><trkpt lat="55.8318508" lon="48.9253277"><time>2022-03-07T07:45:03.693</time></trkpt><trkpt lat="55.8318515" lon="48.9254440"><time>2022-03-07T07:45:05.680</time></trkpt><trkpt lat="55.8318534" lon="48.9255466"><time>2022-03-07T07:45:07.700</time></trkpt><trkpt lat="55.8318618" lon="48.9256426"><time>2022-03-07T07:45:09.690</time></trkpt><trkpt lat="55.8318748" lon="48.9257489"><time>2022-03-07T07:45:11.690</time></trkpt><trkpt lat="55.8318880" lon="48.9258527"><time>2022-03-07T07:45:13.700</time></trkpt><trkpt lat="55.8318939" lon="48.9259647"><time>2022-03-07T07:45:15.700</time></trkpt><trkpt lat="55.8318926" lon="48.9260811"><time>2022-03-07T07:45:17.703</time></trkpt><trkpt lat="55.8318848" lon="48.9262062"><time>2022-03-07T07:45:19.737</time></trkpt><trkpt lat="55.8318712" lon="48.9263325"><time>2022-03-07T07:45:21.713</time></trkpt><trkpt lat="55.8318592" lon="48.9264585"><time>2022-03-07T07:45:23.700</time></trkpt><trkpt lat="55.8318513" lon="48.9265786"><time>2022-03-07T07:45:25.733</time></trkpt><trkpt lat="55.8318463" lon="48.9266957"><time>2022-03-07T07:45:27.683</time></trkpt><trkpt lat="55.8318432" lon="48.9268189"><time>2022-03-07T07:45:29.690</time></trkpt><trkpt lat="55.8318392" lon="48.9269392"><time>2022-03-07T07:45:31.687</time></trkpt><trkpt lat="55.8318391" lon="48.9270447"><time>2022-03-07T07:45:33.677</time></trkpt><trkpt lat="55.8318868" lon="48.9270233"><time>2022-03-07T07:45:40.683</time></trkpt><trkpt lat="55.8319445" lon="48.9269790"><time>2022-03-07T07:45:43.687</time></trkpt><trkpt lat="55.8319919" lon="48.9269369"><time>2022-03-07T07:45:45.687</time></trkpt><trkpt lat="55.8320374" lon="48.9268714"><time>2022-03-07T07:45:47.707</time></trkpt><trkpt lat="55.8320802" lon="48.9268067"><time>2022-03-07T07:45:49.727</time></trkpt><trkpt lat="55.8321200" lon="48.9267460"><time>2022-03-07T07:45:51.697</time></trkpt><trkpt lat="55.8321603" lon="48.9266931"><time>2022-03-07T07:45:53.710</time></trkpt><trkpt lat="55.8321967" lon="48.9266227"><time>2022-03-07T07:45:55.710</time></trkpt><trkpt lat="55.8322445" lon="48.9265441"><time>2022-03-07T07:45:57.707</time></trkpt><trkpt lat="55.8322958" lon="48.9264559"><time>2022-03-07T07:45:59.693</time></trkpt><trkpt lat="55.8323425" lon="48.9263729"><time>2022-03-07T07:46:01.697</time></trkpt><trkpt lat="55.8323939" lon="48.9263011"><time>2022-03-07T07:46:03.703</time></trkpt><trkpt lat="55.8324465" lon="48.9262387"><time>2022-03-07T07:46:05.693</time></trkpt><trkpt lat="55.8324919" lon="48.9261798"><time>2022-03-07T07:46:07.713</time></trkpt><trkpt lat="55.8325443" lon="48.9261326"><time>2022-03-07T07:46:09.693</time></trkpt><trkpt lat="55.8325901" lon="48.9260814"><time>2022-03-07T07:46:11.707</time></trkpt><trkpt lat="55.8326394" lon="48.9260343"><time>2022-03-07T07:46:13.703</time></trkpt><trkpt lat="55.8326852" lon="48.9259668"><time>2022-03-07T07:46:15.697</time></trkpt><trkpt lat="55.8327244" lon="48.9259202"><time>2022-03-07T07:46:17.673</time></trkpt><trkpt lat="55.8327663" lon="48.9258723"><time>2022-03-07T07:46:19.690</time></trkpt><trkpt lat="55.8328206" lon="48.9258153"><time>2022-03-07T07:46:21.693</time></trkpt><trkpt lat="55.8328712" lon="48.9257518"><time>2022-03-07T07:46:23.763</time></trkpt><trkpt lat="55.8332796" lon="48.9256208"><time>2022-03-07T07:46:24.587</time></trkpt><trkpt lat="55.8331107" lon="48.9256963"><time>2022-03-07T07:46:25.623</time></trkpt><trkpt lat="55.8331161" lon="48.9255407"><time>2022-03-07T07:46:26.680</time></trkpt><trkpt lat="55.8331637" lon="48.9254933"><time>2022-03-07T07:46:28.693</time></trkpt><trkpt lat="55.8332033" lon="48.9254519"><time>2022-03-07T07:46:29.707</time></trkpt><trkpt lat="55.8332675" lon="48.9253694"><time>2022-03-07T07:46:31.700</time></trkpt><trkpt lat="55.8333306" lon="48.9252919"><time>2022-03-07T07:46:33.677</time></trkpt><trkpt lat="55.8333937" lon="48.9252104"><time>2022-03-07T07:46:35.683</time></trkpt><trkpt lat="55.8334656" lon="48.9251507"><time>2022-03-07T07:46:37.697</time></trkpt><trkpt lat="55.8335308" lon="48.9250767"><time>2022-03-07T07:46:39.677</time></trkpt><trkpt lat="55.8335900" lon="48.9250080"><time>2022-03-07T07:46:41.693</time></trkpt><trkpt lat="55.8336474" lon="48.9249395"><time>2022-03-07T07:46:43.683</time></trkpt><trkpt lat="55.8336883" lon="48.9248780"><time>2022-03-07T07:46:45.713</time></trkpt><trkpt lat="55.8337315" lon="48.9248156"><time>2022-03-07T07:46:47.700</time></trkpt><trkpt lat="55.8337750" lon="48.9247863"><time>2022-03-07T07:46:51.683</time></trkpt><trkpt lat="55.8338305" lon="48.9247383"><time>2022-03-07T07:46:55.710</time></trkpt><trkpt lat="55.8337821" lon="48.9247558"><time>2022-03-07T07:47:09.717</time></trkpt><trkpt lat="55.8337571" lon="48.9246698"><time>2022-03-07T07:47:17.697</time></trkpt><trkpt lat="55.8337406" lon="48.9245858"><time>2022-03-07T07:47:20.687</time></trkpt><trkpt lat="55.8337706" lon="48.9244452"><time>2022-03-07T07:47:22.457</time></trkpt><trkpt lat="55.8336790" lon="48.9244025"><time>2022-03-07T07:47:23.673</time></trkpt><trkpt lat="55.8338343" lon="48.9243670"><time>2022-03-07T07:47:24.697</time></trkpt><trkpt lat="55.8338048" lon="48.9243004"><time>2022-03-07T07:47:27.683</time></trkpt><trkpt lat="55.8338137" lon="48.9242054"><time>2022-03-07T07:47:30.693</time></trkpt><trkpt lat="55.8338162" lon="48.9241166"><time>2022-03-07T07:47:33.697</time></trkpt><trkpt lat="55.8338239" lon="48.9240247"><time>2022-03-07T07:47:36.690</time></trkpt><trkpt lat="55.8338248" lon="48.9239423"><time>2022-03-07T07:47:39.673</time></trkpt><trkpt lat="55.8338220" lon="48.9238565"><time>2022-03-07T07:47:42.677</time></trkpt><trkpt lat="55.8338097" lon="48.9237755"><time>2022-03-07T07:47:45.750</time></trkpt><trkpt lat="55.8337841" lon="48.9237286"><time>2022-03-07T07:47:47.527</time></trkpt><trkpt lat="55.8337665" lon="48.9236358"><time>2022-03-07T07:47:49.680</time></trkpt><trkpt lat="55.8337647" lon="48.9235355"><time>2022-03-07T07:47:53.687</time></trkpt><trkpt lat="55.8337756" lon="48.9234564"><time>2022-03-07T07:47:55.683</time></trkpt><trkpt lat="55.8337735" lon="48.9233626"><time>2022-03-07T07:47:59.710</time></trkpt><trkpt lat="55.8337735" lon="48.9233626"><time>2022-03-07T07:47:59.793</time></trkpt><trkpt lat="55.8337671" lon="48.9234680"><time>2022-03-07T07:48:04.707</time></trkpt><trkpt lat="55.8332078" lon="48.9236036"><time>2022-03-07T07:48:05.453</time></trkpt><trkpt lat="55.8337287" lon="48.9235806"><time>2022-03-07T07:48:06.497</time></trkpt><trkpt lat="55.8337686" lon="48.9236258"><time>2022-03-07T07:48:08.697</time></trkpt><trkpt lat="55.8338056" lon="48.9237256"><time>2022-03-07T07:48:10.707</time></trkpt><trkpt lat="55.8337970" lon="48.9238325"><time>2022-03-07T07:48:12.683</time></trkpt><trkpt lat="55.8337850" lon="48.9239349"><time>2022-03-07T07:48:14.700</time></trkpt><trkpt lat="55.8337676" lon="48.9240185"><time>2022-03-07T07:48:16.677</time></trkpt><trkpt lat="55.8337562" lon="48.9241040"><time>2022-03-07T07:48:18.673</time></trkpt><trkpt lat="55.8337435" lon="48.9241968"><time>2022-03-07T07:48:21.703</time></trkpt><trkpt lat="55.8337263" lon="48.9243101"><time>2022-03-07T07:48:24.700</time></trkpt><trkpt lat="55.8337184" lon="48.9244001"><time>2022-03-07T07:48:27.693</time></trkpt><trkpt lat="55.8337106" lon="48.9245013"><time>2022-03-07T07:48:30.707</time></trkpt><trkpt lat="55.8337200" lon="48.9246167"><time>2022-03-07T07:48:33.697</time></trkpt><trkpt lat="55.8337340" lon="48.9247287"><time>2022-03-07T07:48:36.710</time></trkpt><trkpt lat="55.8337596" lon="48.9247973"><time>2022-03-07T07:48:40.703</time></trkpt><trkpt lat="55.8337131" lon="48.9248304"><time>2022-03-07T07:48:46.697</time></trkpt><trkpt lat="55.8336737" lon="48.9248744"><time>2022-03-07T07:48:48.697</time></trkpt><trkpt lat="55.8336240" lon="48.9249378"><time>2022-03-07T07:48:50.680</time></trkpt><trkpt lat="55.8335738" lon="48.9249989"><time>2022-03-07T07:48:52.680</time></trkpt><trkpt lat="55.8335188" lon="48.9250702"><time>2022-03-07T07:48:54.670</time></trkpt><trkpt lat="55.8334637" lon="48.9251324"><time>2022-03-07T07:48:56.703</time></trkpt><trkpt lat="55.8334012" lon="48.9252045"><time>2022-03-07T07:48:58.707</time></trkpt><trkpt lat="55.8333431" lon="48.9252745"><time>2022-03-07T07:49:00.687</time></trkpt><trkpt lat="55.8332860" lon="48.9253299"><time>2022-03-07T07:49:02.697</time></trkpt><trkpt lat="55.8332382" lon="48.9253838"><time>2022-03-07T07:49:04.703</time></trkpt><trkpt lat="55.8331825" lon="48.9254445"><time>2022-03-07T07:49:06.693</time></trkpt><trkpt lat="55.8331270" lon="48.9255019"><time>2022-03-07T07:49:08.713</time></trkpt><trkpt lat="55.8330767" lon="48.9255649"><time>2022-03-07T07:49:10.723</time></trkpt><trkpt lat="55.8330199" lon="48.9256260"><time>2022-03-07T07:49:12.687</time></trkpt><trkpt lat="55.8329718" lon="48.9257019"><time>2022-03-07T07:49:14.690</time></trkpt><trkpt lat="55.8329644" lon="48.9257954"><time>2022-03-07T07:49:16.697</time></trkpt><trkpt lat="55.8330148" lon="48.9258590"><time>2022-03-07T07:49:18.683</time></trkpt><trkpt lat="55.8330869" lon="48.9258822"><time>2022-03-07T07:49:20.687</time></trkpt><trkpt lat="55.8331521" lon="48.9259149"><time>2022-03-07T07:49:22.743</time></trkpt><trkpt lat="55.8332101" lon="48.9259690"><time>2022-03-07T07:49:24.697</time></trkpt><trkpt lat="55.8332629" lon="48.9260621"><time>2022-03-07T07:49:26.707</time></trkpt><trkpt lat="55.8333045" lon="48.9262004"><time>2022-03-07T07:49:28.683</time></trkpt><trkpt lat="55.8333207" lon="48.9262787"><time>2022-03-07T07:49:29.687</time></trkpt><trkpt lat="55.8333420" lon="48.9264182"><time>2022-03-07T07:49:31.683</time></trkpt><trkpt lat="55.8333568" lon="48.9265364"><time>2022-03-07T07:49:33.683</time></trkpt><trkpt lat="55.8333811" lon="48.9266693"><time>2022-03-07T07:49:35.700</time></trkpt><trkpt lat="55.8334031" lon="48.9267952"><time>2022-03-07T07:49:37.707</time></trkpt><trkpt lat="55.8334301" lon="48.9269358"><time>2022-03-07T07:49:39.707</time></trkpt><trkpt lat="55.8334467" lon="48.9270127"><time>2022-03-07T07:49:40.690</time></trkpt><trkpt lat="55.8334692" lon="48.9270822"><time>2022-03-07T07:49:41.703</time></trkpt><trkpt lat="55.8335216" lon="48.9271799"><time>2022-03-07T07:49:43.697</time></trkpt><trkpt lat="55.8335848" lon="48.9272595"><time>2022-03-07T07:49:45.687</time></trkpt><trkpt lat="55.8336473" lon="48.9273212"><time>2022-03-07T07:49:47.683</time></trkpt><trkpt lat="55.8337221" lon="48.9273694"><time>2022-03-07T07:49:49.707</time></trkpt><trkpt lat="55.8337923" lon="48.9274308"><time>2022-03-07T07:49:51.687</time></trkpt><trkpt lat="55.8338388" lon="48.9275116"><time>2022-03-07T07:49:53.693</time></trkpt><trkpt lat="55.8338823" lon="48.9276104"><time>2022-03-07T07:49:55.693</time></trkpt><trkpt lat="55.8339384" lon="48.9276954"><time>2022-03-07T07:49:57.703</time></trkpt><trkpt lat="55.8339952" lon="48.9277608"><time>2022-03-07T07:49:59.743</time></trkpt><trkpt lat="55.8340529" lon="48.9278238"><time>2022-03-07T07:50:01.737</time></trkpt><trkpt lat="55.8341110" lon="48.9278796"><time>2022-03-07T07:50:03.687</time></trkpt><trkpt lat="55.8341691" lon="48.9279389"><time>2022-03-07T07:50:05.687</time></trkpt><trkpt lat="55.8342206" lon="48.9280047"><time>2022-03-07T07:50:07.717</time></trkpt><trkpt lat="55.8342691" lon="48.9280778"><time>2022-03-07T07:50:09.687</time></trkpt><trkpt lat="55.8343152" lon="48.9281617"><time>2022-03-07T07:50:11.723</time></trkpt><trkpt lat="55.8343580" lon="48.9282403"><time>2022-03-07T07:50:13.693</time></trkpt><trkpt lat="55.8343946" lon="48.9283245"><time>2022-03-07T07:50:15.703</time></trkpt><trkpt lat="55.8344375" lon="48.9284165"><time>2022-03-07T07:50:17.690</time></trkpt><trkpt lat="55.8344791" lon="48.9285150"><time>2022-03-07T07:50:19.697</time></trkpt><trkpt lat="55.8345202" lon="48.9286268"><time>2022-03-07T07:50:21.707</time></trkpt><trkpt lat="55.8345560" lon="48.9287603"><time>2022-03-07T07:50:23.727</time></trkpt><trkpt lat="55.8345919" lon="48.9288787"><time>2022-03-07T07:50:25.733</time></trkpt><trkpt lat="55.8346228" lon="48.9289849"><time>2022-03-07T07:50:27.707</time></trkpt><trkpt lat="55.8346448" lon="48.9290941"><time>2022-03-07T07:50:29.700</time></trkpt><trkpt lat="55.8346632" lon="48.9292036"><time>2022-03-07T07:50:31.713</time></trkpt><trkpt lat="55.8346699" lon="48.9293115"><time>2022-03-07T07:50:33.697</time></trkpt><trkpt lat="55.8346885" lon="48.9294119"><time>2022-03-07T07:50:35.703</time></trkpt><trkpt lat="55.8347056" lon="48.9295204"><time>2022-03-07T07:50:37.697</time></trkpt><trkpt lat="55.8347161" lon="48.9296287"><time>2022-03-07T07:50:39.680</time></trkpt><trkpt lat="55.8347248" lon="48.9297393"><time>2022-03-07T07:50:41.687</time></trkpt><trkpt lat="55.8347339" lon="48.9298447"><time>2022-03-07T07:50:43.697</time></trkpt><trkpt lat="55.8347457" lon="48.9299468"><time>2022-03-07T07:50:45.707</time></trkpt><trkpt lat="55.8347586" lon="48.9300580"><time>2022-03-07T07:50:47.703</time></trkpt><trkpt lat="55.8347682" lon="48.9301690"><time>2022-03-07T07:50:49.683</time></trkpt><trkpt lat="55.8347831" lon="48.9302751"><time>2022-03-07T07:50:51.690</time></trkpt><trkpt lat="55.8347989" lon="48.9303765"><time>2022-03-07T07:50:53.717</time></trkpt><trkpt lat="55.8348210" lon="48.9304695"><time>2022-03-07T07:50:55.710</time></trkpt><trkpt lat="55.8348429" lon="48.9305728"><time>2022-03-07T07:50:57.690</time></trkpt><trkpt lat="55.8348575" lon="48.9306756"><time>2022-03-07T07:50:59.697</time></trkpt><trkpt lat="55.8348777" lon="48.9307719"><time>2022-03-07T07:51:01.687</time></trkpt><trkpt lat="55.8348968" lon="48.9308650"><time>2022-03-07T07:51:03.723</time></trkpt><trkpt lat="55.8349121" lon="48.9309576"><time>2022-03-07T07:51:05.713</time></trkpt><trkpt lat="55.8349287" lon="48.9310605"><time>2022-03-07T07:51:07.710</time></trkpt><trkpt lat="55.8349436" lon="48.9311611"><time>2022-03-07T07:51:09.687</time></trkpt><trkpt lat="55.8349584" lon="48.9312615"><time>2022-03-07T07:51:11.703</time></trkpt><trkpt lat="55.8349778" lon="48.9313713"><time>2022-03-07T07:51:13.720</time></trkpt><trkpt lat="55.8349362" lon="48.9314593"><time>2022-03-07T07:51:15.563</time></trkpt><trkpt lat="55.8349780" lon="48.9315443"><time>2022-03-07T07:51:16.660</time></trkpt><trkpt lat="55.8350356" lon="48.9316184"><time>2022-03-07T07:51:17.660</time></trkpt><trkpt lat="55.8349980" lon="48.9317644"><time>2022-03-07T07:51:19.670</time></trkpt><trkpt lat="55.8350160" lon="48.9318717"><time>2022-03-07T07:51:21.710</time></trkpt><trkpt lat="55.8350471" lon="48.9319502"><time>2022-03-07T07:51:23.683</time></trkpt><trkpt lat="55.8350732" lon="48.9320493"><time>2022-03-07T07:51:25.680</time></trkpt><trkpt lat="55.8350847" lon="48.9321583"><time>2022-03-07T07:51:27.700</time></trkpt><trkpt lat="55.8351103" lon="48.9322579"><time>2022-03-07T07:51:29.690</time></trkpt><trkpt lat="55.8351299" lon="48.9323455"><time>2022-03-07T07:51:31.677</time></trkpt><trkpt lat="55.8351419" lon="48.9324394"><time>2022-03-07T07:51:33.700</time></trkpt><trkpt lat="55.8351521" lon="48.9325500"><time>2022-03-07T07:51:35.673</time></trkpt><trkpt lat="55.8351488" lon="48.9326545"><time>2022-03-07T07:51:37.677</time></trkpt><trkpt lat="55.8351506" lon="48.9327461"><time>2022-03-07T07:51:39.680</time></trkpt><trkpt lat="55.8351538" lon="48.9328446"><time>2022-03-07T07:51:41.683</time></trkpt><trkpt lat="55.8351517" lon="48.9329465"><time>2022-03-07T07:51:43.697</time></trkpt><trkpt lat="55.8351875" lon="48.9329508"><time>2022-03-07T07:51:44.470</time></trkpt><trkpt lat="55.8352208" lon="48.9331515"><time>2022-03-07T07:51:45.440</time></trkpt><trkpt lat="55.8351204" lon="48.9331237"><time>2022-03-07T07:51:46.667</time></trkpt><trkpt lat="55.8351780" lon="48.9331859"><time>2022-03-07T07:51:47.683</time></trkpt><trkpt lat="55.8351693" lon="48.9332983"><time>2022-03-07T07:51:49.683</time></trkpt><trkpt lat="55.8351568" lon="48.9334040"><time>2022-03-07T07:51:51.700</time></trkpt><trkpt lat="55.8351513" lon="48.9335088"><time>2022-03-07T07:51:53.700</time></trkpt><trkpt lat="55.8351565" lon="48.9336105"><time>2022-03-07T07:51:55.693</time></trkpt><trkpt lat="55.8351670" lon="48.9337011"><time>2022-03-07T07:51:57.703</time></trkpt><trkpt lat="55.8351853" lon="48.9337857"><time>2022-03-07T07:51:59.733</time></trkpt><trkpt lat="55.8352710" lon="48.9336107"><time>2022-03-07T07:52:00.520</time></trkpt><trkpt lat="55.8351766" lon="48.9339382"><time>2022-03-07T07:52:02.323</time></trkpt><trkpt lat="55.8352252" lon="48.9340038"><time>2022-03-07T07:52:04.083</time></trkpt><trkpt lat="55.8352242" lon="48.9340931"><time>2022-03-07T07:52:05.717</time></trkpt><trkpt lat="55.8352493" lon="48.9341639"><time>2022-03-07T07:52:07.740</time></trkpt><trkpt lat="55.8352161" lon="48.9345215"><time>2022-03-07T07:52:22.567</time></trkpt><trkpt lat="55.8352161" lon="48.9345215"><time>2022-03-07T07:52:22.643</time></trkpt><trkpt lat="55.8352071" lon="48.9346221"><time>2022-03-07T07:52:28.687</time></trkpt><trkpt lat="55.8352280" lon="48.9344213"><time>2022-03-07T07:52:29.387</time></trkpt><trkpt lat="55.8352314" lon="48.9346729"><time>2022-03-07T07:52:30.467</time></trkpt><trkpt lat="55.8351852" lon="48.9346949"><time>2022-03-07T07:52:34.703</time></trkpt><trkpt lat="55.8351582" lon="48.9347736"><time>2022-03-07T07:52:37.693</time></trkpt><trkpt lat="55.8351563" lon="48.9348557"><time>2022-03-07T07:52:40.673</time></trkpt><trkpt lat="55.8351359" lon="48.9349310"><time>2022-03-07T07:52:44.687</time></trkpt><trkpt lat="55.8351076" lon="48.9350146"><time>2022-03-07T07:52:48.700</time></trkpt><trkpt lat="55.8350761" lon="48.9351007"><time>2022-03-07T07:52:52.697</time></trkpt><trkpt lat="55.8350431" lon="48.9351707"><time>2022-03-07T07:52:55.707</time></trkpt><trkpt lat="55.8349932" lon="48.9352297"><time>2022-03-07T07:52:58.723</time></trkpt><trkpt lat="55.8349431" lon="48.9352892"><time>2022-03-07T07:53:00.727</time></trkpt><trkpt lat="55.8348924" lon="48.9353532"><time>2022-03-07T07:53:02.723</time></trkpt><trkpt lat="55.8348462" lon="48.9354388"><time>2022-03-07T07:53:04.713</time></trkpt><trkpt lat="55.8347995" lon="48.9355335"><time>2022-03-07T07:53:06.713</time></trkpt><trkpt lat="55.8347533" lon="48.9356282"><time>2022-03-07T07:53:08.693</time></trkpt><trkpt lat="55.8346983" lon="48.9356848"><time>2022-03-07T07:53:10.687</time></trkpt><trkpt lat="55.8346326" lon="48.9356858"><time>2022-03-07T07:53:12.720</time></trkpt><trkpt lat="55.8345909" lon="48.9357611"><time>2022-03-07T07:53:14.677</time></trkpt><trkpt lat="55.8345671" lon="48.9358615"><time>2022-03-07T07:53:16.693</time></trkpt><trkpt lat="55.8345355" lon="48.9359418"><time>2022-03-07T07:53:18.710</time></trkpt><trkpt lat="55.8344972" lon="48.9360043"><time>2022-03-07T07:53:20.713</time></trkpt><trkpt lat="55.8344507" lon="48.9360287"><time>2022-03-07T07:53:22.707</time></trkpt><trkpt lat="55.8344035" lon="48.9360294"><time>2022-03-07T07:53:24.713</time></trkpt><trkpt lat="55.8343597" lon="48.9360013"><time>2022-03-07T07:53:26.730</time></trkpt><trkpt lat="55.8343146" lon="48.9359534"><time>2022-03-07T07:53:28.703</time></trkpt><trkpt lat="55.8342762" lon="48.9360484"><time>2022-03-07T07:53:31.697</time></trkpt><trkpt lat="55.8342750" lon="48.9361437"><time>2022-03-07T07:53:33.727</time></trkpt><trkpt lat="55.8342839" lon="48.9362464"><time>2022-03-07T07:53:35.727</time></trkpt><trkpt lat="55.8342795" lon="48.9363429"><time>2022-03-07T07:53:38.700</time></trkpt><trkpt lat="55.8342610" lon="48.9364217"><time>2022-03-07T07:53:42.713</time></trkpt><trkpt lat="55.8342353" lon="48.9364982"><time>2022-03-07T07:53:46.687</time></trkpt><trkpt lat="55.8342018" lon="48.9365652"><time>2022-03-07T07:53:50.707</time></trkpt><trkpt lat="55.8341704" lon="48.9366461"><time>2022-03-07T07:53:54.707</time></trkpt><trkpt lat="55.8341455" lon="48.9367141"><time>2022-03-07T07:53:57.703</time></trkpt><trkpt lat="55.8341062" lon="48.9368099"><time>2022-03-07T07:54:00.737</time></trkpt><trkpt lat="55.8340789" lon="48.9369167"><time>2022-03-07T07:54:02.697</time></trkpt><trkpt lat="55.8340486" lon="48.9370193"><time>2022-03-07T07:54:04.703</time></trkpt><trkpt lat="55.8340134" lon="48.9371272"><time>2022-03-07T07:54:06.717</time></trkpt><trkpt lat="55.8339712" lon="48.9372525"><time>2022-03-07T07:54:08.737</time></trkpt><trkpt lat="55.8339336" lon="48.9373608"><time>2022-03-07T07:54:10.703</time></trkpt><trkpt lat="55.8338939" lon="48.9374657"><time>2022-03-07T07:54:12.707</time></trkpt><trkpt lat="55.8338548" lon="48.9375825"><time>2022-03-07T07:54:14.693</time></trkpt><trkpt lat="55.8338115" lon="48.9376803"><time>2022-03-07T07:54:16.690</time></trkpt><trkpt lat="55.8337644" lon="48.9377795"><time>2022-03-07T07:54:18.707</time></trkpt><trkpt lat="55.8337155" lon="48.9378803"><time>2022-03-07T07:54:20.710</time></trkpt><trkpt lat="55.8336863" lon="48.9379934"><time>2022-03-07T07:54:22.713</time></trkpt><trkpt lat="55.8336585" lon="48.9381117"><time>2022-03-07T07:54:24.700</time></trkpt><trkpt lat="55.8336340" lon="48.9382157"><time>2022-03-07T07:54:26.743</time></trkpt><trkpt lat="55.8336164" lon="48.9383145"><time>2022-03-07T07:54:28.707</time></trkpt><trkpt lat="55.8336246" lon="48.9384072"><time>2022-03-07T07:54:31.727</time></trkpt><trkpt lat="55.8335956" lon="48.9384741"><time>2022-03-07T07:54:36.717</time></trkpt><trkpt lat="55.8336137" lon="48.9385574"><time>2022-03-07T07:54:41.720</time></trkpt><trkpt lat="55.8336437" lon="48.9386310"><time>2022-03-07T07:54:46.700</time></trkpt><trkpt lat="55.8336753" lon="48.9387167"><time>2022-03-07T07:54:51.727</time></trkpt><trkpt lat="55.8337085" lon="48.9387894"><time>2022-03-07T07:54:56.757</time></trkpt><trkpt lat="55.8337378" lon="48.9388648"><time>2022-03-07T07:55:00.723</time></trkpt><trkpt lat="55.8337617" lon="48.9389352"><time>2022-03-07T07:55:04.727</time></trkpt><trkpt lat="55.8337874" lon="48.9390173"><time>2022-03-07T07:55:09.707</time></trkpt><trkpt lat="55.8338144" lon="48.9390860"><time>2022-03-07T07:55:13.683</time></trkpt><trkpt lat="55.8338429" lon="48.9391576"><time>2022-03-07T07:55:17.697</time></trkpt><trkpt lat="55.8338788" lon="48.9392066"><time>2022-03-07T07:55:24.750</time></trkpt><trkpt lat="55.8339387" lon="48.9392592"><time>2022-03-07T07:55:26.580</time></trkpt><trkpt lat="55.8339889" lon="48.9392992"><time>2022-03-07T07:55:27.727</time></trkpt><trkpt lat="55.8339928" lon="48.9393838"><time>2022-03-07T07:55:32.683</time></trkpt><trkpt lat="55.8340239" lon="48.9394559"><time>2022-03-07T07:55:37.690</time></trkpt><trkpt lat="55.8340676" lon="48.9395264"><time>2022-03-07T07:55:41.697</time></trkpt><trkpt lat="55.8340956" lon="48.9396259"><time>2022-03-07T07:55:45.683</time></trkpt><trkpt lat="55.8341202" lon="48.9396946"><time>2022-03-07T07:55:48.720</time></trkpt><trkpt lat="55.8341298" lon="48.9397796"><time>2022-03-07T07:55:52.700</time></trkpt><trkpt lat="55.8341505" lon="48.9398575"><time>2022-03-07T07:55:56.717</time></trkpt><trkpt lat="55.8341736" lon="48.9399270"><time>2022-03-07T07:56:00.710</time></trkpt><trkpt lat="55.8342144" lon="48.9400101"><time>2022-03-07T07:56:04.720</time></trkpt><trkpt lat="55.8342406" lon="48.9400784"><time>2022-03-07T07:56:07.707</time></trkpt><trkpt lat="55.8342706" lon="48.9401718"><time>2022-03-07T07:56:11.703</time></trkpt><trkpt lat="55.8343161" lon="48.9402572"><time>2022-03-07T07:56:14.727</time></trkpt><trkpt lat="55.8343497" lon="48.9403344"><time>2022-03-07T07:56:17.700</time></trkpt><trkpt lat="55.8343845" lon="48.9404168"><time>2022-03-07T07:56:20.697</time></trkpt><trkpt lat="55.8344100" lon="48.9404941"><time>2022-03-07T07:56:23.680</time></trkpt><trkpt lat="55.8344323" lon="48.9405726"><time>2022-03-07T07:56:27.707</time></trkpt><trkpt lat="55.8344537" lon="48.9406476"><time>2022-03-07T07:56:32.710</time></trkpt><trkpt lat="55.8345059" lon="48.9406708"><time>2022-03-07T07:56:46.697</time></trkpt><trkpt lat="55.8345490" lon="48.9407132"><time>2022-03-07T07:56:53.700</time></trkpt><trkpt lat="55.8346040" lon="48.9407503"><time>2022-03-07T07:56:59.737</time></trkpt><trkpt lat="55.8346504" lon="48.9407697"><time>2022-03-07T07:57:03.703</time></trkpt><trkpt lat="55.8346855" lon="48.9408412"><time>2022-03-07T07:57:07.713</time></trkpt><trkpt lat="55.8347544" lon="48.9409662"><time>2022-03-07T07:57:09.580</time></trkpt><trkpt lat="55.8348430" lon="48.9408410"><time>2022-03-07T07:57:10.677</time></trkpt><trkpt lat="55.8348826" lon="48.9408824"><time>2022-03-07T07:57:12.687</time></trkpt><trkpt lat="55.8349288" lon="48.9408963"><time>2022-03-07T07:57:24.710</time></trkpt><trkpt lat="55.8349673" lon="48.9409441"><time>2022-03-07T07:57:29.707</time></trkpt><trkpt lat="55.8350212" lon="48.9409696"><time>2022-03-07T07:57:34.707</time></trkpt><trkpt lat="55.8350701" lon="48.9409709"><time>2022-03-07T07:57:39.703</time></trkpt><trkpt lat="55.8351183" lon="48.9410078"><time>2022-03-07T07:57:43.710</time></trkpt><trkpt lat="55.8351724" lon="48.9410612"><time>2022-03-07T07:57:48.730</time></trkpt><trkpt lat="55.8351934" lon="48.9409539"><time>2022-03-07T07:57:56.693</time></trkpt><trkpt lat="55.8352062" lon="48.9408712"><time>2022-03-07T07:57:58.687</time></trkpt><trkpt lat="55.8353273" lon="48.9407951"><time>2022-03-07T07:58:00.453</time></trkpt><trkpt lat="55.8353434" lon="48.9407015"><time>2022-03-07T07:58:02.720</time></trkpt><trkpt lat="55.8353791" lon="48.9406205"><time>2022-03-07T07:58:04.693</time></trkpt><trkpt lat="55.8353886" lon="48.9405234"><time>2022-03-07T07:58:06.723</time></trkpt><trkpt lat="55.8353886" lon="48.9405234"><time>2022-03-07T07:58:06.807</time></trkpt><trkpt lat="55.8353978" lon="48.9404311"><time>2022-03-07T07:58:09.713</time></trkpt><trkpt lat="55.8352796" lon="48.9404092"><time>2022-03-07T07:58:11.483</time></trkpt><trkpt lat="55.8353562" lon="48.9405862"><time>2022-03-07T07:58:12.690</time></trkpt><trkpt lat="55.8353302" lon="48.9400376"><time>2022-03-07T07:58:13.703</time></trkpt><trkpt lat="55.8352346" lon="48.9403473"><time>2022-03-07T07:58:14.697</time></trkpt><trkpt lat="55.8352522" lon="48.9404421"><time>2022-03-07T07:58:31.703</time></trkpt><trkpt lat="55.8352843" lon="48.9405046"><time>2022-03-07T07:58:36.707</time></trkpt><trkpt lat="55.8352687" lon="48.9405907"><time>2022-03-07T07:58:40.677</time></trkpt><trkpt lat="55.8352550" lon="48.9406698"><time>2022-03-07T07:58:44.700</time></trkpt><trkpt lat="55.8352299" lon="48.9407711"><time>2022-03-07T07:58:49.707</time></trkpt><trkpt lat="55.8352151" lon="48.9408465"><time>2022-03-07T07:58:51.760</time></trkpt><trkpt lat="55.8352064" lon="48.9409260"><time>2022-03-07T07:58:53.707</time></trkpt><trkpt lat="55.8351832" lon="48.9410060"><time>2022-03-07T07:58:56.713</time></trkpt><trkpt lat="55.8351563" lon="48.9411161"><time>2022-03-07T07:59:01.703</time></trkpt><trkpt lat="55.8351377" lon="48.9411941"><time>2022-03-07T07:59:03.707</time></trkpt><trkpt lat="55.8351204" lon="48.9412739"><time>2022-03-07T07:59:05.693</time></trkpt><trkpt lat="55.8351020" lon="48.9413584"><time>2022-03-07T07:59:07.683</time></trkpt><trkpt lat="55.8350790" lon="48.9414545"><time>2022-03-07T07:59:09.703</time></trkpt><trkpt lat="55.8350528" lon="48.9415383"><time>2022-03-07T07:59:11.747</time></trkpt><trkpt lat="55.8350333" lon="48.9416313"><time>2022-03-07T07:59:13.717</time></trkpt><trkpt lat="55.8350126" lon="48.9417322"><time>2022-03-07T07:59:15.727</time></trkpt><trkpt lat="55.8349906" lon="48.9418349"><time>2022-03-07T07:59:17.737</time></trkpt><trkpt lat="55.8349610" lon="48.9419392"><time>2022-03-07T07:59:19.727</time></trkpt><trkpt lat="55.8349428" lon="48.9420369"><time>2022-03-07T07:59:21.730</time></trkpt><trkpt lat="55.8349320" lon="48.9421229"><time>2022-03-07T07:59:23.717</time></trkpt><trkpt lat="55.8349161" lon="48.9422158"><time>2022-03-07T07:59:25.713</time></trkpt><trkpt lat="55.8349074" lon="48.9423182"><time>2022-03-07T07:59:27.700</time></trkpt><trkpt lat="55.8348943" lon="48.9424194"><time>2022-03-07T07:59:29.700</time></trkpt><trkpt lat="55.8348795" lon="48.9425166"><time>2022-03-07T07:59:31.717</time></trkpt><trkpt lat="55.8348637" lon="48.9426316"><time>2022-03-07T07:59:33.697</time></trkpt><trkpt lat="55.8348452" lon="48.9427252"><time>2022-03-07T07:59:35.723</time></trkpt><trkpt lat="55.8348283" lon="48.9428152"><time>2022-03-07T07:59:37.703</time></trkpt><trkpt lat="55.8348099" lon="48.9429097"><time>2022-03-07T07:59:39.680</time></trkpt><trkpt lat="55.8347893" lon="48.9429992"><time>2022-03-07T07:59:41.700</time></trkpt><trkpt lat="55.8347667" lon="48.9430807"><time>2022-03-07T07:59:43.710</time></trkpt><trkpt lat="55.8347531" lon="48.9431666"><time>2022-03-07T07:59:45.710</time></trkpt><trkpt lat="55.8347282" lon="48.9432718"><time>2022-03-07T07:59:47.717</time></trkpt><trkpt lat="55.8347062" lon="48.9433787"><time>2022-03-07T07:59:49.703</time></trkpt><trkpt lat="55.8346917" lon="48.9434802"><time>2022-03-07T07:59:51.693</time></trkpt><trkpt lat="55.8346783" lon="48.9435701"><time>2022-03-07T07:59:53.713</time></trkpt><trkpt lat="55.8346588" lon="48.9436745"><time>2022-03-07T07:59:55.713</time></trkpt><trkpt lat="55.8346357" lon="48.9437691"><time>2022-03-07T07:59:57.730</time></trkpt><trkpt lat="55.8346172" lon="48.9438509"><time>2022-03-07T07:59:59.747</time></trkpt><trkpt lat="55.8346039" lon="48.9439345"><time>2022-03-07T08:00:01.697</time></trkpt><trkpt lat="55.8345853" lon="48.9440228"><time>2022-03-07T08:00:03.720</time></trkpt><trkpt lat="55.8345692" lon="48.9441005"><time>2022-03-07T08:00:05.693</time></trkpt><trkpt lat="55.8345481" lon="48.9441837"><time>2022-03-07T08:00:07.723</time></trkpt><trkpt lat="55.8345329" lon="48.9442726"><time>2022-03-07T08:00:09.727</time></trkpt><trkpt lat="55.8345197" lon="48.9443564"><time>2022-03-07T08:00:11.707</time></trkpt><trkpt lat="55.8344988" lon="48.9444329"><time>2022-03-07T08:00:13.717</time></trkpt><trkpt lat="55.8344788" lon="48.9445111"><time>2022-03-07T08:00:15.707</time></trkpt><trkpt lat="55.8344595" lon="48.9445975"><time>2022-03-07T08:00:17.700</time></trkpt><trkpt lat="55.8344383" lon="48.9446769"><time>2022-03-07T08:00:19.713</time></trkpt><trkpt lat="55.8344184" lon="48.9447559"><time>2022-03-07T08:00:21.707</time></trkpt><trkpt lat="55.8343966" lon="48.9448423"><time>2022-03-07T08:00:23.713</time></trkpt><trkpt lat="55.8343738" lon="48.9449166"><time>2022-03-07T08:00:25.700</time></trkpt><trkpt lat="55.8343600" lon="48.9449970"><time>2022-03-07T08:00:27.710</time></trkpt><trkpt lat="55.8343487" lon="48.9450826"><time>2022-03-07T08:00:29.713</time></trkpt><trkpt lat="55.8343370" lon="48.9451733"><time>2022-03-07T08:00:31.730</time></trkpt><trkpt lat="55.8343220" lon="48.9452627"><time>2022-03-07T08:00:33.707</time></trkpt><trkpt lat="55.8343102" lon="48.9453564"><time>2022-03-07T08:00:35.733</time></trkpt><trkpt lat="55.8342117" lon="48.9454414"><time>2022-03-07T08:00:37.533</time></trkpt><trkpt lat="55.8342281" lon="48.9455285"><time>2022-03-07T08:00:39.693</time></trkpt><trkpt lat="55.8342351" lon="48.9456262"><time>2022-03-07T08:00:41.700</time></trkpt><trkpt lat="55.8342340" lon="48.9457233"><time>2022-03-07T08:00:43.690</time></trkpt><trkpt lat="55.8342089" lon="48.9458326"><time>2022-03-07T08:00:45.707</time></trkpt><trkpt lat="55.8341836" lon="48.9459398"><time>2022-03-07T08:00:47.690</time></trkpt><trkpt lat="55.8341584" lon="48.9460420"><time>2022-03-07T08:00:49.693</time></trkpt><trkpt lat="55.8341398" lon="48.9461389"><time>2022-03-07T08:00:51.737</time></trkpt><trkpt lat="55.8341200" lon="48.9462232"><time>2022-03-07T08:00:53.677</time></trkpt><trkpt lat="55.8341051" lon="48.9463074"><time>2022-03-07T08:00:55.717</time></trkpt><trkpt lat="55.8340825" lon="48.9463884"><time>2022-03-07T08:00:57.703</time></trkpt><trkpt lat="55.8340432" lon="48.9464821"><time>2022-03-07T08:01:00.707</time></trkpt><trkpt lat="55.8340375" lon="48.9465671"><time>2022-03-07T08:01:03.717</time></trkpt><trkpt lat="55.8340532" lon="48.9466469"><time>2022-03-07T08:01:11.713</time></trkpt><trkpt lat="55.8340655" lon="48.9467422"><time>2022-03-07T08:01:15.697</time></trkpt><trkpt lat="55.8340702" lon="48.9468296"><time>2022-03-07T08:01:20.683</time></trkpt><trkpt lat="55.8340311" lon="48.9469331"><time>2022-03-07T08:01:24.707</time></trkpt><trkpt lat="55.8340039" lon="48.9470131"><time>2022-03-07T08:01:26.747</time></trkpt><trkpt lat="55.8339273" lon="48.9471601"><time>2022-03-07T08:01:28.493</time></trkpt><trkpt lat="55.8339734" lon="48.9472830"><time>2022-03-07T08:01:30.703</time></trkpt><trkpt lat="55.8339271" lon="48.9472898"><time>2022-03-07T08:01:31.693</time></trkpt><trkpt lat="55.8339064" lon="48.9474033"><time>2022-03-07T08:01:33.700</time></trkpt><trkpt lat="55.8338816" lon="48.9475094"><time>2022-03-07T08:01:35.690</time></trkpt><trkpt lat="55.8338556" lon="48.9476073"><time>2022-03-07T08:01:37.697</time></trkpt><trkpt lat="55.8338308" lon="48.9477017"><time>2022-03-07T08:01:39.690</time></trkpt><trkpt lat="55.8338049" lon="48.9477932"><time>2022-03-07T08:01:41.693</time></trkpt><trkpt lat="55.8337858" lon="48.9478939"><time>2022-03-07T08:01:43.700</time></trkpt><trkpt lat="55.8337533" lon="48.9479733"><time>2022-03-07T08:01:45.707</time></trkpt><trkpt lat="55.8339160" lon="48.9478922"><time>2022-03-07T08:01:46.470</time></trkpt><trkpt lat="55.8337225" lon="48.9480731"><time>2022-03-07T08:01:48.243</time></trkpt><trkpt lat="55.8339290" lon="48.9483128"><time>2022-03-07T08:01:49.007</time></trkpt><trkpt lat="55.8337051" lon="48.9481285"><time>2022-03-07T08:01:50.847</time></trkpt><trkpt lat="55.8336458" lon="48.9482665"><time>2022-03-07T08:01:52.647</time></trkpt><trkpt lat="55.8336668" lon="48.9481889"><time>2022-03-07T08:01:53.710</time></trkpt><trkpt lat="55.8337137" lon="48.9480877"><time>2022-03-07T08:01:54.727</time></trkpt><trkpt lat="55.8336612" lon="48.9480912"><time>2022-03-07T08:01:55.720</time></trkpt><trkpt lat="55.8336158" lon="48.9480284"><time>2022-03-07T08:01:58.710</time></trkpt><trkpt lat="55.8335578" lon="48.9480005"><time>2022-03-07T08:02:00.690</time></trkpt><trkpt lat="55.8335059" lon="48.9479811"><time>2022-03-07T08:02:02.697</time></trkpt><trkpt lat="55.8334582" lon="48.9479882"><time>2022-03-07T08:02:05.740</time></trkpt><trkpt lat="55.8334582" lon="48.9479882"><time>2022-03-07T08:02:05.850</time></trkpt><trkpt lat="55.8335030" lon="48.9480030"><time>2022-03-07T08:02:24.767</time></trkpt><trkpt lat="55.8335661" lon="48.9478973"><time>2022-03-07T08:02:26.563</time></trkpt><trkpt lat="55.8335268" lon="48.9480850"><time>2022-03-07T08:02:28.723</time></trkpt><trkpt lat="55.8335721" lon="48.9479996"><time>2022-03-07T08:02:29.680</time></trkpt><trkpt lat="55.8336106" lon="48.9480542"><time>2022-03-07T08:02:32.673</time></trkpt><trkpt lat="55.8331011" lon="48.9588587"><time>2022-03-07T08:07:17.650</time></trkpt><trkpt lat="55.8336232" lon="48.9589741"><time>2022-03-07T08:07:18.680</time></trkpt><trkpt lat="55.8336132" lon="48.9588555"><time>2022-03-07T08:07:18.970</time></trkpt><trkpt lat="55.8336379" lon="48.9587771"><time>2022-03-07T08:07:21.667</time></trkpt><trkpt lat="55.8335813" lon="48.9588558"><time>2022-03-07T08:07:25.680</time></trkpt><trkpt lat="55.8335444" lon="48.9589801"><time>2022-03-07T08:07:27.677</time></trkpt><trkpt lat="55.8335082" lon="48.9590548"><time>2022-03-07T08:07:28.687</time></trkpt><trkpt lat="55.8334742" lon="48.9591280"><time>2022-03-07T08:07:29.663</time></trkpt><trkpt lat="55.8334437" lon="48.9592040"><time>2022-03-07T08:07:30.663</time></trkpt><trkpt lat="55.8334066" lon="48.9592723"><time>2022-03-07T08:07:31.683</time></trkpt><trkpt lat="55.8333717" lon="48.9593412"><time>2022-03-07T08:07:32.697</time></trkpt><trkpt lat="55.8333436" lon="48.9594137"><time>2022-03-07T08:07:33.697</time></trkpt><trkpt lat="55.8332708" lon="48.9595013"><time>2022-03-07T08:07:35.417</time></trkpt><trkpt lat="55.8332008" lon="48.9595886"><time>2022-03-07T08:07:36.697</time></trkpt><trkpt lat="55.8331456" lon="48.9597243"><time>2022-03-07T08:07:38.707</time></trkpt><trkpt lat="55.8331072" lon="48.9598450"><time>2022-03-07T08:07:40.697</time></trkpt><trkpt lat="55.8330766" lon="48.9599192"><time>2022-03-07T08:07:41.667</time></trkpt><trkpt lat="55.8330431" lon="48.9599840"><time>2022-03-07T08:07:42.687</time></trkpt><trkpt lat="55.8330108" lon="48.9600593"><time>2022-03-07T08:07:43.680</time></trkpt><trkpt lat="55.8329681" lon="48.9601872"><time>2022-03-07T08:07:45.673</time></trkpt><trkpt lat="55.8329532" lon="48.9603489"><time>2022-03-07T08:07:47.673</time></trkpt><trkpt lat="55.8329522" lon="48.9604354"><time>2022-03-07T08:07:48.693</time></trkpt><trkpt lat="55.8329561" lon="48.9605800"><time>2022-03-07T08:07:50.757</time></trkpt><trkpt lat="55.8329624" lon="48.9607279"><time>2022-03-07T08:07:52.740</time></trkpt><trkpt lat="55.8329604" lon="48.9608727"><time>2022-03-07T08:07:54.733</time></trkpt><trkpt lat="55.8329576" lon="48.9610069"><time>2022-03-07T08:07:56.737</time></trkpt><trkpt lat="55.8329604" lon="48.9610884"><time>2022-03-07T08:07:57.753</time></trkpt><trkpt lat="55.8329565" lon="48.9611736"><time>2022-03-07T08:07:58.737</time></trkpt><trkpt lat="55.8329689" lon="48.9613091"><time>2022-03-07T08:08:00.770</time></trkpt><trkpt lat="55.8330237" lon="48.9614550"><time>2022-03-07T08:08:02.683</time></trkpt><trkpt lat="55.8330686" lon="48.9614993"><time>2022-03-07T08:08:03.737</time></trkpt><trkpt lat="55.8331068" lon="48.9615957"><time>2022-03-07T08:08:04.723</time></trkpt><trkpt lat="55.8331726" lon="48.9616277"><time>2022-03-07T08:08:08.747</time></trkpt><trkpt lat="55.8332371" lon="48.9616523"><time>2022-03-07T08:08:10.770</time></trkpt><trkpt lat="55.8332892" lon="48.9616837"><time>2022-03-07T08:08:12.717</time></trkpt><trkpt lat="55.8333410" lon="48.9617370"><time>2022-03-07T08:08:17.717</time></trkpt><trkpt lat="55.8333749" lon="48.9617952"><time>2022-03-07T08:08:19.770</time></trkpt></trkseg></trk></gpx>